<?xml version="1.0" encoding="UTF-8" standalone="no" ?>
<gpx xmlns="http://www.topografix.com/GPX/1/1" xmlns:xsi="http://www.w3.org/2001/XMLSchema-instance" xsi:schemaLocation="http://www.topografix.com/GPX/1/1 http://www.topografix.com/GPX/1/1/gpx.xsd" version="1.1" creator="VisuGPX - https://www.visugpx.com">
  <metadata>
    <name> étapes en Corse</name>
    <desc><![CDATA[Etape 1 les Agriates
Etape 2 îles Rousse-Calvi
Etape 3  Galeria Scandola]]></desc>
  </metadata>
  <wpt lat="43.22555" lon="6.44935">
    <ele>54</ele>
    <name><![CDATA[parking]]></name>
    <desc><![CDATA[16-MAI-15 9:26:59]]></desc>
    <cmt><![CDATA[16-MAI-15 9:26:59]]></cmt>
    <type><![CDATA[user]]></type>
  </wpt>
  <wpt lat="43.23505" lon="6.4006">
    <ele>423</ele>
    <name><![CDATA[parking02]]></name>
    <desc><![CDATA[16-MAI-15 12:19:33]]></desc>
    <cmt><![CDATA[16-MAI-15 12:19:33]]></cmt>
    <type><![CDATA[user]]></type>
  </wpt>
  <wpt lat="43.21304" lon="6.4631">
    <ele>42</ele>
    <name><![CDATA[piste]]></name>
    <desc><![CDATA[Chemin]]></desc>
    <cmt><![CDATA[Chemin]]></cmt>
    <type><![CDATA[user]]></type>
  </wpt>
  <trk>
    <name><![CDATA[Tracé 004 001]]></name>
    <trkseg>
      <trkpt lat="42.41827" lon="8.64062">
        <ele>3.92</ele>
        <time>2017-06-03T07:02:53Z</time>
      </trkpt>
      <trkpt lat="42.41832" lon="8.64055">
        <ele>3.79</ele>
        <time>2017-06-03T07:03:22Z</time>
      </trkpt>
      <trkpt lat="42.41836" lon="8.64053">
        <ele>3.76</ele>
        <time>2017-06-03T07:03:27Z</time>
      </trkpt>
      <trkpt lat="42.41852" lon="8.64028">
        <ele>3.77</ele>
        <time>2017-06-03T07:03:50Z</time>
      </trkpt>
      <trkpt lat="42.41864" lon="8.63993">
        <ele>3.48</ele>
        <time>2017-06-03T07:04:10Z</time>
      </trkpt>
      <trkpt lat="42.41867" lon="8.63944">
        <ele>3.49</ele>
        <time>2017-06-03T07:04:32Z</time>
      </trkpt>
      <trkpt lat="42.41861" lon="8.6389">
        <ele>3.48</ele>
        <time>2017-06-03T07:04:55Z</time>
      </trkpt>
      <trkpt lat="42.4185" lon="8.63848">
        <ele>3.39</ele>
        <time>2017-06-03T07:05:17Z</time>
      </trkpt>
      <trkpt lat="42.41848" lon="8.63816">
        <ele>3.62</ele>
        <time>2017-06-03T07:05:34Z</time>
      </trkpt>
      <trkpt lat="42.41854" lon="8.63799">
        <ele>3.78</ele>
        <time>2017-06-03T07:05:53Z</time>
      </trkpt>
      <trkpt lat="42.41859" lon="8.63791">
        <ele>3.9</ele>
        <time>2017-06-03T07:06:26Z</time>
      </trkpt>
      <trkpt lat="42.4186" lon="8.63792">
        <ele>4.02</ele>
        <time>2017-06-03T07:06:56Z</time>
      </trkpt>
      <trkpt lat="42.41868" lon="8.63792">
        <ele>3.96</ele>
        <time>2017-06-03T07:07:23Z</time>
      </trkpt>
      <trkpt lat="42.41881" lon="8.63786">
        <ele>4.18</ele>
        <time>2017-06-03T07:07:54Z</time>
      </trkpt>
      <trkpt lat="42.41887" lon="8.63784">
        <ele>4.41</ele>
        <time>2017-06-03T07:08:23Z</time>
      </trkpt>
      <trkpt lat="42.41885" lon="8.63788">
        <ele>4.45</ele>
        <time>2017-06-03T07:08:52Z</time>
      </trkpt>
      <trkpt lat="42.41884" lon="8.63789">
        <ele>4.19</ele>
        <time>2017-06-03T07:09:23Z</time>
      </trkpt>
      <trkpt lat="42.41884" lon="8.63786">
        <ele>4.3</ele>
        <time>2017-06-03T07:09:45Z</time>
      </trkpt>
      <trkpt lat="42.41886" lon="8.63783">
        <ele>4.3</ele>
        <time>2017-06-03T07:09:47Z</time>
      </trkpt>
      <trkpt lat="42.41897" lon="8.63754">
        <ele>4.1</ele>
        <time>2017-06-03T07:10:08Z</time>
      </trkpt>
      <trkpt lat="42.419" lon="8.63713">
        <ele>4.14</ele>
        <time>2017-06-03T07:10:27Z</time>
      </trkpt>
      <trkpt lat="42.4189" lon="8.63673">
        <ele>4.14</ele>
        <time>2017-06-03T07:10:46Z</time>
      </trkpt>
      <trkpt lat="42.41896" lon="8.63634">
        <ele>4.08</ele>
        <time>2017-06-03T07:11:03Z</time>
      </trkpt>
      <trkpt lat="42.41906" lon="8.63593">
        <ele>3.97</ele>
        <time>2017-06-03T07:11:20Z</time>
      </trkpt>
      <trkpt lat="42.41912" lon="8.6355">
        <ele>4.04</ele>
        <time>2017-06-03T07:11:38Z</time>
      </trkpt>
      <trkpt lat="42.41919" lon="8.63519">
        <ele>3.81</ele>
        <time>2017-06-03T07:11:53Z</time>
      </trkpt>
      <trkpt lat="42.4191" lon="8.63491">
        <ele>4.15</ele>
        <time>2017-06-03T07:12:08Z</time>
      </trkpt>
      <trkpt lat="42.4191" lon="8.63477">
        <ele>4.39</ele>
        <time>2017-06-03T07:12:17Z</time>
      </trkpt>
      <trkpt lat="42.41924" lon="8.63453">
        <ele>4.25</ele>
        <time>2017-06-03T07:12:32Z</time>
      </trkpt>
      <trkpt lat="42.41938" lon="8.63426">
        <ele>4.34</ele>
        <time>2017-06-03T07:12:47Z</time>
      </trkpt>
      <trkpt lat="42.41958" lon="8.63403">
        <ele>4.37</ele>
        <time>2017-06-03T07:13:01Z</time>
      </trkpt>
      <trkpt lat="42.41976" lon="8.63375">
        <ele>4.26</ele>
        <time>2017-06-03T07:13:15Z</time>
      </trkpt>
      <trkpt lat="42.41988" lon="8.63346">
        <ele>4.18</ele>
        <time>2017-06-03T07:13:29Z</time>
      </trkpt>
      <trkpt lat="42.42004" lon="8.63316">
        <ele>4.29</ele>
        <time>2017-06-03T07:13:45Z</time>
      </trkpt>
      <trkpt lat="42.42019" lon="8.63286">
        <ele>4.3</ele>
        <time>2017-06-03T07:13:59Z</time>
      </trkpt>
      <trkpt lat="42.42028" lon="8.63243">
        <ele>4.2</ele>
        <time>2017-06-03T07:14:17Z</time>
      </trkpt>
      <trkpt lat="42.42042" lon="8.63194">
        <ele>4.12</ele>
        <time>2017-06-03T07:14:37Z</time>
      </trkpt>
      <trkpt lat="42.42051" lon="8.63149">
        <ele>4.04</ele>
        <time>2017-06-03T07:14:55Z</time>
      </trkpt>
      <trkpt lat="42.42064" lon="8.63107">
        <ele>4.12</ele>
        <time>2017-06-03T07:15:12Z</time>
      </trkpt>
      <trkpt lat="42.42078" lon="8.63068">
        <ele>4.19</ele>
        <time>2017-06-03T07:15:28Z</time>
      </trkpt>
      <trkpt lat="42.42087" lon="8.6303">
        <ele>4.13</ele>
        <time>2017-06-03T07:15:43Z</time>
      </trkpt>
      <trkpt lat="42.42093" lon="8.62991">
        <ele>4.15</ele>
        <time>2017-06-03T07:15:58Z</time>
      </trkpt>
      <trkpt lat="42.42096" lon="8.62946">
        <ele>4.22</ele>
        <time>2017-06-03T07:16:15Z</time>
      </trkpt>
      <trkpt lat="42.42099" lon="8.62892">
        <ele>4.35</ele>
        <time>2017-06-03T07:16:35Z</time>
      </trkpt>
      <trkpt lat="42.42095" lon="8.6285">
        <ele>4.13</ele>
        <time>2017-06-03T07:16:53Z</time>
      </trkpt>
      <trkpt lat="42.42078" lon="8.62827">
        <ele>4.25</ele>
        <time>2017-06-03T07:17:08Z</time>
      </trkpt>
      <trkpt lat="42.42079" lon="8.62799">
        <ele>4.07</ele>
        <time>2017-06-03T07:17:21Z</time>
      </trkpt>
      <trkpt lat="42.421" lon="8.62765">
        <ele>4.26</ele>
        <time>2017-06-03T07:17:37Z</time>
      </trkpt>
      <trkpt lat="42.42105" lon="8.62718">
        <ele>4.06</ele>
        <time>2017-06-03T07:17:55Z</time>
      </trkpt>
      <trkpt lat="42.42104" lon="8.62658">
        <ele>4.15</ele>
        <time>2017-06-03T07:18:17Z</time>
      </trkpt>
      <trkpt lat="42.42103" lon="8.62607">
        <ele>4</ele>
        <time>2017-06-03T07:18:36Z</time>
      </trkpt>
      <trkpt lat="42.42107" lon="8.62556">
        <ele>4.23</ele>
        <time>2017-06-03T07:18:54Z</time>
      </trkpt>
      <trkpt lat="42.42119" lon="8.62523">
        <ele>4.32</ele>
        <time>2017-06-03T07:19:09Z</time>
      </trkpt>
      <trkpt lat="42.42129" lon="8.62488">
        <ele>4.06</ele>
        <time>2017-06-03T07:19:23Z</time>
      </trkpt>
      <trkpt lat="42.4214" lon="8.62443">
        <ele>3.88</ele>
        <time>2017-06-03T07:19:41Z</time>
      </trkpt>
      <trkpt lat="42.4215" lon="8.62403">
        <ele>4.13</ele>
        <time>2017-06-03T07:19:58Z</time>
      </trkpt>
      <trkpt lat="42.42159" lon="8.62381">
        <ele>4.04</ele>
        <time>2017-06-03T07:20:15Z</time>
      </trkpt>
      <trkpt lat="42.42167" lon="8.62376">
        <ele>4.06</ele>
        <time>2017-06-03T07:20:40Z</time>
      </trkpt>
      <trkpt lat="42.42177" lon="8.62368">
        <ele>4</ele>
        <time>2017-06-03T07:20:49Z</time>
      </trkpt>
      <trkpt lat="42.42199" lon="8.62327">
        <ele>3.89</ele>
        <time>2017-06-03T07:21:10Z</time>
      </trkpt>
      <trkpt lat="42.42215" lon="8.62293">
        <ele>3.96</ele>
        <time>2017-06-03T07:21:26Z</time>
      </trkpt>
      <trkpt lat="42.42212" lon="8.62249">
        <ele>4.06</ele>
        <time>2017-06-03T07:21:45Z</time>
      </trkpt>
      <trkpt lat="42.42192" lon="8.62219">
        <ele>3.88</ele>
        <time>2017-06-03T07:22:01Z</time>
      </trkpt>
      <trkpt lat="42.42172" lon="8.62194">
        <ele>3.87</ele>
        <time>2017-06-03T07:22:16Z</time>
      </trkpt>
      <trkpt lat="42.42153" lon="8.62186">
        <ele>3.95</ele>
        <time>2017-06-03T07:22:31Z</time>
      </trkpt>
      <trkpt lat="42.42137" lon="8.62177">
        <ele>3.83</ele>
        <time>2017-06-03T07:22:42Z</time>
      </trkpt>
      <trkpt lat="42.42123" lon="8.62169">
        <ele>3.97</ele>
        <time>2017-06-03T07:22:56Z</time>
      </trkpt>
      <trkpt lat="42.42119" lon="8.62166">
        <ele>3.75</ele>
        <time>2017-06-03T07:23:14Z</time>
      </trkpt>
      <trkpt lat="42.42116" lon="8.62159">
        <ele>3.8</ele>
        <time>2017-06-03T07:23:25Z</time>
      </trkpt>
      <trkpt lat="42.42097" lon="8.62136">
        <ele>3.66</ele>
        <time>2017-06-03T07:23:43Z</time>
      </trkpt>
      <trkpt lat="42.42069" lon="8.62126">
        <ele>3.68</ele>
        <time>2017-06-03T07:23:59Z</time>
      </trkpt>
      <trkpt lat="42.42043" lon="8.62124">
        <ele>3.64</ele>
        <time>2017-06-03T07:24:13Z</time>
      </trkpt>
      <trkpt lat="42.42012" lon="8.62125">
        <ele>3.46</ele>
        <time>2017-06-03T07:24:29Z</time>
      </trkpt>
      <trkpt lat="42.41992" lon="8.62122">
        <ele>3.78</ele>
        <time>2017-06-03T07:24:40Z</time>
      </trkpt>
      <trkpt lat="42.41963" lon="8.62109">
        <ele>3.74</ele>
        <time>2017-06-03T07:24:54Z</time>
      </trkpt>
      <trkpt lat="42.41935" lon="8.62094">
        <ele>3.79</ele>
        <time>2017-06-03T07:25:09Z</time>
      </trkpt>
      <trkpt lat="42.4191" lon="8.62086">
        <ele>3.76</ele>
        <time>2017-06-03T07:25:23Z</time>
      </trkpt>
      <trkpt lat="42.4188" lon="8.62079">
        <ele>3.76</ele>
        <time>2017-06-03T07:25:37Z</time>
      </trkpt>
      <trkpt lat="42.41855" lon="8.62076">
        <ele>3.58</ele>
        <time>2017-06-03T07:25:52Z</time>
      </trkpt>
      <trkpt lat="42.41833" lon="8.62071">
        <ele>3.48</ele>
        <time>2017-06-03T07:26:05Z</time>
      </trkpt>
      <trkpt lat="42.41809" lon="8.62067">
        <ele>3.61</ele>
        <time>2017-06-03T07:26:21Z</time>
      </trkpt>
      <trkpt lat="42.41803" lon="8.62069">
        <ele>3.75</ele>
        <time>2017-06-03T07:26:26Z</time>
      </trkpt>
      <trkpt lat="42.41784" lon="8.6207">
        <ele>3.66</ele>
        <time>2017-06-03T07:26:40Z</time>
      </trkpt>
      <trkpt lat="42.41772" lon="8.62068">
        <ele>3.6</ele>
        <time>2017-06-03T07:26:53Z</time>
      </trkpt>
      <trkpt lat="42.41764" lon="8.62055">
        <ele>3.59</ele>
        <time>2017-06-03T07:27:19Z</time>
      </trkpt>
      <trkpt lat="42.41763" lon="8.62048">
        <ele>3.57</ele>
        <time>2017-06-03T07:27:48Z</time>
      </trkpt>
      <trkpt lat="42.41761" lon="8.62044">
        <ele>3.39</ele>
        <time>2017-06-03T07:28:11Z</time>
      </trkpt>
      <trkpt lat="42.4176" lon="8.62019">
        <ele>3.34</ele>
        <time>2017-06-03T07:28:39Z</time>
      </trkpt>
      <trkpt lat="42.4176" lon="8.62002">
        <ele>2.99</ele>
        <time>2017-06-03T07:29:00Z</time>
      </trkpt>
      <trkpt lat="42.41755" lon="8.61993">
        <ele>3.46</ele>
        <time>2017-06-03T07:29:17Z</time>
      </trkpt>
      <trkpt lat="42.41756" lon="8.61996">
        <ele>3.45</ele>
        <time>2017-06-03T07:29:32Z</time>
      </trkpt>
      <trkpt lat="42.41758" lon="8.62003">
        <ele>3.21</ele>
        <time>2017-06-03T07:29:53Z</time>
      </trkpt>
      <trkpt lat="42.41759" lon="8.62">
        <ele>3.11</ele>
        <time>2017-06-03T07:30:13Z</time>
      </trkpt>
      <trkpt lat="42.4176" lon="8.62">
        <ele>2.99</ele>
        <time>2017-06-03T07:30:31Z</time>
      </trkpt>
      <trkpt lat="42.4176" lon="8.62">
        <ele>3.05</ele>
        <time>2017-06-03T07:30:48Z</time>
      </trkpt>
      <trkpt lat="42.41761" lon="8.61999">
        <ele>3.34</ele>
        <time>2017-06-03T07:31:07Z</time>
      </trkpt>
      <trkpt lat="42.4176" lon="8.61998">
        <ele>3.22</ele>
        <time>2017-06-03T07:31:24Z</time>
      </trkpt>
      <trkpt lat="42.41762" lon="8.61993">
        <ele>3.17</ele>
        <time>2017-06-03T07:31:41Z</time>
      </trkpt>
      <trkpt lat="42.41763" lon="8.61989">
        <ele>3.08</ele>
        <time>2017-06-03T07:31:46Z</time>
      </trkpt>
      <trkpt lat="42.41764" lon="8.61985">
        <ele>2.95</ele>
        <time>2017-06-03T07:31:49Z</time>
      </trkpt>
      <trkpt lat="42.41773" lon="8.61947">
        <ele>3.07</ele>
        <time>2017-06-03T07:32:09Z</time>
      </trkpt>
      <trkpt lat="42.41785" lon="8.61904">
        <ele>2.87</ele>
        <time>2017-06-03T07:32:27Z</time>
      </trkpt>
      <trkpt lat="42.4179" lon="8.61856">
        <ele>2.76</ele>
        <time>2017-06-03T07:32:46Z</time>
      </trkpt>
      <trkpt lat="42.41785" lon="8.61812">
        <ele>2.73</ele>
        <time>2017-06-03T07:33:04Z</time>
      </trkpt>
      <trkpt lat="42.4177" lon="8.61778">
        <ele>2.67</ele>
        <time>2017-06-03T07:33:22Z</time>
      </trkpt>
      <trkpt lat="42.41748" lon="8.6176">
        <ele>2.71</ele>
        <time>2017-06-03T07:33:41Z</time>
      </trkpt>
      <trkpt lat="42.41736" lon="8.61759">
        <ele>2.72</ele>
        <time>2017-06-03T07:33:52Z</time>
      </trkpt>
      <trkpt lat="42.41732" lon="8.61754">
        <ele>2.69</ele>
        <time>2017-06-03T07:33:57Z</time>
      </trkpt>
      <trkpt lat="42.41735" lon="8.61732">
        <ele>2.89</ele>
        <time>2017-06-03T07:34:12Z</time>
      </trkpt>
      <trkpt lat="42.41743" lon="8.61723">
        <ele>2.73</ele>
        <time>2017-06-03T07:34:20Z</time>
      </trkpt>
      <trkpt lat="42.41747" lon="8.61697">
        <ele>2.7</ele>
        <time>2017-06-03T07:34:37Z</time>
      </trkpt>
      <trkpt lat="42.41738" lon="8.61665">
        <ele>2.53</ele>
        <time>2017-06-03T07:34:52Z</time>
      </trkpt>
      <trkpt lat="42.41729" lon="8.61639">
        <ele>2.51</ele>
        <time>2017-06-03T07:35:04Z</time>
      </trkpt>
      <trkpt lat="42.41722" lon="8.61609">
        <ele>2.3</ele>
        <time>2017-06-03T07:35:17Z</time>
      </trkpt>
      <trkpt lat="42.41719" lon="8.61578">
        <ele>2.15</ele>
        <time>2017-06-03T07:35:30Z</time>
      </trkpt>
      <trkpt lat="42.41719" lon="8.61537">
        <ele>2.09</ele>
        <time>2017-06-03T07:35:46Z</time>
      </trkpt>
      <trkpt lat="42.41714" lon="8.61496">
        <ele>2.02</ele>
        <time>2017-06-03T07:36:03Z</time>
      </trkpt>
      <trkpt lat="42.41703" lon="8.61465">
        <ele>2.14</ele>
        <time>2017-06-03T07:36:20Z</time>
      </trkpt>
      <trkpt lat="42.41694" lon="8.61445">
        <ele>1.9</ele>
        <time>2017-06-03T07:36:37Z</time>
      </trkpt>
      <trkpt lat="42.41694" lon="8.61435">
        <ele>1.98</ele>
        <time>2017-06-03T07:36:58Z</time>
      </trkpt>
      <trkpt lat="42.41695" lon="8.61427">
        <ele>2.01</ele>
        <time>2017-06-03T07:37:08Z</time>
      </trkpt>
      <trkpt lat="42.41708" lon="8.61398">
        <ele>1.8</ele>
        <time>2017-06-03T07:37:29Z</time>
      </trkpt>
      <trkpt lat="42.41714" lon="8.6137">
        <ele>1.73</ele>
        <time>2017-06-03T07:37:46Z</time>
      </trkpt>
      <trkpt lat="42.41705" lon="8.61331">
        <ele>1.69</ele>
        <time>2017-06-03T07:38:04Z</time>
      </trkpt>
      <trkpt lat="42.41702" lon="8.61287">
        <ele>1.58</ele>
        <time>2017-06-03T07:38:25Z</time>
      </trkpt>
      <trkpt lat="42.417" lon="8.61253">
        <ele>1.48</ele>
        <time>2017-06-03T07:38:48Z</time>
      </trkpt>
      <trkpt lat="42.41696" lon="8.6122">
        <ele>1.69</ele>
        <time>2017-06-03T07:39:06Z</time>
      </trkpt>
      <trkpt lat="42.41692" lon="8.61169">
        <ele>1.67</ele>
        <time>2017-06-03T07:39:28Z</time>
      </trkpt>
      <trkpt lat="42.41688" lon="8.61108">
        <ele>1.51</ele>
        <time>2017-06-03T07:39:52Z</time>
      </trkpt>
      <trkpt lat="42.4169" lon="8.61053">
        <ele>1.43</ele>
        <time>2017-06-03T07:40:12Z</time>
      </trkpt>
      <trkpt lat="42.41698" lon="8.61014">
        <ele>1.48</ele>
        <time>2017-06-03T07:40:28Z</time>
      </trkpt>
      <trkpt lat="42.41714" lon="8.60972">
        <ele>1.63</ele>
        <time>2017-06-03T07:40:46Z</time>
      </trkpt>
      <trkpt lat="42.41727" lon="8.6093">
        <ele>1.59</ele>
        <time>2017-06-03T07:41:05Z</time>
      </trkpt>
      <trkpt lat="42.41739" lon="8.60878">
        <ele>1.35</ele>
        <time>2017-06-03T07:41:26Z</time>
      </trkpt>
      <trkpt lat="42.41727" lon="8.60843">
        <ele>1.44</ele>
        <time>2017-06-03T07:41:45Z</time>
      </trkpt>
      <trkpt lat="42.41703" lon="8.60811">
        <ele>1.65</ele>
        <time>2017-06-03T07:42:08Z</time>
      </trkpt>
      <trkpt lat="42.41684" lon="8.60776">
        <ele>1.37</ele>
        <time>2017-06-03T07:42:25Z</time>
      </trkpt>
      <trkpt lat="42.41667" lon="8.60728">
        <ele>1.15</ele>
        <time>2017-06-03T07:42:47Z</time>
      </trkpt>
      <trkpt lat="42.41661" lon="8.60689">
        <ele>1.25</ele>
        <time>2017-06-03T07:43:07Z</time>
      </trkpt>
      <trkpt lat="42.41668" lon="8.60641">
        <ele>1.35</ele>
        <time>2017-06-03T07:43:27Z</time>
      </trkpt>
      <trkpt lat="42.41667" lon="8.60608">
        <ele>1.35</ele>
        <time>2017-06-03T07:43:46Z</time>
      </trkpt>
      <trkpt lat="42.41647" lon="8.60577">
        <ele>1.25</ele>
        <time>2017-06-03T07:44:05Z</time>
      </trkpt>
      <trkpt lat="42.41631" lon="8.60551">
        <ele>1.11</ele>
        <time>2017-06-03T07:44:23Z</time>
      </trkpt>
      <trkpt lat="42.41626" lon="8.60541">
        <ele>1.25</ele>
        <time>2017-06-03T07:44:41Z</time>
      </trkpt>
      <trkpt lat="42.41626" lon="8.60534">
        <ele>1.51</ele>
        <time>2017-06-03T07:44:51Z</time>
      </trkpt>
      <trkpt lat="42.41623" lon="8.60528">
        <ele>1.46</ele>
        <time>2017-06-03T07:44:55Z</time>
      </trkpt>
      <trkpt lat="42.41596" lon="8.60513">
        <ele>1.23</ele>
        <time>2017-06-03T07:45:15Z</time>
      </trkpt>
      <trkpt lat="42.4156" lon="8.60522">
        <ele>1.31</ele>
        <time>2017-06-03T07:45:34Z</time>
      </trkpt>
      <trkpt lat="42.41519" lon="8.6052">
        <ele>1.15</ele>
        <time>2017-06-03T07:45:54Z</time>
      </trkpt>
      <trkpt lat="42.41481" lon="8.60512">
        <ele>1.29</ele>
        <time>2017-06-03T07:46:13Z</time>
      </trkpt>
      <trkpt lat="42.41463" lon="8.60523">
        <ele>1.37</ele>
        <time>2017-06-03T07:46:28Z</time>
      </trkpt>
      <trkpt lat="42.4145" lon="8.60547">
        <ele>1.05</ele>
        <time>2017-06-03T07:46:44Z</time>
      </trkpt>
      <trkpt lat="42.41444" lon="8.60561">
        <ele>0.97</ele>
        <time>2017-06-03T07:46:58Z</time>
      </trkpt>
      <trkpt lat="42.41435" lon="8.60578">
        <ele>1.17</ele>
        <time>2017-06-03T07:47:23Z</time>
      </trkpt>
      <trkpt lat="42.41436" lon="8.60586">
        <ele>1.31</ele>
        <time>2017-06-03T07:47:35Z</time>
      </trkpt>
      <trkpt lat="42.41438" lon="8.60592">
        <ele>1.24</ele>
        <time>2017-06-03T07:48:01Z</time>
      </trkpt>
      <trkpt lat="42.4144" lon="8.60575">
        <ele>1.44</ele>
        <time>2017-06-03T07:48:23Z</time>
      </trkpt>
      <trkpt lat="42.41439" lon="8.6057">
        <ele>1.42</ele>
        <time>2017-06-03T07:48:27Z</time>
      </trkpt>
      <trkpt lat="42.41446" lon="8.60541">
        <ele>1.19</ele>
        <time>2017-06-03T07:48:45Z</time>
      </trkpt>
      <trkpt lat="42.41452" lon="8.60512">
        <ele>1.25</ele>
        <time>2017-06-03T07:48:58Z</time>
      </trkpt>
      <trkpt lat="42.41432" lon="8.60494">
        <ele>1.14</ele>
        <time>2017-06-03T07:49:14Z</time>
      </trkpt>
      <trkpt lat="42.41409" lon="8.60511">
        <ele>1.27</ele>
        <time>2017-06-03T07:49:30Z</time>
      </trkpt>
      <trkpt lat="42.41387" lon="8.6054">
        <ele>1.16</ele>
        <time>2017-06-03T07:49:46Z</time>
      </trkpt>
      <trkpt lat="42.41376" lon="8.60564">
        <ele>1.23</ele>
        <time>2017-06-03T07:50:00Z</time>
      </trkpt>
      <trkpt lat="42.41366" lon="8.60576">
        <ele>1.45</ele>
        <time>2017-06-03T07:50:13Z</time>
      </trkpt>
      <trkpt lat="42.41351" lon="8.60597">
        <ele>1.13</ele>
        <time>2017-06-03T07:50:31Z</time>
      </trkpt>
      <trkpt lat="42.41329" lon="8.60626">
        <ele>0.78</ele>
        <time>2017-06-03T07:50:50Z</time>
      </trkpt>
      <trkpt lat="42.41305" lon="8.60636">
        <ele>0.94</ele>
        <time>2017-06-03T07:51:07Z</time>
      </trkpt>
      <trkpt lat="42.41277" lon="8.60618">
        <ele>1</ele>
        <time>2017-06-03T07:51:26Z</time>
      </trkpt>
      <trkpt lat="42.41257" lon="8.60595">
        <ele>0.86</ele>
        <time>2017-06-03T07:51:42Z</time>
      </trkpt>
      <trkpt lat="42.41223" lon="8.60573">
        <ele>0.79</ele>
        <time>2017-06-03T07:52:02Z</time>
      </trkpt>
      <trkpt lat="42.41188" lon="8.60554">
        <ele>0.79</ele>
        <time>2017-06-03T07:52:22Z</time>
      </trkpt>
      <trkpt lat="42.41157" lon="8.60538">
        <ele>0.75</ele>
        <time>2017-06-03T07:52:39Z</time>
      </trkpt>
      <trkpt lat="42.41135" lon="8.6051">
        <ele>0.74</ele>
        <time>2017-06-03T07:52:54Z</time>
      </trkpt>
      <trkpt lat="42.41114" lon="8.60475">
        <ele>0.59</ele>
        <time>2017-06-03T07:53:11Z</time>
      </trkpt>
      <trkpt lat="42.41105" lon="8.60459">
        <ele>0.51</ele>
        <time>2017-06-03T07:53:19Z</time>
      </trkpt>
      <trkpt lat="42.41085" lon="8.60428">
        <ele>0.4</ele>
        <time>2017-06-03T07:53:34Z</time>
      </trkpt>
      <trkpt lat="42.41067" lon="8.60399">
        <ele>0.43</ele>
        <time>2017-06-03T07:53:49Z</time>
      </trkpt>
      <trkpt lat="42.41052" lon="8.60377">
        <ele>0.6</ele>
        <time>2017-06-03T07:54:01Z</time>
      </trkpt>
      <trkpt lat="42.41034" lon="8.60346">
        <ele>0.51</ele>
        <time>2017-06-03T07:54:14Z</time>
      </trkpt>
      <trkpt lat="42.41023" lon="8.60315">
        <ele>0.62</ele>
        <time>2017-06-03T07:54:27Z</time>
      </trkpt>
      <trkpt lat="42.41012" lon="8.60277">
        <ele>0.64</ele>
        <time>2017-06-03T07:54:42Z</time>
      </trkpt>
      <trkpt lat="42.40998" lon="8.60243">
        <ele>0.49</ele>
        <time>2017-06-03T07:54:56Z</time>
      </trkpt>
      <trkpt lat="42.40981" lon="8.60202">
        <ele>0.39</ele>
        <time>2017-06-03T07:55:12Z</time>
      </trkpt>
      <trkpt lat="42.40969" lon="8.60165">
        <ele>0.22</ele>
        <time>2017-06-03T07:55:27Z</time>
      </trkpt>
      <trkpt lat="42.40941" lon="8.60129">
        <ele>0.14</ele>
        <time>2017-06-03T07:55:46Z</time>
      </trkpt>
      <trkpt lat="42.40922" lon="8.60106">
        <ele>0.05</ele>
        <time>2017-06-03T07:55:59Z</time>
      </trkpt>
      <trkpt lat="42.40889" lon="8.60083">
        <ele>0.1</ele>
        <time>2017-06-03T07:56:19Z</time>
      </trkpt>
      <trkpt lat="42.40861" lon="8.60079">
        <ele>0.16</ele>
        <time>2017-06-03T07:56:33Z</time>
      </trkpt>
      <trkpt lat="42.40831" lon="8.60092">
        <ele>0.15</ele>
        <time>2017-06-03T07:56:51Z</time>
      </trkpt>
      <trkpt lat="42.40803" lon="8.60108">
        <ele>0.03</ele>
        <time>2017-06-03T07:57:08Z</time>
      </trkpt>
      <trkpt lat="42.40776" lon="8.60124">
        <ele>0.25</ele>
        <time>2017-06-03T07:57:24Z</time>
      </trkpt>
      <trkpt lat="42.40749" lon="8.6014">
        <ele>0.29</ele>
        <time>2017-06-03T07:57:39Z</time>
      </trkpt>
      <trkpt lat="42.40719" lon="8.60146">
        <ele>0.31</ele>
        <time>2017-06-03T07:57:55Z</time>
      </trkpt>
      <trkpt lat="42.40701" lon="8.60139">
        <ele>0.38</ele>
        <time>2017-06-03T07:58:12Z</time>
      </trkpt>
      <trkpt lat="42.40679" lon="8.60121">
        <ele>0.07</ele>
        <time>2017-06-03T07:58:30Z</time>
      </trkpt>
      <trkpt lat="42.40654" lon="8.60094">
        <ele>-0.1</ele>
        <time>2017-06-03T07:58:46Z</time>
      </trkpt>
      <trkpt lat="42.40624" lon="8.60063">
        <ele>-0.05</ele>
        <time>2017-06-03T07:59:04Z</time>
      </trkpt>
      <trkpt lat="42.406" lon="8.60038">
        <ele>-0.06</ele>
        <time>2017-06-03T07:59:18Z</time>
      </trkpt>
      <trkpt lat="42.40575" lon="8.60013">
        <ele>-0.18</ele>
        <time>2017-06-03T07:59:33Z</time>
      </trkpt>
      <trkpt lat="42.40551" lon="8.59989">
        <ele>-0.09</ele>
        <time>2017-06-03T07:59:46Z</time>
      </trkpt>
      <trkpt lat="42.40522" lon="8.59953">
        <ele>-0.17</ele>
        <time>2017-06-03T08:00:04Z</time>
      </trkpt>
      <trkpt lat="42.40496" lon="8.59927">
        <ele>-0.36</ele>
        <time>2017-06-03T08:00:19Z</time>
      </trkpt>
      <trkpt lat="42.40466" lon="8.59898">
        <ele>-0.31</ele>
        <time>2017-06-03T08:00:37Z</time>
      </trkpt>
      <trkpt lat="42.40437" lon="8.59872">
        <ele>0.03</ele>
        <time>2017-06-03T08:00:53Z</time>
      </trkpt>
      <trkpt lat="42.40414" lon="8.59845">
        <ele>-0.31</ele>
        <time>2017-06-03T08:01:07Z</time>
      </trkpt>
      <trkpt lat="42.40389" lon="8.59818">
        <ele>-0.39</ele>
        <time>2017-06-03T08:01:23Z</time>
      </trkpt>
      <trkpt lat="42.40366" lon="8.59793">
        <ele>-0.37</ele>
        <time>2017-06-03T08:01:39Z</time>
      </trkpt>
      <trkpt lat="42.4034" lon="8.59763">
        <ele>-0.36</ele>
        <time>2017-06-03T08:01:57Z</time>
      </trkpt>
      <trkpt lat="42.40314" lon="8.59735">
        <ele>-0.26</ele>
        <time>2017-06-03T08:02:13Z</time>
      </trkpt>
      <trkpt lat="42.40301" lon="8.59722">
        <ele>-0.61</ele>
        <time>2017-06-03T08:02:28Z</time>
      </trkpt>
      <trkpt lat="42.40294" lon="8.59714">
        <ele>-0.55</ele>
        <time>2017-06-03T08:02:44Z</time>
      </trkpt>
      <trkpt lat="42.40291" lon="8.5971">
        <ele>-0.54</ele>
        <time>2017-06-03T08:02:48Z</time>
      </trkpt>
      <trkpt lat="42.40268" lon="8.59685">
        <ele>-0.79</ele>
        <time>2017-06-03T08:03:05Z</time>
      </trkpt>
      <trkpt lat="42.40243" lon="8.59654">
        <ele>-0.55</ele>
        <time>2017-06-03T08:03:22Z</time>
      </trkpt>
      <trkpt lat="42.40223" lon="8.59629">
        <ele>-0.83</ele>
        <time>2017-06-03T08:03:37Z</time>
      </trkpt>
      <trkpt lat="42.40206" lon="8.59607">
        <ele>-0.92</ele>
        <time>2017-06-03T08:03:49Z</time>
      </trkpt>
      <trkpt lat="42.40185" lon="8.59576">
        <ele>-1.11</ele>
        <time>2017-06-03T08:04:04Z</time>
      </trkpt>
      <trkpt lat="42.40171" lon="8.59557">
        <ele>-0.82</ele>
        <time>2017-06-03T08:04:14Z</time>
      </trkpt>
      <trkpt lat="42.4015" lon="8.59527">
        <ele>-0.88</ele>
        <time>2017-06-03T08:04:29Z</time>
      </trkpt>
      <trkpt lat="42.40123" lon="8.59492">
        <ele>-0.95</ele>
        <time>2017-06-03T08:04:46Z</time>
      </trkpt>
      <trkpt lat="42.40105" lon="8.59467">
        <ele>-1.14</ele>
        <time>2017-06-03T08:04:58Z</time>
      </trkpt>
      <trkpt lat="42.40085" lon="8.59437">
        <ele>-1.15</ele>
        <time>2017-06-03T08:05:12Z</time>
      </trkpt>
      <trkpt lat="42.40069" lon="8.59412">
        <ele>-1.14</ele>
        <time>2017-06-03T08:05:24Z</time>
      </trkpt>
      <trkpt lat="42.40054" lon="8.59387">
        <ele>-1.21</ele>
        <time>2017-06-03T08:05:35Z</time>
      </trkpt>
      <trkpt lat="42.4004" lon="8.59358">
        <ele>-1.42</ele>
        <time>2017-06-03T08:05:47Z</time>
      </trkpt>
      <trkpt lat="42.40023" lon="8.5933">
        <ele>-1.4</ele>
        <time>2017-06-03T08:05:59Z</time>
      </trkpt>
      <trkpt lat="42.40001" lon="8.593">
        <ele>-1.4</ele>
        <time>2017-06-03T08:06:13Z</time>
      </trkpt>
      <trkpt lat="42.3998" lon="8.59274">
        <ele>-1.1</ele>
        <time>2017-06-03T08:06:26Z</time>
      </trkpt>
      <trkpt lat="42.39956" lon="8.59243">
        <ele>-1.4</ele>
        <time>2017-06-03T08:06:41Z</time>
      </trkpt>
      <trkpt lat="42.39936" lon="8.59215">
        <ele>-1.25</ele>
        <time>2017-06-03T08:06:54Z</time>
      </trkpt>
      <trkpt lat="42.39913" lon="8.5919">
        <ele>-1.37</ele>
        <time>2017-06-03T08:07:08Z</time>
      </trkpt>
      <trkpt lat="42.39895" lon="8.59168">
        <ele>-1.31</ele>
        <time>2017-06-03T08:07:23Z</time>
      </trkpt>
      <trkpt lat="42.39867" lon="8.59138">
        <ele>-1.61</ele>
        <time>2017-06-03T08:07:41Z</time>
      </trkpt>
      <trkpt lat="42.39842" lon="8.59104">
        <ele>-1.85</ele>
        <time>2017-06-03T08:07:59Z</time>
      </trkpt>
      <trkpt lat="42.39826" lon="8.59083">
        <ele>-1.65</ele>
        <time>2017-06-03T08:08:10Z</time>
      </trkpt>
      <trkpt lat="42.39803" lon="8.59056">
        <ele>-1.51</ele>
        <time>2017-06-03T08:08:25Z</time>
      </trkpt>
      <trkpt lat="42.39783" lon="8.5903">
        <ele>-1.26</ele>
        <time>2017-06-03T08:08:38Z</time>
      </trkpt>
      <trkpt lat="42.39762" lon="8.59002">
        <ele>-1.55</ele>
        <time>2017-06-03T08:08:52Z</time>
      </trkpt>
      <trkpt lat="42.39737" lon="8.58975">
        <ele>-1.57</ele>
        <time>2017-06-03T08:09:07Z</time>
      </trkpt>
      <trkpt lat="42.3971" lon="8.58942">
        <ele>-1.52</ele>
        <time>2017-06-03T08:09:24Z</time>
      </trkpt>
      <trkpt lat="42.39682" lon="8.58908">
        <ele>-1.91</ele>
        <time>2017-06-03T08:09:42Z</time>
      </trkpt>
      <trkpt lat="42.39656" lon="8.58876">
        <ele>-1.87</ele>
        <time>2017-06-03T08:09:58Z</time>
      </trkpt>
      <trkpt lat="42.39636" lon="8.58849">
        <ele>-1.96</ele>
        <time>2017-06-03T08:10:12Z</time>
      </trkpt>
      <trkpt lat="42.39617" lon="8.5882">
        <ele>-1.98</ele>
        <time>2017-06-03T08:10:26Z</time>
      </trkpt>
      <trkpt lat="42.39601" lon="8.58798">
        <ele>-1.75</ele>
        <time>2017-06-03T08:10:37Z</time>
      </trkpt>
      <trkpt lat="42.39582" lon="8.58767">
        <ele>-1.99</ele>
        <time>2017-06-03T08:10:50Z</time>
      </trkpt>
      <trkpt lat="42.39568" lon="8.58739">
        <ele>-1.74</ele>
        <time>2017-06-03T08:11:02Z</time>
      </trkpt>
      <trkpt lat="42.39552" lon="8.58708">
        <ele>-1.96</ele>
        <time>2017-06-03T08:11:15Z</time>
      </trkpt>
      <trkpt lat="42.39534" lon="8.58678">
        <ele>-2.04</ele>
        <time>2017-06-03T08:11:29Z</time>
      </trkpt>
      <trkpt lat="42.39511" lon="8.58645">
        <ele>-2.05</ele>
        <time>2017-06-03T08:11:45Z</time>
      </trkpt>
      <trkpt lat="42.39489" lon="8.58613">
        <ele>-2.11</ele>
        <time>2017-06-03T08:12:01Z</time>
      </trkpt>
      <trkpt lat="42.39469" lon="8.58587">
        <ele>-2.16</ele>
        <time>2017-06-03T08:12:14Z</time>
      </trkpt>
      <trkpt lat="42.39442" lon="8.58554">
        <ele>-2.15</ele>
        <time>2017-06-03T08:12:31Z</time>
      </trkpt>
      <trkpt lat="42.39423" lon="8.58524">
        <ele>-2.1</ele>
        <time>2017-06-03T08:12:45Z</time>
      </trkpt>
      <trkpt lat="42.39406" lon="8.58497">
        <ele>-2.23</ele>
        <time>2017-06-03T08:12:59Z</time>
      </trkpt>
      <trkpt lat="42.39387" lon="8.58468">
        <ele>-2.36</ele>
        <time>2017-06-03T08:13:12Z</time>
      </trkpt>
      <trkpt lat="42.39369" lon="8.58437">
        <ele>-2.28</ele>
        <time>2017-06-03T08:13:25Z</time>
      </trkpt>
      <trkpt lat="42.39351" lon="8.58411">
        <ele>-2.44</ele>
        <time>2017-06-03T08:13:40Z</time>
      </trkpt>
      <trkpt lat="42.39327" lon="8.58392">
        <ele>-2.42</ele>
        <time>2017-06-03T08:13:55Z</time>
      </trkpt>
      <trkpt lat="42.39303" lon="8.58374">
        <ele>-2.44</ele>
        <time>2017-06-03T08:14:09Z</time>
      </trkpt>
      <trkpt lat="42.39278" lon="8.58355">
        <ele>-2.64</ele>
        <time>2017-06-03T08:14:23Z</time>
      </trkpt>
      <trkpt lat="42.3925" lon="8.58335">
        <ele>-2.42</ele>
        <time>2017-06-03T08:14:39Z</time>
      </trkpt>
      <trkpt lat="42.39228" lon="8.58307">
        <ele>-2.5</ele>
        <time>2017-06-03T08:14:55Z</time>
      </trkpt>
      <trkpt lat="42.39203" lon="8.58275">
        <ele>-2.73</ele>
        <time>2017-06-03T08:15:11Z</time>
      </trkpt>
      <trkpt lat="42.39167" lon="8.58239">
        <ele>-2.57</ele>
        <time>2017-06-03T08:15:31Z</time>
      </trkpt>
      <trkpt lat="42.39131" lon="8.58207">
        <ele>-2.5</ele>
        <time>2017-06-03T08:15:50Z</time>
      </trkpt>
      <trkpt lat="42.39105" lon="8.58181">
        <ele>-2.5</ele>
        <time>2017-06-03T08:16:04Z</time>
      </trkpt>
      <trkpt lat="42.3908" lon="8.58155">
        <ele>-2.52</ele>
        <time>2017-06-03T08:16:18Z</time>
      </trkpt>
      <trkpt lat="42.39053" lon="8.58129">
        <ele>-2.54</ele>
        <time>2017-06-03T08:16:33Z</time>
      </trkpt>
      <trkpt lat="42.39021" lon="8.581">
        <ele>-2.45</ele>
        <time>2017-06-03T08:16:52Z</time>
      </trkpt>
      <trkpt lat="42.38999" lon="8.58076">
        <ele>-2.42</ele>
        <time>2017-06-03T08:17:05Z</time>
      </trkpt>
      <trkpt lat="42.38968" lon="8.58044">
        <ele>-2.62</ele>
        <time>2017-06-03T08:17:22Z</time>
      </trkpt>
      <trkpt lat="42.3894" lon="8.58009">
        <ele>-2.39</ele>
        <time>2017-06-03T08:17:39Z</time>
      </trkpt>
      <trkpt lat="42.3891" lon="8.57979">
        <ele>-2.45</ele>
        <time>2017-06-03T08:17:56Z</time>
      </trkpt>
      <trkpt lat="42.38884" lon="8.57951">
        <ele>-2.57</ele>
        <time>2017-06-03T08:18:12Z</time>
      </trkpt>
      <trkpt lat="42.38858" lon="8.57921">
        <ele>-2.34</ele>
        <time>2017-06-03T08:18:27Z</time>
      </trkpt>
      <trkpt lat="42.38824" lon="8.57885">
        <ele>-2.71</ele>
        <time>2017-06-03T08:18:47Z</time>
      </trkpt>
      <trkpt lat="42.38797" lon="8.57861">
        <ele>-2.67</ele>
        <time>2017-06-03T08:19:02Z</time>
      </trkpt>
      <trkpt lat="42.3877" lon="8.57835">
        <ele>-2.75</ele>
        <time>2017-06-03T08:19:18Z</time>
      </trkpt>
      <trkpt lat="42.38736" lon="8.57806">
        <ele>-2.56</ele>
        <time>2017-06-03T08:19:37Z</time>
      </trkpt>
      <trkpt lat="42.38706" lon="8.57779">
        <ele>-2.55</ele>
        <time>2017-06-03T08:19:53Z</time>
      </trkpt>
      <trkpt lat="42.3868" lon="8.57756">
        <ele>-2.68</ele>
        <time>2017-06-03T08:20:06Z</time>
      </trkpt>
      <trkpt lat="42.38651" lon="8.57731">
        <ele>-2.67</ele>
        <time>2017-06-03T08:20:22Z</time>
      </trkpt>
      <trkpt lat="42.38629" lon="8.57709">
        <ele>-2.66</ele>
        <time>2017-06-03T08:20:37Z</time>
      </trkpt>
      <trkpt lat="42.38595" lon="8.57679">
        <ele>-2.64</ele>
        <time>2017-06-03T08:20:57Z</time>
      </trkpt>
      <trkpt lat="42.38566" lon="8.57653">
        <ele>-2.66</ele>
        <time>2017-06-03T08:21:13Z</time>
      </trkpt>
      <trkpt lat="42.38543" lon="8.57629">
        <ele>-2.4</ele>
        <time>2017-06-03T08:21:27Z</time>
      </trkpt>
      <trkpt lat="42.38517" lon="8.57607">
        <ele>-2.6</ele>
        <time>2017-06-03T08:21:42Z</time>
      </trkpt>
      <trkpt lat="42.38492" lon="8.5759">
        <ele>-2.63</ele>
        <time>2017-06-03T08:21:57Z</time>
      </trkpt>
      <trkpt lat="42.38459" lon="8.57567">
        <ele>-2.71</ele>
        <time>2017-06-03T08:22:15Z</time>
      </trkpt>
      <trkpt lat="42.3843" lon="8.57539">
        <ele>-2.68</ele>
        <time>2017-06-03T08:22:31Z</time>
      </trkpt>
      <trkpt lat="42.38403" lon="8.57516">
        <ele>-2.52</ele>
        <time>2017-06-03T08:22:47Z</time>
      </trkpt>
      <trkpt lat="42.3837" lon="8.57484">
        <ele>-2.55</ele>
        <time>2017-06-03T08:23:06Z</time>
      </trkpt>
      <trkpt lat="42.38368" lon="8.57482">
        <ele>-2.53</ele>
        <time>2017-06-03T08:23:08Z</time>
      </trkpt>
      <trkpt lat="42.38361" lon="8.57474">
        <ele>-2.53</ele>
        <time>2017-06-03T08:23:23Z</time>
      </trkpt>
      <trkpt lat="42.38352" lon="8.57467">
        <ele>-2.9</ele>
        <time>2017-06-03T08:23:44Z</time>
      </trkpt>
      <trkpt lat="42.38349" lon="8.57465">
        <ele>-2.88</ele>
        <time>2017-06-03T08:23:47Z</time>
      </trkpt>
      <trkpt lat="42.38323" lon="8.57443">
        <ele>-2.93</ele>
        <time>2017-06-03T08:24:06Z</time>
      </trkpt>
      <trkpt lat="42.38295" lon="8.57414">
        <ele>-2.69</ele>
        <time>2017-06-03T08:24:24Z</time>
      </trkpt>
      <trkpt lat="42.3827" lon="8.57386">
        <ele>-2.83</ele>
        <time>2017-06-03T08:24:40Z</time>
      </trkpt>
      <trkpt lat="42.38244" lon="8.57358">
        <ele>-2.68</ele>
        <time>2017-06-03T08:24:55Z</time>
      </trkpt>
      <trkpt lat="42.38223" lon="8.57339">
        <ele>-2.93</ele>
        <time>2017-06-03T08:25:09Z</time>
      </trkpt>
      <trkpt lat="42.38196" lon="8.57319">
        <ele>-2.74</ele>
        <time>2017-06-03T08:25:25Z</time>
      </trkpt>
      <trkpt lat="42.38169" lon="8.57304">
        <ele>-2.64</ele>
        <time>2017-06-03T08:25:38Z</time>
      </trkpt>
      <trkpt lat="42.3814" lon="8.57296">
        <ele>-2.49</ele>
        <time>2017-06-03T08:25:54Z</time>
      </trkpt>
      <trkpt lat="42.3813" lon="8.57295">
        <ele>-2.35</ele>
        <time>2017-06-03T08:26:08Z</time>
      </trkpt>
      <trkpt lat="42.38124" lon="8.57303">
        <ele>-2.12</ele>
        <time>2017-06-03T08:26:29Z</time>
      </trkpt>
      <trkpt lat="42.38119" lon="8.57306">
        <ele>-2.11</ele>
        <time>2017-06-03T08:26:37Z</time>
      </trkpt>
      <trkpt lat="42.38114" lon="8.57308">
        <ele>-2.12</ele>
        <time>2017-06-03T08:26:42Z</time>
      </trkpt>
      <trkpt lat="42.38094" lon="8.57319">
        <ele>-2.06</ele>
        <time>2017-06-03T08:26:58Z</time>
      </trkpt>
      <trkpt lat="42.38067" lon="8.57326">
        <ele>-1.88</ele>
        <time>2017-06-03T08:27:15Z</time>
      </trkpt>
      <trkpt lat="42.38038" lon="8.5733">
        <ele>-1.63</ele>
        <time>2017-06-03T08:27:31Z</time>
      </trkpt>
      <trkpt lat="42.38007" lon="8.5733">
        <ele>-1.92</ele>
        <time>2017-06-03T08:27:46Z</time>
      </trkpt>
      <trkpt lat="42.37975" lon="8.57326">
        <ele>-2.12</ele>
        <time>2017-06-03T08:28:01Z</time>
      </trkpt>
      <trkpt lat="42.3794" lon="8.57326">
        <ele>-1.93</ele>
        <time>2017-06-03T08:28:19Z</time>
      </trkpt>
      <trkpt lat="42.37909" lon="8.5733">
        <ele>-1.94</ele>
        <time>2017-06-03T08:28:33Z</time>
      </trkpt>
      <trkpt lat="42.37873" lon="8.57334">
        <ele>-1.91</ele>
        <time>2017-06-03T08:28:49Z</time>
      </trkpt>
      <trkpt lat="42.37833" lon="8.57338">
        <ele>-1.81</ele>
        <time>2017-06-03T08:29:07Z</time>
      </trkpt>
      <trkpt lat="42.37793" lon="8.57338">
        <ele>-1.67</ele>
        <time>2017-06-03T08:29:24Z</time>
      </trkpt>
      <trkpt lat="42.37755" lon="8.57335">
        <ele>-1.81</ele>
        <time>2017-06-03T08:29:41Z</time>
      </trkpt>
      <trkpt lat="42.37717" lon="8.57334">
        <ele>-1.76</ele>
        <time>2017-06-03T08:29:59Z</time>
      </trkpt>
      <trkpt lat="42.37683" lon="8.57322">
        <ele>-1.54</ele>
        <time>2017-06-03T08:30:17Z</time>
      </trkpt>
      <trkpt lat="42.37654" lon="8.57316">
        <ele>-1.52</ele>
        <time>2017-06-03T08:30:32Z</time>
      </trkpt>
      <trkpt lat="42.37635" lon="8.57307">
        <ele>-1.37</ele>
        <time>2017-06-03T08:30:45Z</time>
      </trkpt>
      <trkpt lat="42.37628" lon="8.57303">
        <ele>-1.46</ele>
        <time>2017-06-03T08:31:04Z</time>
      </trkpt>
      <trkpt lat="42.37623" lon="8.57297">
        <ele>-1.37</ele>
        <time>2017-06-03T08:31:22Z</time>
      </trkpt>
      <trkpt lat="42.37625" lon="8.57288">
        <ele>-1.47</ele>
        <time>2017-06-03T08:31:40Z</time>
      </trkpt>
      <trkpt lat="42.37626" lon="8.57278">
        <ele>-1.67</ele>
        <time>2017-06-03T08:31:46Z</time>
      </trkpt>
      <trkpt lat="42.37625" lon="8.57272">
        <ele>-1.58</ele>
        <time>2017-06-03T08:31:49Z</time>
      </trkpt>
      <trkpt lat="42.37611" lon="8.57235">
        <ele>-1.59</ele>
        <time>2017-06-03T08:32:06Z</time>
      </trkpt>
      <trkpt lat="42.37603" lon="8.572">
        <ele>-1.63</ele>
        <time>2017-06-03T08:32:23Z</time>
      </trkpt>
      <trkpt lat="42.376" lon="8.57168">
        <ele>-1.67</ele>
        <time>2017-06-03T08:32:38Z</time>
      </trkpt>
      <trkpt lat="42.37598" lon="8.57136">
        <ele>-1.86</ele>
        <time>2017-06-03T08:32:54Z</time>
      </trkpt>
      <trkpt lat="42.37596" lon="8.57124">
        <ele>-1.88</ele>
        <time>2017-06-03T08:33:00Z</time>
      </trkpt>
      <trkpt lat="42.37592" lon="8.57116">
        <ele>-1.83</ele>
        <time>2017-06-03T08:33:04Z</time>
      </trkpt>
      <trkpt lat="42.37591" lon="8.57095">
        <ele>-1.65</ele>
        <time>2017-06-03T08:33:22Z</time>
      </trkpt>
      <trkpt lat="42.37594" lon="8.57083">
        <ele>-1.93</ele>
        <time>2017-06-03T08:33:46Z</time>
      </trkpt>
      <trkpt lat="42.37595" lon="8.57081">
        <ele>-1.95</ele>
        <time>2017-06-03T08:33:47Z</time>
      </trkpt>
      <trkpt lat="42.37595" lon="8.57071">
        <ele>-2.09</ele>
        <time>2017-06-03T08:33:53Z</time>
      </trkpt>
      <trkpt lat="42.37591" lon="8.57037">
        <ele>-2.5</ele>
        <time>2017-06-03T08:34:11Z</time>
      </trkpt>
      <trkpt lat="42.37581" lon="8.57002">
        <ele>-2.62</ele>
        <time>2017-06-03T08:34:26Z</time>
      </trkpt>
      <trkpt lat="42.3758" lon="8.5697">
        <ele>-2.39</ele>
        <time>2017-06-03T08:34:39Z</time>
      </trkpt>
      <trkpt lat="42.37577" lon="8.56939">
        <ele>-2.6</ele>
        <time>2017-06-03T08:34:54Z</time>
      </trkpt>
      <trkpt lat="42.37567" lon="8.56914">
        <ele>-2.76</ele>
        <time>2017-06-03T08:35:06Z</time>
      </trkpt>
      <trkpt lat="42.37568" lon="8.56905">
        <ele>-2.88</ele>
        <time>2017-06-03T08:35:12Z</time>
      </trkpt>
      <trkpt lat="42.37573" lon="8.56865">
        <ele>-3.06</ele>
        <time>2017-06-03T08:35:31Z</time>
      </trkpt>
      <trkpt lat="42.37574" lon="8.56834">
        <ele>-2.93</ele>
        <time>2017-06-03T08:35:43Z</time>
      </trkpt>
      <trkpt lat="42.37574" lon="8.56798">
        <ele>-3.11</ele>
        <time>2017-06-03T08:35:59Z</time>
      </trkpt>
      <trkpt lat="42.3757" lon="8.56761">
        <ele>-3.09</ele>
        <time>2017-06-03T08:36:14Z</time>
      </trkpt>
      <trkpt lat="42.37563" lon="8.56724">
        <ele>-3.16</ele>
        <time>2017-06-03T08:36:28Z</time>
      </trkpt>
      <trkpt lat="42.37558" lon="8.56676">
        <ele>-3.38</ele>
        <time>2017-06-03T08:36:47Z</time>
      </trkpt>
      <trkpt lat="42.37554" lon="8.56639">
        <ele>-3.49</ele>
        <time>2017-06-03T08:37:02Z</time>
      </trkpt>
      <trkpt lat="42.37547" lon="8.56597">
        <ele>-3.54</ele>
        <time>2017-06-03T08:37:18Z</time>
      </trkpt>
      <trkpt lat="42.3754" lon="8.56571">
        <ele>-3.16</ele>
        <time>2017-06-03T08:37:32Z</time>
      </trkpt>
      <trkpt lat="42.3754" lon="8.56569">
        <ele>-3.16</ele>
        <time>2017-06-03T08:37:33Z</time>
      </trkpt>
      <trkpt lat="42.37547" lon="8.56545">
        <ele>-3.53</ele>
        <time>2017-06-03T08:37:48Z</time>
      </trkpt>
      <trkpt lat="42.37551" lon="8.56521">
        <ele>-3.77</ele>
        <time>2017-06-03T08:38:01Z</time>
      </trkpt>
      <trkpt lat="42.37551" lon="8.56489">
        <ele>-3.62</ele>
        <time>2017-06-03T08:38:15Z</time>
      </trkpt>
      <trkpt lat="42.37547" lon="8.5646">
        <ele>-3.71</ele>
        <time>2017-06-03T08:38:28Z</time>
      </trkpt>
      <trkpt lat="42.3754" lon="8.56422">
        <ele>-3.89</ele>
        <time>2017-06-03T08:38:44Z</time>
      </trkpt>
      <trkpt lat="42.37537" lon="8.56379">
        <ele>-4.02</ele>
        <time>2017-06-03T08:39:00Z</time>
      </trkpt>
      <trkpt lat="42.37533" lon="8.56344">
        <ele>-3.76</ele>
        <time>2017-06-03T08:39:15Z</time>
      </trkpt>
      <trkpt lat="42.37527" lon="8.56318">
        <ele>-4</ele>
        <time>2017-06-03T08:39:25Z</time>
      </trkpt>
      <trkpt lat="42.37534" lon="8.5629">
        <ele>-4.02</ele>
        <time>2017-06-03T08:39:41Z</time>
      </trkpt>
      <trkpt lat="42.37547" lon="8.56261">
        <ele>-4.06</ele>
        <time>2017-06-03T08:39:59Z</time>
      </trkpt>
      <trkpt lat="42.37557" lon="8.56235">
        <ele>-4.19</ele>
        <time>2017-06-03T08:40:15Z</time>
      </trkpt>
      <trkpt lat="42.37564" lon="8.56212">
        <ele>-4.22</ele>
        <time>2017-06-03T08:40:29Z</time>
      </trkpt>
      <trkpt lat="42.37574" lon="8.56183">
        <ele>-4.27</ele>
        <time>2017-06-03T08:40:47Z</time>
      </trkpt>
      <trkpt lat="42.37581" lon="8.56161">
        <ele>-4.41</ele>
        <time>2017-06-03T08:41:03Z</time>
      </trkpt>
      <trkpt lat="42.37587" lon="8.56145">
        <ele>-4.35</ele>
        <time>2017-06-03T08:41:13Z</time>
      </trkpt>
      <trkpt lat="42.37594" lon="8.56115">
        <ele>-4.24</ele>
        <time>2017-06-03T08:41:29Z</time>
      </trkpt>
      <trkpt lat="42.37596" lon="8.5608">
        <ele>-4.32</ele>
        <time>2017-06-03T08:41:44Z</time>
      </trkpt>
      <trkpt lat="42.37597" lon="8.56077">
        <ele>-4.27</ele>
        <time>2017-06-03T08:41:46Z</time>
      </trkpt>
      <trkpt lat="42.37601" lon="8.56045">
        <ele>-4.49</ele>
        <time>2017-06-03T08:42:06Z</time>
      </trkpt>
      <trkpt lat="42.37605" lon="8.56004">
        <ele>-4.42</ele>
        <time>2017-06-03T08:42:25Z</time>
      </trkpt>
      <trkpt lat="42.37604" lon="8.5597">
        <ele>-4.28</ele>
        <time>2017-06-03T08:42:42Z</time>
      </trkpt>
      <trkpt lat="42.37607" lon="8.5595">
        <ele>-4.15</ele>
        <time>2017-06-03T08:42:57Z</time>
      </trkpt>
      <trkpt lat="42.37612" lon="8.55927">
        <ele>-4.32</ele>
        <time>2017-06-03T08:43:15Z</time>
      </trkpt>
      <trkpt lat="42.37616" lon="8.55896">
        <ele>-4.53</ele>
        <time>2017-06-03T08:43:28Z</time>
      </trkpt>
      <trkpt lat="42.37621" lon="8.55851">
        <ele>-4.5</ele>
        <time>2017-06-03T08:43:47Z</time>
      </trkpt>
      <trkpt lat="42.37617" lon="8.55825">
        <ele>-4.32</ele>
        <time>2017-06-03T08:43:57Z</time>
      </trkpt>
      <trkpt lat="42.37607" lon="8.5579">
        <ele>-4.5</ele>
        <time>2017-06-03T08:44:10Z</time>
      </trkpt>
      <trkpt lat="42.376" lon="8.55748">
        <ele>-4.64</ele>
        <time>2017-06-03T08:44:26Z</time>
      </trkpt>
      <trkpt lat="42.37595" lon="8.55712">
        <ele>-4.62</ele>
        <time>2017-06-03T08:44:39Z</time>
      </trkpt>
      <trkpt lat="42.37587" lon="8.55682">
        <ele>-4.62</ele>
        <time>2017-06-03T08:44:51Z</time>
      </trkpt>
      <trkpt lat="42.3758" lon="8.55646">
        <ele>-4.62</ele>
        <time>2017-06-03T08:45:06Z</time>
      </trkpt>
      <trkpt lat="42.37573" lon="8.55611">
        <ele>-4.6</ele>
        <time>2017-06-03T08:45:19Z</time>
      </trkpt>
      <trkpt lat="42.37566" lon="8.55575">
        <ele>-4.59</ele>
        <time>2017-06-03T08:45:33Z</time>
      </trkpt>
      <trkpt lat="42.37561" lon="8.55541">
        <ele>-4.64</ele>
        <time>2017-06-03T08:45:45Z</time>
      </trkpt>
      <trkpt lat="42.37556" lon="8.55518">
        <ele>-4.66</ele>
        <time>2017-06-03T08:45:54Z</time>
      </trkpt>
      <trkpt lat="42.37553" lon="8.55482">
        <ele>-4.9</ele>
        <time>2017-06-03T08:46:07Z</time>
      </trkpt>
      <trkpt lat="42.37551" lon="8.55446">
        <ele>-5.03</ele>
        <time>2017-06-03T08:46:22Z</time>
      </trkpt>
      <trkpt lat="42.37549" lon="8.5541">
        <ele>-4.98</ele>
        <time>2017-06-03T08:46:36Z</time>
      </trkpt>
      <trkpt lat="42.37548" lon="8.55379">
        <ele>-5.06</ele>
        <time>2017-06-03T08:46:47Z</time>
      </trkpt>
      <trkpt lat="42.37548" lon="8.55345">
        <ele>-5.18</ele>
        <time>2017-06-03T08:46:59Z</time>
      </trkpt>
      <trkpt lat="42.37552" lon="8.55313">
        <ele>-5.35</ele>
        <time>2017-06-03T08:47:12Z</time>
      </trkpt>
      <trkpt lat="42.37562" lon="8.55294">
        <ele>-5.26</ele>
        <time>2017-06-03T08:47:26Z</time>
      </trkpt>
      <trkpt lat="42.37562" lon="8.55293">
        <ele>-5.2</ele>
        <time>2017-06-03T08:47:51Z</time>
      </trkpt>
      <trkpt lat="42.37562" lon="8.55298">
        <ele>-5.42</ele>
        <time>2017-06-03T08:48:17Z</time>
      </trkpt>
      <trkpt lat="42.37568" lon="8.55297">
        <ele>-5.51</ele>
        <time>2017-06-03T08:48:39Z</time>
      </trkpt>
      <trkpt lat="42.37579" lon="8.55285">
        <ele>-5.83</ele>
        <time>2017-06-03T08:48:59Z</time>
      </trkpt>
      <trkpt lat="42.37595" lon="8.55276">
        <ele>-5.88</ele>
        <time>2017-06-03T08:49:17Z</time>
      </trkpt>
      <trkpt lat="42.3761" lon="8.55266">
        <ele>-6.07</ele>
        <time>2017-06-03T08:49:35Z</time>
      </trkpt>
      <trkpt lat="42.37627" lon="8.55246">
        <ele>-6.08</ele>
        <time>2017-06-03T08:49:56Z</time>
      </trkpt>
      <trkpt lat="42.37642" lon="8.55233">
        <ele>-6.34</ele>
        <time>2017-06-03T08:50:15Z</time>
      </trkpt>
      <trkpt lat="42.37646" lon="8.5523">
        <ele>-6.18</ele>
        <time>2017-06-03T08:50:38Z</time>
      </trkpt>
      <trkpt lat="42.37652" lon="8.55235">
        <ele>-6.13</ele>
        <time>2017-06-03T08:50:59Z</time>
      </trkpt>
      <trkpt lat="42.37666" lon="8.55235">
        <ele>-6.21</ele>
        <time>2017-06-03T08:51:23Z</time>
      </trkpt>
      <trkpt lat="42.37679" lon="8.55234">
        <ele>-6.34</ele>
        <time>2017-06-03T08:51:46Z</time>
      </trkpt>
      <trkpt lat="42.37695" lon="8.55224">
        <ele>-6.27</ele>
        <time>2017-06-03T08:52:07Z</time>
      </trkpt>
      <trkpt lat="42.37713" lon="8.55213">
        <ele>-6.69</ele>
        <time>2017-06-03T08:52:25Z</time>
      </trkpt>
      <trkpt lat="42.3773" lon="8.55201">
        <ele>-6.62</ele>
        <time>2017-06-03T08:52:42Z</time>
      </trkpt>
      <trkpt lat="42.37741" lon="8.55186">
        <ele>-6.55</ele>
        <time>2017-06-03T08:53:00Z</time>
      </trkpt>
      <trkpt lat="42.37736" lon="8.55155">
        <ele>-6.28</ele>
        <time>2017-06-03T08:53:19Z</time>
      </trkpt>
      <trkpt lat="42.37721" lon="8.55129">
        <ele>-6.57</ele>
        <time>2017-06-03T08:53:36Z</time>
      </trkpt>
      <trkpt lat="42.37713" lon="8.55118">
        <ele>-6.6</ele>
        <time>2017-06-03T08:53:54Z</time>
      </trkpt>
      <trkpt lat="42.37699" lon="8.55125">
        <ele>-6.83</ele>
        <time>2017-06-03T08:54:18Z</time>
      </trkpt>
      <trkpt lat="42.37695" lon="8.55133">
        <ele>-6.91</ele>
        <time>2017-06-03T08:54:25Z</time>
      </trkpt>
      <trkpt lat="42.37697" lon="8.5515">
        <ele>-6.74</ele>
        <time>2017-06-03T08:54:47Z</time>
      </trkpt>
      <trkpt lat="42.37707" lon="8.55154">
        <ele>-7.06</ele>
        <time>2017-06-03T08:55:08Z</time>
      </trkpt>
      <trkpt lat="42.3772" lon="8.55156">
        <ele>-6.78</ele>
        <time>2017-06-03T08:55:37Z</time>
      </trkpt>
      <trkpt lat="42.37726" lon="8.55156">
        <ele>-7.05</ele>
        <time>2017-06-03T08:55:57Z</time>
      </trkpt>
      <trkpt lat="42.37737" lon="8.55158">
        <ele>-6.83</ele>
        <time>2017-06-03T08:56:18Z</time>
      </trkpt>
      <trkpt lat="42.37747" lon="8.55161">
        <ele>-6.69</ele>
        <time>2017-06-03T08:56:42Z</time>
      </trkpt>
      <trkpt lat="42.3776" lon="8.55167">
        <ele>-6.87</ele>
        <time>2017-06-03T08:57:04Z</time>
      </trkpt>
      <trkpt lat="42.37773" lon="8.55174">
        <ele>-6.57</ele>
        <time>2017-06-03T08:57:25Z</time>
      </trkpt>
      <trkpt lat="42.37785" lon="8.55176">
        <ele>-6.57</ele>
        <time>2017-06-03T08:57:48Z</time>
      </trkpt>
      <trkpt lat="42.37795" lon="8.55177">
        <ele>-7.1</ele>
        <time>2017-06-03T08:58:09Z</time>
      </trkpt>
      <trkpt lat="42.37796" lon="8.55169">
        <ele>-7.14</ele>
        <time>2017-06-03T08:58:32Z</time>
      </trkpt>
      <trkpt lat="42.37793" lon="8.55165">
        <ele>-7.24</ele>
        <time>2017-06-03T08:58:54Z</time>
      </trkpt>
      <trkpt lat="42.37794" lon="8.55164">
        <ele>-7.11</ele>
        <time>2017-06-03T08:58:57Z</time>
      </trkpt>
      <trkpt lat="42.37811" lon="8.55161">
        <ele>-7</ele>
        <time>2017-06-03T08:59:17Z</time>
      </trkpt>
      <trkpt lat="42.37815" lon="8.5517">
        <ele>-6.93</ele>
        <time>2017-06-03T08:59:25Z</time>
      </trkpt>
      <trkpt lat="42.37823" lon="8.55201">
        <ele>-6.97</ele>
        <time>2017-06-03T08:59:41Z</time>
      </trkpt>
      <trkpt lat="42.37827" lon="8.55219">
        <ele>-7.09</ele>
        <time>2017-06-03T08:59:54Z</time>
      </trkpt>
      <trkpt lat="42.37828" lon="8.55234">
        <ele>-7.24</ele>
        <time>2017-06-03T09:00:14Z</time>
      </trkpt>
      <trkpt lat="42.37825" lon="8.55235">
        <ele>-7.33</ele>
        <time>2017-06-03T09:00:36Z</time>
      </trkpt>
      <trkpt lat="42.37823" lon="8.55231">
        <ele>-7.39</ele>
        <time>2017-06-03T09:00:56Z</time>
      </trkpt>
      <trkpt lat="42.37819" lon="8.55246">
        <ele>-7.38</ele>
        <time>2017-06-03T09:01:14Z</time>
      </trkpt>
      <trkpt lat="42.37814" lon="8.55244">
        <ele>-7.33</ele>
        <time>2017-06-03T09:01:40Z</time>
      </trkpt>
      <trkpt lat="42.37809" lon="8.55246">
        <ele>-7.09</ele>
        <time>2017-06-03T09:02:05Z</time>
      </trkpt>
      <trkpt lat="42.37808" lon="8.5525">
        <ele>-7.21</ele>
        <time>2017-06-03T09:02:29Z</time>
      </trkpt>
      <trkpt lat="42.37795" lon="8.55264">
        <ele>-7.13</ele>
        <time>2017-06-03T09:02:53Z</time>
      </trkpt>
      <trkpt lat="42.37797" lon="8.55285">
        <ele>-7.1</ele>
        <time>2017-06-03T09:03:09Z</time>
      </trkpt>
      <trkpt lat="42.37804" lon="8.55295">
        <ele>-6.94</ele>
        <time>2017-06-03T09:03:24Z</time>
      </trkpt>
      <trkpt lat="42.37807" lon="8.55296">
        <ele>-6.84</ele>
        <time>2017-06-03T09:03:46Z</time>
      </trkpt>
      <trkpt lat="42.37804" lon="8.55298">
        <ele>-6.46</ele>
        <time>2017-06-03T09:04:06Z</time>
      </trkpt>
      <trkpt lat="42.37799" lon="8.553">
        <ele>-6.74</ele>
        <time>2017-06-03T09:04:27Z</time>
      </trkpt>
      <trkpt lat="42.37805" lon="8.55293">
        <ele>-6.84</ele>
        <time>2017-06-03T09:04:56Z</time>
      </trkpt>
      <trkpt lat="42.3782" lon="8.55282">
        <ele>-6.84</ele>
        <time>2017-06-03T09:05:21Z</time>
      </trkpt>
      <trkpt lat="42.37839" lon="8.55277">
        <ele>-6.76</ele>
        <time>2017-06-03T09:05:45Z</time>
      </trkpt>
      <trkpt lat="42.37845" lon="8.55276">
        <ele>-6.93</ele>
        <time>2017-06-03T09:05:52Z</time>
      </trkpt>
      <trkpt lat="42.37863" lon="8.55263">
        <ele>-7.21</ele>
        <time>2017-06-03T09:06:14Z</time>
      </trkpt>
      <trkpt lat="42.37874" lon="8.55259">
        <ele>-7</ele>
        <time>2017-06-03T09:06:31Z</time>
      </trkpt>
      <trkpt lat="42.37891" lon="8.55252">
        <ele>-6.95</ele>
        <time>2017-06-03T09:06:55Z</time>
      </trkpt>
      <trkpt lat="42.37909" lon="8.55244">
        <ele>-6.96</ele>
        <time>2017-06-03T09:07:13Z</time>
      </trkpt>
      <trkpt lat="42.37912" lon="8.55243">
        <ele>-6.93</ele>
        <time>2017-06-03T09:07:15Z</time>
      </trkpt>
      <trkpt lat="42.37918" lon="8.55242">
        <ele>-6.77</ele>
        <time>2017-06-03T09:07:19Z</time>
      </trkpt>
      <trkpt lat="42.37939" lon="8.55233">
        <ele>-6.91</ele>
        <time>2017-06-03T09:07:36Z</time>
      </trkpt>
      <trkpt lat="42.37958" lon="8.55218">
        <ele>-6.87</ele>
        <time>2017-06-03T09:07:54Z</time>
      </trkpt>
      <trkpt lat="42.37966" lon="8.55216">
        <ele>-6.71</ele>
        <time>2017-06-03T09:08:02Z</time>
      </trkpt>
      <trkpt lat="42.37972" lon="8.5522">
        <ele>-6.36</ele>
        <time>2017-06-03T09:08:09Z</time>
      </trkpt>
      <trkpt lat="42.37975" lon="8.5524">
        <ele>-6.38</ele>
        <time>2017-06-03T09:08:24Z</time>
      </trkpt>
      <trkpt lat="42.37968" lon="8.55255">
        <ele>-6.55</ele>
        <time>2017-06-03T09:08:41Z</time>
      </trkpt>
      <trkpt lat="42.37956" lon="8.55257">
        <ele>-6.38</ele>
        <time>2017-06-03T09:09:11Z</time>
      </trkpt>
      <trkpt lat="42.37944" lon="8.55254">
        <ele>-6.28</ele>
        <time>2017-06-03T09:09:34Z</time>
      </trkpt>
      <trkpt lat="42.37934" lon="8.55251">
        <ele>-5.91</ele>
        <time>2017-06-03T09:09:52Z</time>
      </trkpt>
      <trkpt lat="42.37931" lon="8.55249">
        <ele>-5.81</ele>
        <time>2017-06-03T09:09:56Z</time>
      </trkpt>
      <trkpt lat="42.37915" lon="8.55252">
        <ele>-5.99</ele>
        <time>2017-06-03T09:10:10Z</time>
      </trkpt>
      <trkpt lat="42.37904" lon="8.55271">
        <ele>-6.02</ele>
        <time>2017-06-03T09:10:26Z</time>
      </trkpt>
      <trkpt lat="42.37903" lon="8.55295">
        <ele>-6.21</ele>
        <time>2017-06-03T09:10:43Z</time>
      </trkpt>
      <trkpt lat="42.37897" lon="8.55316">
        <ele>-6.15</ele>
        <time>2017-06-03T09:11:00Z</time>
      </trkpt>
      <trkpt lat="42.37882" lon="8.55328">
        <ele>-6.13</ele>
        <time>2017-06-03T09:11:17Z</time>
      </trkpt>
      <trkpt lat="42.3787" lon="8.55334">
        <ele>-6.1</ele>
        <time>2017-06-03T09:11:34Z</time>
      </trkpt>
      <trkpt lat="42.37863" lon="8.55339">
        <ele>-5.75</ele>
        <time>2017-06-03T09:11:59Z</time>
      </trkpt>
      <trkpt lat="42.37853" lon="8.55333">
        <ele>-5.63</ele>
        <time>2017-06-03T09:12:19Z</time>
      </trkpt>
      <trkpt lat="42.37838" lon="8.55328">
        <ele>-5.55</ele>
        <time>2017-06-03T09:12:33Z</time>
      </trkpt>
      <trkpt lat="42.37828" lon="8.55336">
        <ele>-5.46</ele>
        <time>2017-06-03T09:12:42Z</time>
      </trkpt>
      <trkpt lat="42.37822" lon="8.55358">
        <ele>-5.3</ele>
        <time>2017-06-03T09:12:57Z</time>
      </trkpt>
      <trkpt lat="42.3783" lon="8.55377">
        <ele>-5.52</ele>
        <time>2017-06-03T09:13:15Z</time>
      </trkpt>
      <trkpt lat="42.37842" lon="8.55378">
        <ele>-5.86</ele>
        <time>2017-06-03T09:13:29Z</time>
      </trkpt>
      <trkpt lat="42.37845" lon="8.5536">
        <ele>-5.78</ele>
        <time>2017-06-03T09:13:50Z</time>
      </trkpt>
      <trkpt lat="42.37841" lon="8.5535">
        <ele>-5.67</ele>
        <time>2017-06-03T09:14:01Z</time>
      </trkpt>
      <trkpt lat="42.37826" lon="8.55344">
        <ele>-5.64</ele>
        <time>2017-06-03T09:14:14Z</time>
      </trkpt>
      <trkpt lat="42.3781" lon="8.55352">
        <ele>-5.51</ele>
        <time>2017-06-03T09:14:25Z</time>
      </trkpt>
      <trkpt lat="42.37803" lon="8.55368">
        <ele>-5.46</ele>
        <time>2017-06-03T09:14:35Z</time>
      </trkpt>
      <trkpt lat="42.37806" lon="8.55395">
        <ele>-5.09</ele>
        <time>2017-06-03T09:14:54Z</time>
      </trkpt>
      <trkpt lat="42.37818" lon="8.55406">
        <ele>-5.11</ele>
        <time>2017-06-03T09:15:13Z</time>
      </trkpt>
      <trkpt lat="42.37822" lon="8.55408">
        <ele>-5.21</ele>
        <time>2017-06-03T09:15:41Z</time>
      </trkpt>
      <trkpt lat="42.37817" lon="8.55412">
        <ele>-5.34</ele>
        <time>2017-06-03T09:16:11Z</time>
      </trkpt>
      <trkpt lat="42.37814" lon="8.55408">
        <ele>-5.4</ele>
        <time>2017-06-03T09:16:39Z</time>
      </trkpt>
      <trkpt lat="42.37806" lon="8.55407">
        <ele>-5.43</ele>
        <time>2017-06-03T09:17:04Z</time>
      </trkpt>
      <trkpt lat="42.37798" lon="8.55405">
        <ele>-5.38</ele>
        <time>2017-06-03T09:17:36Z</time>
      </trkpt>
      <trkpt lat="42.37798" lon="8.55395">
        <ele>-5.42</ele>
        <time>2017-06-03T09:17:47Z</time>
      </trkpt>
      <trkpt lat="42.37788" lon="8.55379">
        <ele>-5.28</ele>
        <time>2017-06-03T09:18:01Z</time>
      </trkpt>
      <trkpt lat="42.37778" lon="8.55376">
        <ele>-5.24</ele>
        <time>2017-06-03T09:18:08Z</time>
      </trkpt>
      <trkpt lat="42.37758" lon="8.5539">
        <ele>-5.3</ele>
        <time>2017-06-03T09:18:24Z</time>
      </trkpt>
      <trkpt lat="42.37756" lon="8.55415">
        <ele>-5.27</ele>
        <time>2017-06-03T09:18:39Z</time>
      </trkpt>
      <trkpt lat="42.37767" lon="8.55427">
        <ele>-5.33</ele>
        <time>2017-06-03T09:18:54Z</time>
      </trkpt>
      <trkpt lat="42.37772" lon="8.55427">
        <ele>-5.33</ele>
        <time>2017-06-03T09:18:59Z</time>
      </trkpt>
      <trkpt lat="42.37778" lon="8.55423">
        <ele>-5.39</ele>
        <time>2017-06-03T09:19:06Z</time>
      </trkpt>
      <trkpt lat="42.37782" lon="8.55408">
        <ele>-5.58</ele>
        <time>2017-06-03T09:19:19Z</time>
      </trkpt>
      <trkpt lat="42.37769" lon="8.55386">
        <ele>-5.38</ele>
        <time>2017-06-03T09:19:37Z</time>
      </trkpt>
      <trkpt lat="42.37747" lon="8.55393">
        <ele>-5.17</ele>
        <time>2017-06-03T09:19:52Z</time>
      </trkpt>
      <trkpt lat="42.37741" lon="8.55411">
        <ele>-5.2</ele>
        <time>2017-06-03T09:20:02Z</time>
      </trkpt>
      <trkpt lat="42.37747" lon="8.55435">
        <ele>-5.22</ele>
        <time>2017-06-03T09:20:20Z</time>
      </trkpt>
      <trkpt lat="42.37758" lon="8.55444">
        <ele>-5.14</ele>
        <time>2017-06-03T09:20:34Z</time>
      </trkpt>
      <trkpt lat="42.37771" lon="8.55429">
        <ele>-5.49</ele>
        <time>2017-06-03T09:20:51Z</time>
      </trkpt>
      <trkpt lat="42.37759" lon="8.55407">
        <ele>-5.43</ele>
        <time>2017-06-03T09:21:08Z</time>
      </trkpt>
      <trkpt lat="42.37749" lon="8.55407">
        <ele>-5.34</ele>
        <time>2017-06-03T09:21:15Z</time>
      </trkpt>
      <trkpt lat="42.3773" lon="8.55425">
        <ele>-5.44</ele>
        <time>2017-06-03T09:21:30Z</time>
      </trkpt>
      <trkpt lat="42.37732" lon="8.55454">
        <ele>-5.24</ele>
        <time>2017-06-03T09:21:47Z</time>
      </trkpt>
      <trkpt lat="42.37735" lon="8.5546">
        <ele>-5.17</ele>
        <time>2017-06-03T09:21:53Z</time>
      </trkpt>
      <trkpt lat="42.37743" lon="8.55463">
        <ele>-5.2</ele>
        <time>2017-06-03T09:22:01Z</time>
      </trkpt>
      <trkpt lat="42.3776" lon="8.55446">
        <ele>-5.57</ele>
        <time>2017-06-03T09:22:20Z</time>
      </trkpt>
      <trkpt lat="42.37773" lon="8.55425">
        <ele>-5.7</ele>
        <time>2017-06-03T09:22:39Z</time>
      </trkpt>
      <trkpt lat="42.37787" lon="8.55407">
        <ele>-5.72</ele>
        <time>2017-06-03T09:22:56Z</time>
      </trkpt>
      <trkpt lat="42.378" lon="8.55393">
        <ele>-5.7</ele>
        <time>2017-06-03T09:23:12Z</time>
      </trkpt>
      <trkpt lat="42.3782" lon="8.55369">
        <ele>-5.77</ele>
        <time>2017-06-03T09:23:33Z</time>
      </trkpt>
      <trkpt lat="42.37833" lon="8.55345">
        <ele>-5.57</ele>
        <time>2017-06-03T09:23:51Z</time>
      </trkpt>
      <trkpt lat="42.37846" lon="8.55317">
        <ele>-5.49</ele>
        <time>2017-06-03T09:24:10Z</time>
      </trkpt>
      <trkpt lat="42.37863" lon="8.55288">
        <ele>-5.35</ele>
        <time>2017-06-03T09:24:30Z</time>
      </trkpt>
      <trkpt lat="42.3788" lon="8.55261">
        <ele>-5.13</ele>
        <time>2017-06-03T09:24:48Z</time>
      </trkpt>
      <trkpt lat="42.37882" lon="8.55231">
        <ele>-5.09</ele>
        <time>2017-06-03T09:25:07Z</time>
      </trkpt>
      <trkpt lat="42.37881" lon="8.55198">
        <ele>-5.33</ele>
        <time>2017-06-03T09:25:26Z</time>
      </trkpt>
      <trkpt lat="42.37882" lon="8.55164">
        <ele>-5.12</ele>
        <time>2017-06-03T09:25:43Z</time>
      </trkpt>
      <trkpt lat="42.3789" lon="8.55133">
        <ele>-5.26</ele>
        <time>2017-06-03T09:25:58Z</time>
      </trkpt>
      <trkpt lat="42.37905" lon="8.55104">
        <ele>-5.13</ele>
        <time>2017-06-03T09:26:13Z</time>
      </trkpt>
      <trkpt lat="42.37923" lon="8.55072">
        <ele>-4.8</ele>
        <time>2017-06-03T09:26:30Z</time>
      </trkpt>
      <trkpt lat="42.37935" lon="8.55049">
        <ele>-4.92</ele>
        <time>2017-06-03T09:26:48Z</time>
      </trkpt>
      <trkpt lat="42.37939" lon="8.55053">
        <ele>-4.74</ele>
        <time>2017-06-03T09:27:13Z</time>
      </trkpt>
      <trkpt lat="42.37948" lon="8.55042">
        <ele>-4.95</ele>
        <time>2017-06-03T09:27:27Z</time>
      </trkpt>
      <trkpt lat="42.37949" lon="8.55014">
        <ele>-5.06</ele>
        <time>2017-06-03T09:27:43Z</time>
      </trkpt>
      <trkpt lat="42.37953" lon="8.54982">
        <ele>-4.84</ele>
        <time>2017-06-03T09:27:59Z</time>
      </trkpt>
      <trkpt lat="42.37957" lon="8.54949">
        <ele>-4.9</ele>
        <time>2017-06-03T09:28:14Z</time>
      </trkpt>
      <trkpt lat="42.37962" lon="8.54909">
        <ele>-4.5</ele>
        <time>2017-06-03T09:28:32Z</time>
      </trkpt>
      <trkpt lat="42.37964" lon="8.54871">
        <ele>-4.69</ele>
        <time>2017-06-03T09:28:47Z</time>
      </trkpt>
      <trkpt lat="42.37969" lon="8.54837">
        <ele>-4.63</ele>
        <time>2017-06-03T09:29:02Z</time>
      </trkpt>
      <trkpt lat="42.37968" lon="8.54829">
        <ele>-4.67</ele>
        <time>2017-06-03T09:29:22Z</time>
      </trkpt>
      <trkpt lat="42.37968" lon="8.54821">
        <ele>-4.68</ele>
        <time>2017-06-03T09:29:36Z</time>
      </trkpt>
      <trkpt lat="42.3797" lon="8.54812">
        <ele>-4.69</ele>
        <time>2017-06-03T09:29:42Z</time>
      </trkpt>
      <trkpt lat="42.37978" lon="8.54785">
        <ele>-4.71</ele>
        <time>2017-06-03T09:29:58Z</time>
      </trkpt>
      <trkpt lat="42.37969" lon="8.54755">
        <ele>-4.85</ele>
        <time>2017-06-03T09:30:15Z</time>
      </trkpt>
      <trkpt lat="42.37952" lon="8.54728">
        <ele>-4.76</ele>
        <time>2017-06-03T09:30:31Z</time>
      </trkpt>
      <trkpt lat="42.3793" lon="8.54705">
        <ele>-4.96</ele>
        <time>2017-06-03T09:30:46Z</time>
      </trkpt>
      <trkpt lat="42.37929" lon="8.54704">
        <ele>-4.98</ele>
        <time>2017-06-03T09:30:47Z</time>
      </trkpt>
      <trkpt lat="42.37924" lon="8.54702">
        <ele>-5.01</ele>
        <time>2017-06-03T09:30:51Z</time>
      </trkpt>
      <trkpt lat="42.37905" lon="8.54678">
        <ele>-4.87</ele>
        <time>2017-06-03T09:31:07Z</time>
      </trkpt>
      <trkpt lat="42.37888" lon="8.54648">
        <ele>-5.21</ele>
        <time>2017-06-03T09:31:21Z</time>
      </trkpt>
      <trkpt lat="42.37863" lon="8.54619">
        <ele>-5.01</ele>
        <time>2017-06-03T09:31:37Z</time>
      </trkpt>
      <trkpt lat="42.37844" lon="8.54593">
        <ele>-5.23</ele>
        <time>2017-06-03T09:31:51Z</time>
      </trkpt>
      <trkpt lat="42.37821" lon="8.54556">
        <ele>-5.02</ele>
        <time>2017-06-03T09:32:08Z</time>
      </trkpt>
      <trkpt lat="42.378" lon="8.54521">
        <ele>-5.09</ele>
        <time>2017-06-03T09:32:25Z</time>
      </trkpt>
      <trkpt lat="42.37779" lon="8.54509">
        <ele>-4.98</ele>
        <time>2017-06-03T09:32:40Z</time>
      </trkpt>
      <trkpt lat="42.37763" lon="8.54526">
        <ele>-4.93</ele>
        <time>2017-06-03T09:32:53Z</time>
      </trkpt>
      <trkpt lat="42.37771" lon="8.5455">
        <ele>-4.84</ele>
        <time>2017-06-03T09:33:06Z</time>
      </trkpt>
      <trkpt lat="42.37796" lon="8.54566">
        <ele>-5.03</ele>
        <time>2017-06-03T09:33:20Z</time>
      </trkpt>
      <trkpt lat="42.37819" lon="8.54579">
        <ele>-5.22</ele>
        <time>2017-06-03T09:33:34Z</time>
      </trkpt>
      <trkpt lat="42.37839" lon="8.54599">
        <ele>-5.38</ele>
        <time>2017-06-03T09:33:46Z</time>
      </trkpt>
      <trkpt lat="42.37852" lon="8.54618">
        <ele>-5.29</ele>
        <time>2017-06-03T09:33:57Z</time>
      </trkpt>
      <trkpt lat="42.37858" lon="8.54627">
        <ele>-5.29</ele>
        <time>2017-06-03T09:34:02Z</time>
      </trkpt>
      <trkpt lat="42.37876" lon="8.54646">
        <ele>-5.28</ele>
        <time>2017-06-03T09:34:15Z</time>
      </trkpt>
      <trkpt lat="42.37894" lon="8.54663">
        <ele>-5.53</ele>
        <time>2017-06-03T09:34:28Z</time>
      </trkpt>
      <trkpt lat="42.379" lon="8.54671">
        <ele>-5.56</ele>
        <time>2017-06-03T09:34:33Z</time>
      </trkpt>
      <trkpt lat="42.37917" lon="8.54687">
        <ele>-5.41</ele>
        <time>2017-06-03T09:34:45Z</time>
      </trkpt>
      <trkpt lat="42.37918" lon="8.54688">
        <ele>-5.39</ele>
        <time>2017-06-03T09:34:46Z</time>
      </trkpt>
      <trkpt lat="42.37935" lon="8.54717">
        <ele>-5.74</ele>
        <time>2017-06-03T09:35:01Z</time>
      </trkpt>
      <trkpt lat="42.37945" lon="8.54737">
        <ele>-6.04</ele>
        <time>2017-06-03T09:35:18Z</time>
      </trkpt>
      <trkpt lat="42.37967" lon="8.54752">
        <ele>-6.25</ele>
        <time>2017-06-03T09:35:32Z</time>
      </trkpt>
      <trkpt lat="42.37975" lon="8.54772">
        <ele>-6.12</ele>
        <time>2017-06-03T09:35:44Z</time>
      </trkpt>
      <trkpt lat="42.37975" lon="8.54794">
        <ele>-6.22</ele>
        <time>2017-06-03T09:35:54Z</time>
      </trkpt>
      <trkpt lat="42.37975" lon="8.54829">
        <ele>-6.22</ele>
        <time>2017-06-03T09:36:08Z</time>
      </trkpt>
      <trkpt lat="42.37972" lon="8.54861">
        <ele>-6.07</ele>
        <time>2017-06-03T09:36:20Z</time>
      </trkpt>
      <trkpt lat="42.37969" lon="8.54888">
        <ele>-6.41</ele>
        <time>2017-06-03T09:36:30Z</time>
      </trkpt>
      <trkpt lat="42.37964" lon="8.54926">
        <ele>-6.3</ele>
        <time>2017-06-03T09:36:44Z</time>
      </trkpt>
      <trkpt lat="42.37958" lon="8.54953">
        <ele>-6.17</ele>
        <time>2017-06-03T09:36:54Z</time>
      </trkpt>
      <trkpt lat="42.37953" lon="8.54983">
        <ele>-5.9</ele>
        <time>2017-06-03T09:37:05Z</time>
      </trkpt>
      <trkpt lat="42.37944" lon="8.55007">
        <ele>-5.92</ele>
        <time>2017-06-03T09:37:17Z</time>
      </trkpt>
      <trkpt lat="42.3794" lon="8.55019">
        <ele>-5.8</ele>
        <time>2017-06-03T09:37:22Z</time>
      </trkpt>
      <trkpt lat="42.37936" lon="8.55043">
        <ele>-5.77</ele>
        <time>2017-06-03T09:37:36Z</time>
      </trkpt>
      <trkpt lat="42.37934" lon="8.55047">
        <ele>-5.74</ele>
        <time>2017-06-03T09:37:38Z</time>
      </trkpt>
      <trkpt lat="42.37929" lon="8.55053">
        <ele>-5.79</ele>
        <time>2017-06-03T09:37:43Z</time>
      </trkpt>
      <trkpt lat="42.37914" lon="8.55074">
        <ele>-6.07</ele>
        <time>2017-06-03T09:37:56Z</time>
      </trkpt>
      <trkpt lat="42.37896" lon="8.5509">
        <ele>-5.72</ele>
        <time>2017-06-03T09:38:07Z</time>
      </trkpt>
      <trkpt lat="42.37886" lon="8.55109">
        <ele>-5.77</ele>
        <time>2017-06-03T09:38:18Z</time>
      </trkpt>
      <trkpt lat="42.37883" lon="8.55119">
        <ele>-5.56</ele>
        <time>2017-06-03T09:38:23Z</time>
      </trkpt>
      <trkpt lat="42.3787" lon="8.55148">
        <ele>-5.67</ele>
        <time>2017-06-03T09:38:39Z</time>
      </trkpt>
      <trkpt lat="42.37859" lon="8.55157">
        <ele>-5.9</ele>
        <time>2017-06-03T09:38:48Z</time>
      </trkpt>
      <trkpt lat="42.37852" lon="8.55165">
        <ele>-5.91</ele>
        <time>2017-06-03T09:38:55Z</time>
      </trkpt>
      <trkpt lat="42.37833" lon="8.55183">
        <ele>-6.06</ele>
        <time>2017-06-03T09:39:11Z</time>
      </trkpt>
      <trkpt lat="42.37823" lon="8.55195">
        <ele>-6.05</ele>
        <time>2017-06-03T09:39:22Z</time>
      </trkpt>
      <trkpt lat="42.37816" lon="8.55205">
        <ele>-5.76</ele>
        <time>2017-06-03T09:39:44Z</time>
      </trkpt>
      <trkpt lat="42.37805" lon="8.55231">
        <ele>-6.04</ele>
        <time>2017-06-03T09:40:03Z</time>
      </trkpt>
      <trkpt lat="42.37793" lon="8.55256">
        <ele>-6</ele>
        <time>2017-06-03T09:40:19Z</time>
      </trkpt>
      <trkpt lat="42.37773" lon="8.55292">
        <ele>-6.02</ele>
        <time>2017-06-03T09:40:38Z</time>
      </trkpt>
      <trkpt lat="42.37755" lon="8.55322">
        <ele>-6.02</ele>
        <time>2017-06-03T09:40:54Z</time>
      </trkpt>
      <trkpt lat="42.37725" lon="8.55329">
        <ele>-5.98</ele>
        <time>2017-06-03T09:41:10Z</time>
      </trkpt>
      <trkpt lat="42.3769" lon="8.55331">
        <ele>-6</ele>
        <time>2017-06-03T09:41:27Z</time>
      </trkpt>
      <trkpt lat="42.37655" lon="8.5533">
        <ele>-5.77</ele>
        <time>2017-06-03T09:41:44Z</time>
      </trkpt>
      <trkpt lat="42.3762" lon="8.55318">
        <ele>-5.74</ele>
        <time>2017-06-03T09:42:00Z</time>
      </trkpt>
      <trkpt lat="42.37595" lon="8.55306">
        <ele>-5.82</ele>
        <time>2017-06-03T09:42:11Z</time>
      </trkpt>
      <trkpt lat="42.37556" lon="8.55286">
        <ele>-5.71</ele>
        <time>2017-06-03T09:42:28Z</time>
      </trkpt>
      <trkpt lat="42.37526" lon="8.5527">
        <ele>-5.79</ele>
        <time>2017-06-03T09:42:44Z</time>
      </trkpt>
      <trkpt lat="42.3751" lon="8.55262">
        <ele>-5.62</ele>
        <time>2017-06-03T09:42:54Z</time>
      </trkpt>
      <trkpt lat="42.37486" lon="8.55258">
        <ele>-5.26</ele>
        <time>2017-06-03T09:43:12Z</time>
      </trkpt>
      <trkpt lat="42.37482" lon="8.55253">
        <ele>-5.04</ele>
        <time>2017-06-03T09:43:35Z</time>
      </trkpt>
      <trkpt lat="42.37478" lon="8.5525">
        <ele>-5.43</ele>
        <time>2017-06-03T09:43:57Z</time>
      </trkpt>
      <trkpt lat="42.37481" lon="8.55243">
        <ele>-5.21</ele>
        <time>2017-06-03T09:44:18Z</time>
      </trkpt>
      <trkpt lat="42.3748" lon="8.55241">
        <ele>-5.47</ele>
        <time>2017-06-03T09:44:48Z</time>
      </trkpt>
      <trkpt lat="42.37478" lon="8.55239">
        <ele>-5.19</ele>
        <time>2017-06-03T09:45:14Z</time>
      </trkpt>
      <trkpt lat="42.37485" lon="8.55232">
        <ele>-5.47</ele>
        <time>2017-06-03T09:45:32Z</time>
      </trkpt>
      <trkpt lat="42.37511" lon="8.5524">
        <ele>-5.57</ele>
        <time>2017-06-03T09:45:50Z</time>
      </trkpt>
      <trkpt lat="42.37536" lon="8.55251">
        <ele>-5.56</ele>
        <time>2017-06-03T09:46:05Z</time>
      </trkpt>
      <trkpt lat="42.37565" lon="8.5526">
        <ele>-5.57</ele>
        <time>2017-06-03T09:46:21Z</time>
      </trkpt>
      <trkpt lat="42.37589" lon="8.55274">
        <ele>-5.6</ele>
        <time>2017-06-03T09:46:37Z</time>
      </trkpt>
      <trkpt lat="42.3761" lon="8.55255">
        <ele>-5.96</ele>
        <time>2017-06-03T09:46:53Z</time>
      </trkpt>
      <trkpt lat="42.37623" lon="8.55228">
        <ele>-6.02</ele>
        <time>2017-06-03T09:47:07Z</time>
      </trkpt>
      <trkpt lat="42.37637" lon="8.55196">
        <ele>-5.85</ele>
        <time>2017-06-03T09:47:21Z</time>
      </trkpt>
      <trkpt lat="42.37656" lon="8.55167">
        <ele>-5.69</ele>
        <time>2017-06-03T09:47:35Z</time>
      </trkpt>
      <trkpt lat="42.37677" lon="8.55144">
        <ele>-5.76</ele>
        <time>2017-06-03T09:47:48Z</time>
      </trkpt>
      <trkpt lat="42.37699" lon="8.55129">
        <ele>-5.97</ele>
        <time>2017-06-03T09:48:03Z</time>
      </trkpt>
      <trkpt lat="42.37716" lon="8.55125">
        <ele>-5.98</ele>
        <time>2017-06-03T09:48:19Z</time>
      </trkpt>
      <trkpt lat="42.37736" lon="8.55129">
        <ele>-5.73</ele>
        <time>2017-06-03T09:48:31Z</time>
      </trkpt>
      <trkpt lat="42.37742" lon="8.55129">
        <ele>-5.7</ele>
        <time>2017-06-03T09:48:35Z</time>
      </trkpt>
      <trkpt lat="42.37751" lon="8.55128">
        <ele>-5.36</ele>
        <time>2017-06-03T09:48:45Z</time>
      </trkpt>
      <trkpt lat="42.3775" lon="8.55121">
        <ele>-5.23</ele>
        <time>2017-06-03T09:48:51Z</time>
      </trkpt>
      <trkpt lat="42.37748" lon="8.55118">
        <ele>-5.19</ele>
        <time>2017-06-03T09:48:54Z</time>
      </trkpt>
      <trkpt lat="42.37739" lon="8.55116">
        <ele>-5.16</ele>
        <time>2017-06-03T09:49:02Z</time>
      </trkpt>
      <trkpt lat="42.37736" lon="8.55117">
        <ele>-5.22</ele>
        <time>2017-06-03T09:49:04Z</time>
      </trkpt>
      <trkpt lat="42.37723" lon="8.55116">
        <ele>-5.21</ele>
        <time>2017-06-03T09:49:15Z</time>
      </trkpt>
      <trkpt lat="42.37717" lon="8.55103">
        <ele>-5.68</ele>
        <time>2017-06-03T09:49:24Z</time>
      </trkpt>
      <trkpt lat="42.37714" lon="8.55085">
        <ele>-5.76</ele>
        <time>2017-06-03T09:49:39Z</time>
      </trkpt>
      <trkpt lat="42.3771" lon="8.55075">
        <ele>-5.7</ele>
        <time>2017-06-03T09:49:56Z</time>
      </trkpt>
      <trkpt lat="42.37724" lon="8.55054">
        <ele>-5.9</ele>
        <time>2017-06-03T09:51:00Z</time>
      </trkpt>
      <trkpt lat="42.3775" lon="8.55061">
        <ele>-5.89</ele>
        <time>2017-06-03T09:52:07Z</time>
      </trkpt>
      <trkpt lat="42.37723" lon="8.55102">
        <ele>-5.7</ele>
        <time>2017-06-03T09:52:32Z</time>
      </trkpt>
      <trkpt lat="42.37722" lon="8.55107">
        <ele>-5.51</ele>
        <time>2017-06-03T09:52:52Z</time>
      </trkpt>
      <trkpt lat="42.37728" lon="8.55118">
        <ele>-5.76</ele>
        <time>2017-06-03T09:53:17Z</time>
      </trkpt>
      <trkpt lat="42.37732" lon="8.55122">
        <ele>-5.8</ele>
        <time>2017-06-03T09:53:21Z</time>
      </trkpt>
      <trkpt lat="42.37761" lon="8.55151">
        <ele>-6.12</ele>
        <time>2017-06-03T09:53:40Z</time>
      </trkpt>
      <trkpt lat="42.37781" lon="8.55166">
        <ele>-5.74</ele>
        <time>2017-06-03T09:53:54Z</time>
      </trkpt>
      <trkpt lat="42.37811" lon="8.55154">
        <ele>-5.72</ele>
        <time>2017-06-03T09:54:12Z</time>
      </trkpt>
      <trkpt lat="42.37828" lon="8.55141">
        <ele>-6.1</ele>
        <time>2017-06-03T09:54:25Z</time>
      </trkpt>
      <trkpt lat="42.37854" lon="8.5513">
        <ele>-5.85</ele>
        <time>2017-06-03T09:54:41Z</time>
      </trkpt>
      <trkpt lat="42.37876" lon="8.55123">
        <ele>-5.84</ele>
        <time>2017-06-03T09:54:55Z</time>
      </trkpt>
      <trkpt lat="42.37892" lon="8.55112">
        <ele>-5.68</ele>
        <time>2017-06-03T09:55:07Z</time>
      </trkpt>
      <trkpt lat="42.37915" lon="8.55078">
        <ele>-5.55</ele>
        <time>2017-06-03T09:55:26Z</time>
      </trkpt>
      <trkpt lat="42.37923" lon="8.55051">
        <ele>-5.37</ele>
        <time>2017-06-03T09:55:38Z</time>
      </trkpt>
      <trkpt lat="42.3793" lon="8.55027">
        <ele>-5.36</ele>
        <time>2017-06-03T09:55:50Z</time>
      </trkpt>
      <trkpt lat="42.37941" lon="8.54999">
        <ele>-5.43</ele>
        <time>2017-06-03T09:56:03Z</time>
      </trkpt>
      <trkpt lat="42.37954" lon="8.54966">
        <ele>-5.48</ele>
        <time>2017-06-03T09:56:17Z</time>
      </trkpt>
      <trkpt lat="42.3796" lon="8.54933">
        <ele>-5.34</ele>
        <time>2017-06-03T09:56:30Z</time>
      </trkpt>
      <trkpt lat="42.37961" lon="8.54919">
        <ele>-4.82</ele>
        <time>2017-06-03T09:56:36Z</time>
      </trkpt>
      <trkpt lat="42.37961" lon="8.54909">
        <ele>-4.74</ele>
        <time>2017-06-03T09:56:40Z</time>
      </trkpt>
      <trkpt lat="42.37963" lon="8.54873">
        <ele>-4.99</ele>
        <time>2017-06-03T09:56:54Z</time>
      </trkpt>
      <trkpt lat="42.37969" lon="8.54835">
        <ele>-5.28</ele>
        <time>2017-06-03T09:57:09Z</time>
      </trkpt>
      <trkpt lat="42.37976" lon="8.54806">
        <ele>-5.05</ele>
        <time>2017-06-03T09:57:26Z</time>
      </trkpt>
      <trkpt lat="42.3798" lon="8.54802">
        <ele>-5.09</ele>
        <time>2017-06-03T09:57:46Z</time>
      </trkpt>
      <trkpt lat="42.37981" lon="8.54807">
        <ele>-4.75</ele>
        <time>2017-06-03T09:58:12Z</time>
      </trkpt>
      <trkpt lat="42.37988" lon="8.54816">
        <ele>-4.7</ele>
        <time>2017-06-03T09:58:27Z</time>
      </trkpt>
      <trkpt lat="42.38007" lon="8.54821">
        <ele>-4.72</ele>
        <time>2017-06-03T09:58:42Z</time>
      </trkpt>
      <trkpt lat="42.38013" lon="8.54815">
        <ele>-4.87</ele>
        <time>2017-06-03T09:58:48Z</time>
      </trkpt>
      <trkpt lat="42.38013" lon="8.54806">
        <ele>-4.76</ele>
        <time>2017-06-03T09:58:53Z</time>
      </trkpt>
      <trkpt lat="42.37998" lon="8.54784">
        <ele>-4.58</ele>
        <time>2017-06-03T09:59:06Z</time>
      </trkpt>
      <trkpt lat="42.37977" lon="8.5476">
        <ele>-4.46</ele>
        <time>2017-06-03T09:59:21Z</time>
      </trkpt>
      <trkpt lat="42.37958" lon="8.54736">
        <ele>-4.39</ele>
        <time>2017-06-03T09:59:34Z</time>
      </trkpt>
      <trkpt lat="42.37939" lon="8.54723">
        <ele>-4.33</ele>
        <time>2017-06-03T09:59:44Z</time>
      </trkpt>
      <trkpt lat="42.37937" lon="8.54722">
        <ele>-4.34</ele>
        <time>2017-06-03T09:59:45Z</time>
      </trkpt>
      <trkpt lat="42.37915" lon="8.54702">
        <ele>-4.39</ele>
        <time>2017-06-03T09:59:58Z</time>
      </trkpt>
      <trkpt lat="42.3789" lon="8.54679">
        <ele>-4.45</ele>
        <time>2017-06-03T10:00:12Z</time>
      </trkpt>
      <trkpt lat="42.37873" lon="8.54655">
        <ele>-4.24</ele>
        <time>2017-06-03T10:00:24Z</time>
      </trkpt>
      <trkpt lat="42.37866" lon="8.54645">
        <ele>-4.07</ele>
        <time>2017-06-03T10:00:30Z</time>
      </trkpt>
      <trkpt lat="42.37846" lon="8.54618">
        <ele>-4.25</ele>
        <time>2017-06-03T10:00:43Z</time>
      </trkpt>
      <trkpt lat="42.37818" lon="8.54588">
        <ele>-4.14</ele>
        <time>2017-06-03T10:00:59Z</time>
      </trkpt>
      <trkpt lat="42.37795" lon="8.54571">
        <ele>-4.05</ele>
        <time>2017-06-03T10:01:12Z</time>
      </trkpt>
      <trkpt lat="42.37774" lon="8.54566">
        <ele>-4.05</ele>
        <time>2017-06-03T10:01:23Z</time>
      </trkpt>
      <trkpt lat="42.37747" lon="8.54568">
        <ele>-4.06</ele>
        <time>2017-06-03T10:01:36Z</time>
      </trkpt>
      <trkpt lat="42.37723" lon="8.54575">
        <ele>-4.17</ele>
        <time>2017-06-03T10:01:50Z</time>
      </trkpt>
      <trkpt lat="42.37714" lon="8.54573">
        <ele>-4.42</ele>
        <time>2017-06-03T10:02:04Z</time>
      </trkpt>
      <trkpt lat="42.37706" lon="8.54568">
        <ele>-4.34</ele>
        <time>2017-06-03T10:02:24Z</time>
      </trkpt>
      <trkpt lat="42.37704" lon="8.54566">
        <ele>-4.37</ele>
        <time>2017-06-03T10:02:27Z</time>
      </trkpt>
      <trkpt lat="42.37684" lon="8.54547">
        <ele>-4.63</ele>
        <time>2017-06-03T10:02:43Z</time>
      </trkpt>
      <trkpt lat="42.37662" lon="8.5453">
        <ele>-4.49</ele>
        <time>2017-06-03T10:02:58Z</time>
      </trkpt>
      <trkpt lat="42.37642" lon="8.54517">
        <ele>-4.5</ele>
        <time>2017-06-03T10:03:10Z</time>
      </trkpt>
      <trkpt lat="42.37624" lon="8.54497">
        <ele>-4.57</ele>
        <time>2017-06-03T10:03:23Z</time>
      </trkpt>
      <trkpt lat="42.37619" lon="8.54493">
        <ele>-4.57</ele>
        <time>2017-06-03T10:03:26Z</time>
      </trkpt>
      <trkpt lat="42.37597" lon="8.54478">
        <ele>-4.46</ele>
        <time>2017-06-03T10:03:40Z</time>
      </trkpt>
      <trkpt lat="42.37572" lon="8.54467">
        <ele>-4.47</ele>
        <time>2017-06-03T10:03:56Z</time>
      </trkpt>
      <trkpt lat="42.3754" lon="8.54457">
        <ele>-4.46</ele>
        <time>2017-06-03T10:04:13Z</time>
      </trkpt>
      <trkpt lat="42.37523" lon="8.5446">
        <ele>-4.41</ele>
        <time>2017-06-03T10:04:23Z</time>
      </trkpt>
      <trkpt lat="42.37496" lon="8.54452">
        <ele>-4.6</ele>
        <time>2017-06-03T10:04:38Z</time>
      </trkpt>
      <trkpt lat="42.37483" lon="8.5445">
        <ele>-4.51</ele>
        <time>2017-06-03T10:04:45Z</time>
      </trkpt>
      <trkpt lat="42.37458" lon="8.54443">
        <ele>-4.57</ele>
        <time>2017-06-03T10:04:58Z</time>
      </trkpt>
      <trkpt lat="42.37429" lon="8.54431">
        <ele>-4.64</ele>
        <time>2017-06-03T10:05:13Z</time>
      </trkpt>
      <trkpt lat="42.37406" lon="8.54426">
        <ele>-4.65</ele>
        <time>2017-06-03T10:05:25Z</time>
      </trkpt>
      <trkpt lat="42.37375" lon="8.54419">
        <ele>-4.47</ele>
        <time>2017-06-03T10:05:42Z</time>
      </trkpt>
      <trkpt lat="42.37348" lon="8.54418">
        <ele>-4.32</ele>
        <time>2017-06-03T10:05:57Z</time>
      </trkpt>
      <trkpt lat="42.37339" lon="8.54419">
        <ele>-4.49</ele>
        <time>2017-06-03T10:06:20Z</time>
      </trkpt>
      <trkpt lat="42.37332" lon="8.54416">
        <ele>-4.28</ele>
        <time>2017-06-03T10:06:32Z</time>
      </trkpt>
      <trkpt lat="42.37325" lon="8.54412">
        <ele>-4.46</ele>
        <time>2017-06-03T10:06:39Z</time>
      </trkpt>
      <trkpt lat="42.37293" lon="8.54413">
        <ele>-4.75</ele>
        <time>2017-06-03T10:06:57Z</time>
      </trkpt>
      <trkpt lat="42.37258" lon="8.54418">
        <ele>-4.66</ele>
        <time>2017-06-03T10:07:13Z</time>
      </trkpt>
      <trkpt lat="42.37223" lon="8.54423">
        <ele>-4.8</ele>
        <time>2017-06-03T10:07:28Z</time>
      </trkpt>
      <trkpt lat="42.37189" lon="8.54423">
        <ele>-4.66</ele>
        <time>2017-06-03T10:07:43Z</time>
      </trkpt>
      <trkpt lat="42.37153" lon="8.54419">
        <ele>-4.82</ele>
        <time>2017-06-03T10:07:59Z</time>
      </trkpt>
      <trkpt lat="42.37124" lon="8.54412">
        <ele>-4.8</ele>
        <time>2017-06-03T10:08:13Z</time>
      </trkpt>
      <trkpt lat="42.37096" lon="8.544">
        <ele>-4.81</ele>
        <time>2017-06-03T10:08:27Z</time>
      </trkpt>
      <trkpt lat="42.37066" lon="8.54386">
        <ele>-4.73</ele>
        <time>2017-06-03T10:08:41Z</time>
      </trkpt>
      <trkpt lat="42.37038" lon="8.54371">
        <ele>-4.72</ele>
        <time>2017-06-03T10:08:55Z</time>
      </trkpt>
      <trkpt lat="42.37011" lon="8.54359">
        <ele>-4.76</ele>
        <time>2017-06-03T10:09:11Z</time>
      </trkpt>
      <trkpt lat="42.36986" lon="8.54351">
        <ele>-4.79</ele>
        <time>2017-06-03T10:09:29Z</time>
      </trkpt>
      <trkpt lat="42.36966" lon="8.54336">
        <ele>-4.66</ele>
        <time>2017-06-03T10:09:44Z</time>
      </trkpt>
      <trkpt lat="42.36947" lon="8.54328">
        <ele>-4.39</ele>
        <time>2017-06-03T10:09:59Z</time>
      </trkpt>
      <trkpt lat="42.3692" lon="8.54318">
        <ele>-4.45</ele>
        <time>2017-06-03T10:10:15Z</time>
      </trkpt>
      <trkpt lat="42.36894" lon="8.54307">
        <ele>-4.2</ele>
        <time>2017-06-03T10:10:31Z</time>
      </trkpt>
      <trkpt lat="42.36859" lon="8.54303">
        <ele>-4.19</ele>
        <time>2017-06-03T10:10:49Z</time>
      </trkpt>
      <trkpt lat="42.36838" lon="8.54301">
        <ele>-4.37</ele>
        <time>2017-06-03T10:11:04Z</time>
      </trkpt>
      <trkpt lat="42.36823" lon="8.54298">
        <ele>-3.87</ele>
        <time>2017-06-03T10:11:27Z</time>
      </trkpt>
      <trkpt lat="42.3682" lon="8.54298">
        <ele>-3.86</ele>
        <time>2017-06-03T10:11:30Z</time>
      </trkpt>
      <trkpt lat="42.36809" lon="8.54297">
        <ele>-4</ele>
        <time>2017-06-03T10:11:39Z</time>
      </trkpt>
      <trkpt lat="42.36784" lon="8.54303">
        <ele>-4.18</ele>
        <time>2017-06-03T10:11:58Z</time>
      </trkpt>
      <trkpt lat="42.36756" lon="8.54312">
        <ele>-4.41</ele>
        <time>2017-06-03T10:12:19Z</time>
      </trkpt>
      <trkpt lat="42.36726" lon="8.54325">
        <ele>-3.95</ele>
        <time>2017-06-03T10:12:41Z</time>
      </trkpt>
      <trkpt lat="42.36702" lon="8.54343">
        <ele>-4.08</ele>
        <time>2017-06-03T10:13:01Z</time>
      </trkpt>
      <trkpt lat="42.36684" lon="8.54362">
        <ele>-4.25</ele>
        <time>2017-06-03T10:13:19Z</time>
      </trkpt>
      <trkpt lat="42.36661" lon="8.54388">
        <ele>-4.44</ele>
        <time>2017-06-03T10:13:38Z</time>
      </trkpt>
      <trkpt lat="42.36644" lon="8.54415">
        <ele>-4.58</ele>
        <time>2017-06-03T10:13:56Z</time>
      </trkpt>
      <trkpt lat="42.3664" lon="8.54424">
        <ele>-4.19</ele>
        <time>2017-06-03T10:14:23Z</time>
      </trkpt>
      <trkpt lat="42.36636" lon="8.5443">
        <ele>-3.98</ele>
        <time>2017-06-03T10:14:58Z</time>
      </trkpt>
      <trkpt lat="42.36632" lon="8.5444">
        <ele>-4.16</ele>
        <time>2017-06-03T10:15:15Z</time>
      </trkpt>
      <trkpt lat="42.36623" lon="8.54468">
        <ele>-4.08</ele>
        <time>2017-06-03T10:15:34Z</time>
      </trkpt>
      <trkpt lat="42.36611" lon="8.54511">
        <ele>-3.91</ele>
        <time>2017-06-03T10:15:54Z</time>
      </trkpt>
      <trkpt lat="42.36599" lon="8.54547">
        <ele>-4.11</ele>
        <time>2017-06-03T10:16:12Z</time>
      </trkpt>
      <trkpt lat="42.3658" lon="8.54566">
        <ele>-3.97</ele>
        <time>2017-06-03T10:16:28Z</time>
      </trkpt>
      <trkpt lat="42.36562" lon="8.5459">
        <ele>-3.73</ele>
        <time>2017-06-03T10:16:46Z</time>
      </trkpt>
      <trkpt lat="42.36564" lon="8.54607">
        <ele>-3.65</ele>
        <time>2017-06-03T10:17:02Z</time>
      </trkpt>
      <trkpt lat="42.3657" lon="8.5462">
        <ele>-3.77</ele>
        <time>2017-06-03T10:17:32Z</time>
      </trkpt>
      <trkpt lat="42.36576" lon="8.54622">
        <ele>-3.6</ele>
        <time>2017-06-03T10:17:39Z</time>
      </trkpt>
      <trkpt lat="42.36582" lon="8.54621">
        <ele>-3.75</ele>
        <time>2017-06-03T10:17:44Z</time>
      </trkpt>
      <trkpt lat="42.36589" lon="8.54591">
        <ele>-4.39</ele>
        <time>2017-06-03T10:18:01Z</time>
      </trkpt>
      <trkpt lat="42.3659" lon="8.54557">
        <ele>-4.4</ele>
        <time>2017-06-03T10:18:14Z</time>
      </trkpt>
      <trkpt lat="42.36594" lon="8.54515">
        <ele>-4.49</ele>
        <time>2017-06-03T10:18:29Z</time>
      </trkpt>
      <trkpt lat="42.36597" lon="8.54472">
        <ele>-4.3</ele>
        <time>2017-06-03T10:18:44Z</time>
      </trkpt>
      <trkpt lat="42.366" lon="8.54433">
        <ele>-4.13</ele>
        <time>2017-06-03T10:19:00Z</time>
      </trkpt>
      <trkpt lat="42.36612" lon="8.54399">
        <ele>-4.37</ele>
        <time>2017-06-03T10:19:15Z</time>
      </trkpt>
      <trkpt lat="42.36634" lon="8.54368">
        <ele>-4.13</ele>
        <time>2017-06-03T10:19:32Z</time>
      </trkpt>
      <trkpt lat="42.3666" lon="8.54345">
        <ele>-4.23</ele>
        <time>2017-06-03T10:19:49Z</time>
      </trkpt>
      <trkpt lat="42.36684" lon="8.54334">
        <ele>-4.19</ele>
        <time>2017-06-03T10:20:02Z</time>
      </trkpt>
      <trkpt lat="42.36709" lon="8.54326">
        <ele>-3.74</ele>
        <time>2017-06-03T10:20:15Z</time>
      </trkpt>
      <trkpt lat="42.36731" lon="8.54323">
        <ele>-3.4</ele>
        <time>2017-06-03T10:20:27Z</time>
      </trkpt>
      <trkpt lat="42.3674" lon="8.54321">
        <ele>-3.47</ele>
        <time>2017-06-03T10:20:32Z</time>
      </trkpt>
      <trkpt lat="42.36763" lon="8.54319">
        <ele>-3.66</ele>
        <time>2017-06-03T10:20:44Z</time>
      </trkpt>
      <trkpt lat="42.36789" lon="8.5432">
        <ele>-3.88</ele>
        <time>2017-06-03T10:20:57Z</time>
      </trkpt>
      <trkpt lat="42.36814" lon="8.54315">
        <ele>-3.5</ele>
        <time>2017-06-03T10:21:09Z</time>
      </trkpt>
      <trkpt lat="42.36838" lon="8.54312">
        <ele>-3.5</ele>
        <time>2017-06-03T10:21:21Z</time>
      </trkpt>
      <trkpt lat="42.36845" lon="8.54312">
        <ele>-3.47</ele>
        <time>2017-06-03T10:21:25Z</time>
      </trkpt>
      <trkpt lat="42.36867" lon="8.5431">
        <ele>-3.53</ele>
        <time>2017-06-03T10:21:38Z</time>
      </trkpt>
      <trkpt lat="42.36888" lon="8.54308">
        <ele>-3.83</ele>
        <time>2017-06-03T10:21:51Z</time>
      </trkpt>
      <trkpt lat="42.36919" lon="8.54312">
        <ele>-3.55</ele>
        <time>2017-06-03T10:22:08Z</time>
      </trkpt>
      <trkpt lat="42.36943" lon="8.54316">
        <ele>-4.02</ele>
        <time>2017-06-03T10:22:21Z</time>
      </trkpt>
      <trkpt lat="42.36979" lon="8.54315">
        <ele>-3.96</ele>
        <time>2017-06-03T10:22:39Z</time>
      </trkpt>
      <trkpt lat="42.37014" lon="8.54316">
        <ele>-3.85</ele>
        <time>2017-06-03T10:22:57Z</time>
      </trkpt>
      <trkpt lat="42.37044" lon="8.54319">
        <ele>-3.63</ele>
        <time>2017-06-03T10:23:14Z</time>
      </trkpt>
      <trkpt lat="42.3707" lon="8.54325">
        <ele>-3.69</ele>
        <time>2017-06-03T10:23:28Z</time>
      </trkpt>
      <trkpt lat="42.37097" lon="8.54329">
        <ele>-3.63</ele>
        <time>2017-06-03T10:23:44Z</time>
      </trkpt>
      <trkpt lat="42.37125" lon="8.54331">
        <ele>-3.35</ele>
        <time>2017-06-03T10:24:00Z</time>
      </trkpt>
      <trkpt lat="42.37159" lon="8.54332">
        <ele>-3.02</ele>
        <time>2017-06-03T10:24:18Z</time>
      </trkpt>
      <trkpt lat="42.37192" lon="8.54333">
        <ele>-2.99</ele>
        <time>2017-06-03T10:24:36Z</time>
      </trkpt>
      <trkpt lat="42.3722" lon="8.54334">
        <ele>-2.71</ele>
        <time>2017-06-03T10:24:51Z</time>
      </trkpt>
      <trkpt lat="42.37248" lon="8.54343">
        <ele>-2.5</ele>
        <time>2017-06-03T10:25:06Z</time>
      </trkpt>
      <trkpt lat="42.37274" lon="8.54353">
        <ele>-2.56</ele>
        <time>2017-06-03T10:25:19Z</time>
      </trkpt>
      <trkpt lat="42.37305" lon="8.54364">
        <ele>-2.44</ele>
        <time>2017-06-03T10:25:34Z</time>
      </trkpt>
      <trkpt lat="42.37338" lon="8.54371">
        <ele>-2.49</ele>
        <time>2017-06-03T10:25:49Z</time>
      </trkpt>
      <trkpt lat="42.37364" lon="8.54375">
        <ele>-2.6</ele>
        <time>2017-06-03T10:26:04Z</time>
      </trkpt>
      <trkpt lat="42.37389" lon="8.54384">
        <ele>-2.57</ele>
        <time>2017-06-03T10:26:17Z</time>
      </trkpt>
      <trkpt lat="42.37411" lon="8.54394">
        <ele>-2.5</ele>
        <time>2017-06-03T10:26:29Z</time>
      </trkpt>
      <trkpt lat="42.37424" lon="8.54399">
        <ele>-2.65</ele>
        <time>2017-06-03T10:26:37Z</time>
      </trkpt>
      <trkpt lat="42.37449" lon="8.54408">
        <ele>-2.81</ele>
        <time>2017-06-03T10:26:51Z</time>
      </trkpt>
      <trkpt lat="42.37474" lon="8.54415">
        <ele>-2.94</ele>
        <time>2017-06-03T10:27:04Z</time>
      </trkpt>
      <trkpt lat="42.37502" lon="8.54425">
        <ele>-3.01</ele>
        <time>2017-06-03T10:27:18Z</time>
      </trkpt>
      <trkpt lat="42.37532" lon="8.54436">
        <ele>-2.68</ele>
        <time>2017-06-03T10:27:33Z</time>
      </trkpt>
      <trkpt lat="42.37555" lon="8.54447">
        <ele>-2.93</ele>
        <time>2017-06-03T10:27:46Z</time>
      </trkpt>
      <trkpt lat="42.3758" lon="8.54456">
        <ele>-2.98</ele>
        <time>2017-06-03T10:27:59Z</time>
      </trkpt>
      <trkpt lat="42.37602" lon="8.54468">
        <ele>-3.05</ele>
        <time>2017-06-03T10:28:11Z</time>
      </trkpt>
      <trkpt lat="42.37628" lon="8.54478">
        <ele>-3.1</ele>
        <time>2017-06-03T10:28:25Z</time>
      </trkpt>
      <trkpt lat="42.37648" lon="8.54492">
        <ele>-2.83</ele>
        <time>2017-06-03T10:28:36Z</time>
      </trkpt>
      <trkpt lat="42.37677" lon="8.54501">
        <ele>-2.85</ele>
        <time>2017-06-03T10:28:51Z</time>
      </trkpt>
      <trkpt lat="42.37699" lon="8.54509">
        <ele>-2.92</ele>
        <time>2017-06-03T10:29:02Z</time>
      </trkpt>
      <trkpt lat="42.37726" lon="8.54526">
        <ele>-2.61</ele>
        <time>2017-06-03T10:29:17Z</time>
      </trkpt>
      <trkpt lat="42.37751" lon="8.54543">
        <ele>-2.67</ele>
        <time>2017-06-03T10:29:31Z</time>
      </trkpt>
      <trkpt lat="42.37774" lon="8.54558">
        <ele>-2.67</ele>
        <time>2017-06-03T10:29:43Z</time>
      </trkpt>
      <trkpt lat="42.37779" lon="8.54563">
        <ele>-2.64</ele>
        <time>2017-06-03T10:29:47Z</time>
      </trkpt>
      <trkpt lat="42.37787" lon="8.54571">
        <ele>-2.64</ele>
        <time>2017-06-03T10:29:52Z</time>
      </trkpt>
      <trkpt lat="42.37796" lon="8.54579">
        <ele>-2.67</ele>
        <time>2017-06-03T10:29:58Z</time>
      </trkpt>
      <trkpt lat="42.37813" lon="8.54609">
        <ele>-2.8</ele>
        <time>2017-06-03T10:30:12Z</time>
      </trkpt>
      <trkpt lat="42.37835" lon="8.54638">
        <ele>-3.14</ele>
        <time>2017-06-03T10:30:27Z</time>
      </trkpt>
      <trkpt lat="42.37857" lon="8.54659">
        <ele>-3.05</ele>
        <time>2017-06-03T10:30:42Z</time>
      </trkpt>
      <trkpt lat="42.3788" lon="8.54675">
        <ele>-2.94</ele>
        <time>2017-06-03T10:30:59Z</time>
      </trkpt>
      <trkpt lat="42.37909" lon="8.54693">
        <ele>-3.04</ele>
        <time>2017-06-03T10:31:15Z</time>
      </trkpt>
      <trkpt lat="42.37933" lon="8.54715">
        <ele>-3.11</ele>
        <time>2017-06-03T10:31:31Z</time>
      </trkpt>
      <trkpt lat="42.37957" lon="8.54742">
        <ele>-3.11</ele>
        <time>2017-06-03T10:31:47Z</time>
      </trkpt>
      <trkpt lat="42.37969" lon="8.54767">
        <ele>-2.82</ele>
        <time>2017-06-03T10:32:02Z</time>
      </trkpt>
      <trkpt lat="42.37971" lon="8.54795">
        <ele>-2.83</ele>
        <time>2017-06-03T10:32:16Z</time>
      </trkpt>
      <trkpt lat="42.3797" lon="8.548">
        <ele>-2.83</ele>
        <time>2017-06-03T10:32:18Z</time>
      </trkpt>
      <trkpt lat="42.37971" lon="8.54807">
        <ele>-2.84</ele>
        <time>2017-06-03T10:32:21Z</time>
      </trkpt>
      <trkpt lat="42.37962" lon="8.54839">
        <ele>-3.01</ele>
        <time>2017-06-03T10:32:33Z</time>
      </trkpt>
      <trkpt lat="42.3796" lon="8.54866">
        <ele>-3.16</ele>
        <time>2017-06-03T10:32:41Z</time>
      </trkpt>
      <trkpt lat="42.3796" lon="8.54885">
        <ele>-3.18</ele>
        <time>2017-06-03T10:32:47Z</time>
      </trkpt>
      <trkpt lat="42.37956" lon="8.54926">
        <ele>-2.92</ele>
        <time>2017-06-03T10:33:00Z</time>
      </trkpt>
      <trkpt lat="42.37951" lon="8.54956">
        <ele>-2.8</ele>
        <time>2017-06-03T10:33:12Z</time>
      </trkpt>
      <trkpt lat="42.37942" lon="8.54981">
        <ele>-2.99</ele>
        <time>2017-06-03T10:33:25Z</time>
      </trkpt>
      <trkpt lat="42.37931" lon="8.55009">
        <ele>-2.83</ele>
        <time>2017-06-03T10:33:39Z</time>
      </trkpt>
      <trkpt lat="42.37923" lon="8.55037">
        <ele>-2.8</ele>
        <time>2017-06-03T10:33:51Z</time>
      </trkpt>
      <trkpt lat="42.37917" lon="8.55051">
        <ele>-2.68</ele>
        <time>2017-06-03T10:33:57Z</time>
      </trkpt>
      <trkpt lat="42.37907" lon="8.55078">
        <ele>-2.89</ele>
        <time>2017-06-03T10:34:09Z</time>
      </trkpt>
      <trkpt lat="42.37901" lon="8.55088">
        <ele>-2.86</ele>
        <time>2017-06-03T10:34:14Z</time>
      </trkpt>
      <trkpt lat="42.37886" lon="8.55119">
        <ele>-2.68</ele>
        <time>2017-06-03T10:34:29Z</time>
      </trkpt>
      <trkpt lat="42.37883" lon="8.55125">
        <ele>-2.64</ele>
        <time>2017-06-03T10:34:33Z</time>
      </trkpt>
      <trkpt lat="42.37863" lon="8.55146">
        <ele>-2.95</ele>
        <time>2017-06-03T10:34:49Z</time>
      </trkpt>
      <trkpt lat="42.37859" lon="8.55153">
        <ele>-2.95</ele>
        <time>2017-06-03T10:34:54Z</time>
      </trkpt>
      <trkpt lat="42.37843" lon="8.55163">
        <ele>-3.16</ele>
        <time>2017-06-03T10:35:06Z</time>
      </trkpt>
      <trkpt lat="42.37826" lon="8.55185">
        <ele>-3.12</ele>
        <time>2017-06-03T10:35:20Z</time>
      </trkpt>
      <trkpt lat="42.37823" lon="8.55194">
        <ele>-2.95</ele>
        <time>2017-06-03T10:35:24Z</time>
      </trkpt>
      <trkpt lat="42.3782" lon="8.55228">
        <ele>-2.9</ele>
        <time>2017-06-03T10:35:40Z</time>
      </trkpt>
      <trkpt lat="42.37817" lon="8.55266">
        <ele>-3.08</ele>
        <time>2017-06-03T10:35:58Z</time>
      </trkpt>
      <trkpt lat="42.37812" lon="8.55297">
        <ele>-3.08</ele>
        <time>2017-06-03T10:36:13Z</time>
      </trkpt>
      <trkpt lat="42.37809" lon="8.55336">
        <ele>-3.17</ele>
        <time>2017-06-03T10:36:30Z</time>
      </trkpt>
      <trkpt lat="42.37806" lon="8.5537">
        <ele>-2.88</ele>
        <time>2017-06-03T10:36:46Z</time>
      </trkpt>
      <trkpt lat="42.37803" lon="8.55411">
        <ele>-2.92</ele>
        <time>2017-06-03T10:37:04Z</time>
      </trkpt>
      <trkpt lat="42.37798" lon="8.55452">
        <ele>-2.82</ele>
        <time>2017-06-03T10:37:21Z</time>
      </trkpt>
      <trkpt lat="42.37791" lon="8.55499">
        <ele>-3.07</ele>
        <time>2017-06-03T10:37:38Z</time>
      </trkpt>
      <trkpt lat="42.37779" lon="8.55541">
        <ele>-2.93</ele>
        <time>2017-06-03T10:37:55Z</time>
      </trkpt>
      <trkpt lat="42.37757" lon="8.55557">
        <ele>-3.04</ele>
        <time>2017-06-03T10:38:12Z</time>
      </trkpt>
      <trkpt lat="42.37744" lon="8.55582">
        <ele>-2.87</ele>
        <time>2017-06-03T10:38:25Z</time>
      </trkpt>
      <trkpt lat="42.37736" lon="8.55622">
        <ele>-2.83</ele>
        <time>2017-06-03T10:38:42Z</time>
      </trkpt>
      <trkpt lat="42.37725" lon="8.55662">
        <ele>-2.99</ele>
        <time>2017-06-03T10:39:00Z</time>
      </trkpt>
      <trkpt lat="42.37717" lon="8.55702">
        <ele>-3.19</ele>
        <time>2017-06-03T10:39:15Z</time>
      </trkpt>
      <trkpt lat="42.37714" lon="8.55748">
        <ele>-2.9</ele>
        <time>2017-06-03T10:39:32Z</time>
      </trkpt>
      <trkpt lat="42.37719" lon="8.55781">
        <ele>-2.95</ele>
        <time>2017-06-03T10:39:49Z</time>
      </trkpt>
      <trkpt lat="42.37714" lon="8.55815">
        <ele>-2.95</ele>
        <time>2017-06-03T10:40:05Z</time>
      </trkpt>
      <trkpt lat="42.37695" lon="8.55851">
        <ele>-2.91</ele>
        <time>2017-06-03T10:40:20Z</time>
      </trkpt>
      <trkpt lat="42.37678" lon="8.55892">
        <ele>-3.04</ele>
        <time>2017-06-03T10:40:36Z</time>
      </trkpt>
      <trkpt lat="42.37659" lon="8.55911">
        <ele>-2.92</ele>
        <time>2017-06-03T10:40:50Z</time>
      </trkpt>
      <trkpt lat="42.37642" lon="8.55948">
        <ele>-3.29</ele>
        <time>2017-06-03T10:41:06Z</time>
      </trkpt>
      <trkpt lat="42.37621" lon="8.55996">
        <ele>-3.12</ele>
        <time>2017-06-03T10:41:24Z</time>
      </trkpt>
      <trkpt lat="42.37599" lon="8.56043">
        <ele>-3.08</ele>
        <time>2017-06-03T10:41:42Z</time>
      </trkpt>
      <trkpt lat="42.37597" lon="8.56056">
        <ele>-3.15</ele>
        <time>2017-06-03T10:41:47Z</time>
      </trkpt>
      <trkpt lat="42.37587" lon="8.56095">
        <ele>-3.01</ele>
        <time>2017-06-03T10:42:03Z</time>
      </trkpt>
      <trkpt lat="42.37569" lon="8.56113">
        <ele>-2.91</ele>
        <time>2017-06-03T10:42:17Z</time>
      </trkpt>
      <trkpt lat="42.37554" lon="8.56133">
        <ele>-2.78</ele>
        <time>2017-06-03T10:42:29Z</time>
      </trkpt>
      <trkpt lat="42.37538" lon="8.56171">
        <ele>-2.86</ele>
        <time>2017-06-03T10:42:45Z</time>
      </trkpt>
      <trkpt lat="42.37525" lon="8.56219">
        <ele>-2.99</ele>
        <time>2017-06-03T10:43:03Z</time>
      </trkpt>
      <trkpt lat="42.37506" lon="8.56248">
        <ele>-2.83</ele>
        <time>2017-06-03T10:43:18Z</time>
      </trkpt>
      <trkpt lat="42.37488" lon="8.5629">
        <ele>-3.04</ele>
        <time>2017-06-03T10:43:35Z</time>
      </trkpt>
      <trkpt lat="42.37471" lon="8.56331">
        <ele>-2.87</ele>
        <time>2017-06-03T10:43:51Z</time>
      </trkpt>
      <trkpt lat="42.37457" lon="8.56377">
        <ele>-3.07</ele>
        <time>2017-06-03T10:44:07Z</time>
      </trkpt>
      <trkpt lat="42.37445" lon="8.56413">
        <ele>-2.85</ele>
        <time>2017-06-03T10:44:22Z</time>
      </trkpt>
      <trkpt lat="42.37425" lon="8.56423">
        <ele>-2.93</ele>
        <time>2017-06-03T10:44:37Z</time>
      </trkpt>
      <trkpt lat="42.3741" lon="8.56452">
        <ele>-2.86</ele>
        <time>2017-06-03T10:44:51Z</time>
      </trkpt>
      <trkpt lat="42.37392" lon="8.56498">
        <ele>-3.06</ele>
        <time>2017-06-03T10:45:09Z</time>
      </trkpt>
      <trkpt lat="42.37375" lon="8.56543">
        <ele>-2.97</ele>
        <time>2017-06-03T10:45:26Z</time>
      </trkpt>
      <trkpt lat="42.37355" lon="8.5656">
        <ele>-3</ele>
        <time>2017-06-03T10:45:41Z</time>
      </trkpt>
      <trkpt lat="42.37342" lon="8.56596">
        <ele>-2.87</ele>
        <time>2017-06-03T10:45:56Z</time>
      </trkpt>
      <trkpt lat="42.37331" lon="8.56633">
        <ele>-3.03</ele>
        <time>2017-06-03T10:46:10Z</time>
      </trkpt>
      <trkpt lat="42.3732" lon="8.5668">
        <ele>-3.02</ele>
        <time>2017-06-03T10:46:27Z</time>
      </trkpt>
      <trkpt lat="42.37299" lon="8.56717">
        <ele>-3.25</ele>
        <time>2017-06-03T10:46:42Z</time>
      </trkpt>
      <trkpt lat="42.37278" lon="8.56742">
        <ele>-3.19</ele>
        <time>2017-06-03T10:46:57Z</time>
      </trkpt>
      <trkpt lat="42.37262" lon="8.56787">
        <ele>-3.19</ele>
        <time>2017-06-03T10:47:14Z</time>
      </trkpt>
      <trkpt lat="42.37248" lon="8.56824">
        <ele>-3.06</ele>
        <time>2017-06-03T10:47:29Z</time>
      </trkpt>
      <trkpt lat="42.37232" lon="8.56861">
        <ele>-2.91</ele>
        <time>2017-06-03T10:47:44Z</time>
      </trkpt>
      <trkpt lat="42.37215" lon="8.56902">
        <ele>-3.02</ele>
        <time>2017-06-03T10:48:00Z</time>
      </trkpt>
      <trkpt lat="42.37201" lon="8.56941">
        <ele>-3.09</ele>
        <time>2017-06-03T10:48:14Z</time>
      </trkpt>
      <trkpt lat="42.37192" lon="8.56984">
        <ele>-3.08</ele>
        <time>2017-06-03T10:48:29Z</time>
      </trkpt>
      <trkpt lat="42.37184" lon="8.57028">
        <ele>-3.02</ele>
        <time>2017-06-03T10:48:45Z</time>
      </trkpt>
      <trkpt lat="42.37171" lon="8.57068">
        <ele>-3.13</ele>
        <time>2017-06-03T10:49:03Z</time>
      </trkpt>
      <trkpt lat="42.37161" lon="8.57094">
        <ele>-3.07</ele>
        <time>2017-06-03T10:49:18Z</time>
      </trkpt>
      <trkpt lat="42.37157" lon="8.57096">
        <ele>-3.1</ele>
        <time>2017-06-03T10:49:23Z</time>
      </trkpt>
      <trkpt lat="42.37141" lon="8.5712">
        <ele>-2.92</ele>
        <time>2017-06-03T10:49:39Z</time>
      </trkpt>
      <trkpt lat="42.37125" lon="8.57157">
        <ele>-2.89</ele>
        <time>2017-06-03T10:49:55Z</time>
      </trkpt>
      <trkpt lat="42.37103" lon="8.57189">
        <ele>-2.96</ele>
        <time>2017-06-03T10:50:12Z</time>
      </trkpt>
      <trkpt lat="42.37079" lon="8.57224">
        <ele>-2.95</ele>
        <time>2017-06-03T10:50:29Z</time>
      </trkpt>
      <trkpt lat="42.37064" lon="8.57253">
        <ele>-3.29</ele>
        <time>2017-06-03T10:50:45Z</time>
      </trkpt>
      <trkpt lat="42.37063" lon="8.57264">
        <ele>-3.31</ele>
        <time>2017-06-03T10:51:01Z</time>
      </trkpt>
      <trkpt lat="42.37059" lon="8.57265">
        <ele>-2.91</ele>
        <time>2017-06-03T10:51:18Z</time>
      </trkpt>
      <trkpt lat="42.37058" lon="8.57267">
        <ele>-4.85</ele>
        <time>2017-06-03T10:51:28Z</time>
      </trkpt>
      <trkpt lat="42.37056" lon="8.57268">
        <ele>-2.2</ele>
        <time>2017-06-03T10:51:35Z</time>
      </trkpt>
      <trkpt lat="42.37056" lon="8.57267">
        <ele>-2.71</ele>
        <time>2017-06-03T10:51:55Z</time>
      </trkpt>
      <trkpt lat="42.37056" lon="8.57266">
        <ele>-3.63</ele>
        <time>2017-06-03T10:52:28Z</time>
      </trkpt>
      <trkpt lat="42.37054" lon="8.57264">
        <ele>-3.4</ele>
        <time>2017-06-03T10:52:57Z</time>
      </trkpt>
      <trkpt lat="42.37054" lon="8.57264">
        <ele>-3.78</ele>
        <time>2017-06-03T10:53:19Z</time>
      </trkpt>
      <trkpt lat="42.37052" lon="8.57266">
        <ele>-4.03</ele>
        <time>2017-06-03T10:53:46Z</time>
      </trkpt>
      <trkpt lat="42.37049" lon="8.57266">
        <ele>-3.98</ele>
        <time>2017-06-03T10:54:13Z</time>
      </trkpt>
      <trkpt lat="42.37055" lon="8.57264">
        <ele>-4.15</ele>
        <time>2017-06-03T10:54:38Z</time>
      </trkpt>
      <trkpt lat="42.37055" lon="8.57263">
        <ele>-4.18</ele>
        <time>2017-06-03T10:55:05Z</time>
      </trkpt>
      <trkpt lat="42.37055" lon="8.57262">
        <ele>-4.31</ele>
        <time>2017-06-03T10:55:28Z</time>
      </trkpt>
      <trkpt lat="42.37055" lon="8.5726">
        <ele>-4.32</ele>
        <time>2017-06-03T10:55:54Z</time>
      </trkpt>
      <trkpt lat="42.37054" lon="8.5726">
        <ele>-4.33</ele>
        <time>2017-06-03T10:56:13Z</time>
      </trkpt>
      <trkpt lat="42.37052" lon="8.57261">
        <ele>-4.51</ele>
        <time>2017-06-03T10:56:32Z</time>
      </trkpt>
      <trkpt lat="42.37053" lon="8.57262">
        <ele>-4.42</ele>
        <time>2017-06-03T10:56:54Z</time>
      </trkpt>
      <trkpt lat="42.37052" lon="8.57262">
        <ele>-4.52</ele>
        <time>2017-06-03T10:57:14Z</time>
      </trkpt>
      <trkpt lat="42.3705" lon="8.57262">
        <ele>-4.39</ele>
        <time>2017-06-03T10:57:32Z</time>
      </trkpt>
      <trkpt lat="42.3705" lon="8.57262">
        <ele>-4.43</ele>
        <time>2017-06-03T10:57:53Z</time>
      </trkpt>
      <trkpt lat="42.3705" lon="8.57262">
        <ele>-4.29</ele>
        <time>2017-06-03T10:58:08Z</time>
      </trkpt>
      <trkpt lat="42.3705" lon="8.57261">
        <ele>-4.25</ele>
        <time>2017-06-03T10:58:26Z</time>
      </trkpt>
      <trkpt lat="42.3705" lon="8.57262">
        <ele>-4.2</ele>
        <time>2017-06-03T10:58:43Z</time>
      </trkpt>
      <trkpt lat="42.37049" lon="8.57262">
        <ele>-4.04</ele>
        <time>2017-06-03T10:59:00Z</time>
      </trkpt>
      <trkpt lat="42.37048" lon="8.57262">
        <ele>-4.04</ele>
        <time>2017-06-03T10:59:19Z</time>
      </trkpt>
      <trkpt lat="42.37049" lon="8.57262">
        <ele>-3.83</ele>
        <time>2017-06-03T10:59:38Z</time>
      </trkpt>
      <trkpt lat="42.37048" lon="8.57263">
        <ele>-3.83</ele>
        <time>2017-06-03T10:59:54Z</time>
      </trkpt>
      <trkpt lat="42.37049" lon="8.57261">
        <ele>-3.53</ele>
        <time>2017-06-03T11:00:13Z</time>
      </trkpt>
      <trkpt lat="42.3705" lon="8.5726">
        <ele>-3.43</ele>
        <time>2017-06-03T11:00:28Z</time>
      </trkpt>
      <trkpt lat="42.3705" lon="8.5726">
        <ele>-3.25</ele>
        <time>2017-06-03T11:00:46Z</time>
      </trkpt>
      <trkpt lat="42.3705" lon="8.57259">
        <ele>-3.07</ele>
        <time>2017-06-03T11:01:05Z</time>
      </trkpt>
      <trkpt lat="42.37049" lon="8.5726">
        <ele>-3.04</ele>
        <time>2017-06-03T11:01:23Z</time>
      </trkpt>
      <trkpt lat="42.37049" lon="8.5726">
        <ele>-2.88</ele>
        <time>2017-06-03T11:01:39Z</time>
      </trkpt>
      <trkpt lat="42.37049" lon="8.57261">
        <ele>-2.85</ele>
        <time>2017-06-03T11:01:56Z</time>
      </trkpt>
      <trkpt lat="42.3705" lon="8.5726">
        <ele>-2.95</ele>
        <time>2017-06-03T11:02:13Z</time>
      </trkpt>
      <trkpt lat="42.37051" lon="8.57259">
        <ele>-2.69</ele>
        <time>2017-06-03T11:02:34Z</time>
      </trkpt>
      <trkpt lat="42.37051" lon="8.57259">
        <ele>-2.49</ele>
        <time>2017-06-03T11:02:53Z</time>
      </trkpt>
      <trkpt lat="42.37054" lon="8.57261">
        <ele>-2.38</ele>
        <time>2017-06-03T11:03:17Z</time>
      </trkpt>
      <trkpt lat="42.37054" lon="8.57259">
        <ele>-2.09</ele>
        <time>2017-06-03T11:03:43Z</time>
      </trkpt>
      <trkpt lat="42.37055" lon="8.57259">
        <ele>-2.1</ele>
        <time>2017-06-03T11:04:05Z</time>
      </trkpt>
      <trkpt lat="42.37055" lon="8.5726">
        <ele>-2.19</ele>
        <time>2017-06-03T11:04:23Z</time>
      </trkpt>
      <trkpt lat="42.37051" lon="8.57257">
        <ele>-2.02</ele>
        <time>2017-06-03T11:04:41Z</time>
      </trkpt>
      <trkpt lat="42.37048" lon="8.57259">
        <ele>-2.23</ele>
        <time>2017-06-03T11:05:02Z</time>
      </trkpt>
      <trkpt lat="42.37051" lon="8.57261">
        <ele>-8.67</ele>
        <time>2017-06-03T11:05:13Z</time>
      </trkpt>
      <trkpt lat="42.37051" lon="8.57261">
        <ele>-8.67</ele>
        <time>2017-06-03T11:05:14Z</time>
      </trkpt>
      <trkpt lat="42.37046" lon="8.57248">
        <ele>0.25</ele>
        <time>2017-06-03T11:22:15Z</time>
      </trkpt>
      <trkpt lat="42.37047" lon="8.57261">
        <ele>-23.41</ele>
        <time>2017-06-03T11:22:16Z</time>
      </trkpt>
      <trkpt lat="42.37056" lon="8.57266">
        <ele>-23.41</ele>
        <time>2017-06-03T11:22:34Z</time>
      </trkpt>
      <trkpt lat="42.37056" lon="8.57266">
        <ele>-23.23</ele>
        <time>2017-06-03T11:22:38Z</time>
      </trkpt>
      <trkpt lat="42.37044" lon="8.57268">
        <ele>-21.76</ele>
        <time>2017-06-03T11:23:00Z</time>
      </trkpt>
      <trkpt lat="42.37055" lon="8.5727">
        <ele>-22.05</ele>
        <time>2017-06-03T11:23:19Z</time>
      </trkpt>
      <trkpt lat="42.37054" lon="8.57271">
        <ele>-21.63</ele>
        <time>2017-06-03T11:23:41Z</time>
      </trkpt>
      <trkpt lat="42.37057" lon="8.5727">
        <ele>-21.8</ele>
        <time>2017-06-03T11:23:57Z</time>
      </trkpt>
      <trkpt lat="42.37055" lon="8.57265">
        <ele>-22.29</ele>
        <time>2017-06-03T11:24:19Z</time>
      </trkpt>
      <trkpt lat="42.37056" lon="8.57264">
        <ele>-22.05</ele>
        <time>2017-06-03T11:24:36Z</time>
      </trkpt>
      <trkpt lat="42.37062" lon="8.57261">
        <ele>-22.8</ele>
        <time>2017-06-03T11:24:54Z</time>
      </trkpt>
      <trkpt lat="42.37062" lon="8.57255">
        <ele>-23.02</ele>
        <time>2017-06-03T11:25:12Z</time>
      </trkpt>
      <trkpt lat="42.37062" lon="8.57254">
        <ele>-19.65</ele>
        <time>2017-06-03T11:25:25Z</time>
      </trkpt>
      <trkpt lat="42.37061" lon="8.57256">
        <ele>-16.15</ele>
        <time>2017-06-03T11:25:29Z</time>
      </trkpt>
      <trkpt lat="42.3706" lon="8.57257">
        <ele>-12.66</ele>
        <time>2017-06-03T11:25:35Z</time>
      </trkpt>
      <trkpt lat="42.3706" lon="8.5726">
        <ele>-9.16</ele>
        <time>2017-06-03T11:25:41Z</time>
      </trkpt>
      <trkpt lat="42.3706" lon="8.57261">
        <ele>-5.6</ele>
        <time>2017-06-03T11:25:47Z</time>
      </trkpt>
      <trkpt lat="42.3706" lon="8.57261">
        <ele>-2.2</ele>
        <time>2017-06-03T11:25:52Z</time>
      </trkpt>
      <trkpt lat="42.37061" lon="8.5726">
        <ele>1</ele>
        <time>2017-06-03T11:25:59Z</time>
      </trkpt>
      <trkpt lat="42.37062" lon="8.57261">
        <ele>4.46</ele>
        <time>2017-06-03T11:26:07Z</time>
      </trkpt>
      <trkpt lat="42.37063" lon="8.5726">
        <ele>7.98</ele>
        <time>2017-06-03T11:26:13Z</time>
      </trkpt>
      <trkpt lat="42.37062" lon="8.57261">
        <ele>11.27</ele>
        <time>2017-06-03T11:26:21Z</time>
      </trkpt>
      <trkpt lat="42.37062" lon="8.57262">
        <ele>14.6</ele>
        <time>2017-06-03T11:26:29Z</time>
      </trkpt>
      <trkpt lat="42.37063" lon="8.57261">
        <ele>17.97</ele>
        <time>2017-06-03T11:26:37Z</time>
      </trkpt>
      <trkpt lat="42.37063" lon="8.57259">
        <ele>21.29</ele>
        <time>2017-06-03T11:26:46Z</time>
      </trkpt>
      <trkpt lat="42.37065" lon="8.57255">
        <ele>23.35</ele>
        <time>2017-06-03T11:26:51Z</time>
      </trkpt>
      <trkpt lat="42.37081" lon="8.57241">
        <ele>26.96</ele>
        <time>2017-06-03T11:27:03Z</time>
      </trkpt>
      <trkpt lat="42.37092" lon="8.57229">
        <ele>30.26</ele>
        <time>2017-06-03T11:27:11Z</time>
      </trkpt>
      <trkpt lat="42.37106" lon="8.57218">
        <ele>33.54</ele>
        <time>2017-06-03T11:27:19Z</time>
      </trkpt>
      <trkpt lat="42.37118" lon="8.57209">
        <ele>36.7</ele>
        <time>2017-06-03T11:27:26Z</time>
      </trkpt>
      <trkpt lat="42.37134" lon="8.572">
        <ele>39.96</ele>
        <time>2017-06-03T11:27:34Z</time>
      </trkpt>
      <trkpt lat="42.37147" lon="8.57194">
        <ele>43.05</ele>
        <time>2017-06-03T11:27:41Z</time>
      </trkpt>
      <trkpt lat="42.37162" lon="8.57189">
        <ele>46.26</ele>
        <time>2017-06-03T11:27:48Z</time>
      </trkpt>
      <trkpt lat="42.37175" lon="8.57184">
        <ele>49.48</ele>
        <time>2017-06-03T11:27:55Z</time>
      </trkpt>
      <trkpt lat="42.37192" lon="8.5718">
        <ele>52.58</ele>
        <time>2017-06-03T11:28:03Z</time>
      </trkpt>
      <trkpt lat="42.37209" lon="8.57177">
        <ele>55.79</ele>
        <time>2017-06-03T11:28:11Z</time>
      </trkpt>
      <trkpt lat="42.37225" lon="8.57173">
        <ele>59.28</ele>
        <time>2017-06-03T11:28:19Z</time>
      </trkpt>
      <trkpt lat="42.37242" lon="8.57171">
        <ele>62.46</ele>
        <time>2017-06-03T11:28:27Z</time>
      </trkpt>
      <trkpt lat="42.37259" lon="8.57169">
        <ele>65.56</ele>
        <time>2017-06-03T11:28:35Z</time>
      </trkpt>
      <trkpt lat="42.37279" lon="8.57167">
        <ele>68.67</ele>
        <time>2017-06-03T11:28:43Z</time>
      </trkpt>
      <trkpt lat="42.37297" lon="8.57165">
        <ele>71.84</ele>
        <time>2017-06-03T11:28:53Z</time>
      </trkpt>
      <trkpt lat="42.37314" lon="8.57162">
        <ele>74.91</ele>
        <time>2017-06-03T11:29:02Z</time>
      </trkpt>
      <trkpt lat="42.37332" lon="8.5716">
        <ele>77.92</ele>
        <time>2017-06-03T11:29:10Z</time>
      </trkpt>
      <trkpt lat="42.37351" lon="8.57152">
        <ele>81.12</ele>
        <time>2017-06-03T11:29:20Z</time>
      </trkpt>
      <trkpt lat="42.37372" lon="8.57147">
        <ele>84.14</ele>
        <time>2017-06-03T11:29:31Z</time>
      </trkpt>
      <trkpt lat="42.3739" lon="8.57147">
        <ele>87.35</ele>
        <time>2017-06-03T11:29:41Z</time>
      </trkpt>
      <trkpt lat="42.37412" lon="8.57153">
        <ele>90.44</ele>
        <time>2017-06-03T11:29:54Z</time>
      </trkpt>
      <trkpt lat="42.37423" lon="8.57157">
        <ele>92.99</ele>
        <time>2017-06-03T11:30:01Z</time>
      </trkpt>
      <trkpt lat="42.37449" lon="8.57163">
        <ele>96.07</ele>
        <time>2017-06-03T11:30:14Z</time>
      </trkpt>
      <trkpt lat="42.37478" lon="8.57177">
        <ele>99.28</ele>
        <time>2017-06-03T11:30:28Z</time>
      </trkpt>
      <trkpt lat="42.37502" lon="8.57187">
        <ele>102.38</ele>
        <time>2017-06-03T11:30:39Z</time>
      </trkpt>
      <trkpt lat="42.37527" lon="8.57195">
        <ele>105.55</ele>
        <time>2017-06-03T11:30:51Z</time>
      </trkpt>
      <trkpt lat="42.37553" lon="8.572">
        <ele>108.04</ele>
        <time>2017-06-03T11:31:04Z</time>
      </trkpt>
      <trkpt lat="42.3758" lon="8.57201">
        <ele>111.27</ele>
        <time>2017-06-03T11:31:18Z</time>
      </trkpt>
      <trkpt lat="42.3761" lon="8.57206">
        <ele>114.07</ele>
        <time>2017-06-03T11:31:33Z</time>
      </trkpt>
      <trkpt lat="42.37637" lon="8.5721">
        <ele>116.66</ele>
        <time>2017-06-03T11:31:46Z</time>
      </trkpt>
      <trkpt lat="42.37666" lon="8.57214">
        <ele>119.49</ele>
        <time>2017-06-03T11:32:01Z</time>
      </trkpt>
      <trkpt lat="42.37694" lon="8.5722">
        <ele>122.35</ele>
        <time>2017-06-03T11:32:15Z</time>
      </trkpt>
      <trkpt lat="42.37718" lon="8.57223">
        <ele>124.11</ele>
        <time>2017-06-03T11:32:29Z</time>
      </trkpt>
      <trkpt lat="42.37751" lon="8.57222">
        <ele>126.84</ele>
        <time>2017-06-03T11:32:46Z</time>
      </trkpt>
      <trkpt lat="42.37781" lon="8.57225">
        <ele>129.35</ele>
        <time>2017-06-03T11:33:01Z</time>
      </trkpt>
      <trkpt lat="42.37813" lon="8.57229">
        <ele>131.48</ele>
        <time>2017-06-03T11:33:16Z</time>
      </trkpt>
      <trkpt lat="42.37847" lon="8.57237">
        <ele>133.66</ele>
        <time>2017-06-03T11:33:33Z</time>
      </trkpt>
      <trkpt lat="42.37876" lon="8.57243">
        <ele>135.78</ele>
        <time>2017-06-03T11:33:48Z</time>
      </trkpt>
      <trkpt lat="42.37909" lon="8.57246">
        <ele>137.98</ele>
        <time>2017-06-03T11:34:04Z</time>
      </trkpt>
      <trkpt lat="42.37945" lon="8.57245">
        <ele>140.15</ele>
        <time>2017-06-03T11:34:21Z</time>
      </trkpt>
      <trkpt lat="42.37971" lon="8.57245">
        <ele>141.05</ele>
        <time>2017-06-03T11:34:35Z</time>
      </trkpt>
      <trkpt lat="42.38005" lon="8.57252">
        <ele>142.5</ele>
        <time>2017-06-03T11:34:52Z</time>
      </trkpt>
      <trkpt lat="42.38039" lon="8.57267">
        <ele>144.71</ele>
        <time>2017-06-03T11:35:09Z</time>
      </trkpt>
      <trkpt lat="42.38072" lon="8.57278">
        <ele>145.98</ele>
        <time>2017-06-03T11:35:25Z</time>
      </trkpt>
      <trkpt lat="42.38094" lon="8.57283">
        <ele>147.15</ele>
        <time>2017-06-03T11:35:38Z</time>
      </trkpt>
      <trkpt lat="42.3813" lon="8.57291">
        <ele>148.38</ele>
        <time>2017-06-03T11:35:57Z</time>
      </trkpt>
      <trkpt lat="42.38157" lon="8.57308">
        <ele>149.56</ele>
        <time>2017-06-03T11:36:13Z</time>
      </trkpt>
      <trkpt lat="42.38175" lon="8.5733">
        <ele>150.79</ele>
        <time>2017-06-03T11:36:25Z</time>
      </trkpt>
      <trkpt lat="42.38181" lon="8.57345">
        <ele>151.01</ele>
        <time>2017-06-03T11:36:32Z</time>
      </trkpt>
      <trkpt lat="42.38201" lon="8.57381">
        <ele>152.33</ele>
        <time>2017-06-03T11:36:49Z</time>
      </trkpt>
      <trkpt lat="42.3822" lon="8.57408">
        <ele>152.65</ele>
        <time>2017-06-03T11:37:03Z</time>
      </trkpt>
      <trkpt lat="42.3824" lon="8.57438">
        <ele>153.6</ele>
        <time>2017-06-03T11:37:16Z</time>
      </trkpt>
      <trkpt lat="42.38265" lon="8.57474">
        <ele>154.13</ele>
        <time>2017-06-03T11:37:33Z</time>
      </trkpt>
      <trkpt lat="42.38283" lon="8.57502">
        <ele>154.47</ele>
        <time>2017-06-03T11:37:45Z</time>
      </trkpt>
      <trkpt lat="42.38305" lon="8.57532">
        <ele>154.27</ele>
        <time>2017-06-03T11:37:59Z</time>
      </trkpt>
      <trkpt lat="42.38331" lon="8.57559">
        <ele>154.69</ele>
        <time>2017-06-03T11:38:13Z</time>
      </trkpt>
      <trkpt lat="42.38352" lon="8.57577">
        <ele>154.85</ele>
        <time>2017-06-03T11:38:26Z</time>
      </trkpt>
      <trkpt lat="42.38369" lon="8.57596">
        <ele>154.26</ele>
        <time>2017-06-03T11:38:38Z</time>
      </trkpt>
      <trkpt lat="42.3837" lon="8.57597">
        <ele>154.19</ele>
        <time>2017-06-03T11:38:39Z</time>
      </trkpt>
      <trkpt lat="42.38374" lon="8.57604">
        <ele>154.28</ele>
        <time>2017-06-03T11:38:44Z</time>
      </trkpt>
      <trkpt lat="42.38394" lon="8.57628">
        <ele>153.9</ele>
        <time>2017-06-03T11:38:59Z</time>
      </trkpt>
      <trkpt lat="42.38418" lon="8.57656">
        <ele>153.14</ele>
        <time>2017-06-03T11:39:12Z</time>
      </trkpt>
      <trkpt lat="42.38435" lon="8.57681">
        <ele>153.26</ele>
        <time>2017-06-03T11:39:25Z</time>
      </trkpt>
      <trkpt lat="42.38456" lon="8.57706">
        <ele>152.43</ele>
        <time>2017-06-03T11:39:39Z</time>
      </trkpt>
      <trkpt lat="42.38485" lon="8.57743">
        <ele>151.99</ele>
        <time>2017-06-03T11:39:56Z</time>
      </trkpt>
      <trkpt lat="42.38511" lon="8.57778">
        <ele>151.42</ele>
        <time>2017-06-03T11:40:11Z</time>
      </trkpt>
      <trkpt lat="42.38532" lon="8.57803">
        <ele>150.97</ele>
        <time>2017-06-03T11:40:24Z</time>
      </trkpt>
      <trkpt lat="42.3856" lon="8.57826">
        <ele>151.04</ele>
        <time>2017-06-03T11:40:39Z</time>
      </trkpt>
      <trkpt lat="42.38584" lon="8.57856">
        <ele>150.5</ele>
        <time>2017-06-03T11:40:55Z</time>
      </trkpt>
      <trkpt lat="42.38608" lon="8.57886">
        <ele>150.28</ele>
        <time>2017-06-03T11:41:10Z</time>
      </trkpt>
      <trkpt lat="42.38631" lon="8.57912">
        <ele>150</ele>
        <time>2017-06-03T11:41:24Z</time>
      </trkpt>
      <trkpt lat="42.38656" lon="8.57938">
        <ele>149.54</ele>
        <time>2017-06-03T11:41:39Z</time>
      </trkpt>
      <trkpt lat="42.38682" lon="8.5796">
        <ele>148.93</ele>
        <time>2017-06-03T11:41:55Z</time>
      </trkpt>
      <trkpt lat="42.38708" lon="8.57981">
        <ele>148.66</ele>
        <time>2017-06-03T11:42:11Z</time>
      </trkpt>
      <trkpt lat="42.38727" lon="8.57999">
        <ele>148.04</ele>
        <time>2017-06-03T11:42:25Z</time>
      </trkpt>
      <trkpt lat="42.38751" lon="8.58024">
        <ele>147.73</ele>
        <time>2017-06-03T11:42:40Z</time>
      </trkpt>
      <trkpt lat="42.38779" lon="8.58052">
        <ele>147.28</ele>
        <time>2017-06-03T11:42:56Z</time>
      </trkpt>
      <trkpt lat="42.38807" lon="8.58071">
        <ele>147.09</ele>
        <time>2017-06-03T11:43:11Z</time>
      </trkpt>
      <trkpt lat="42.38836" lon="8.5809">
        <ele>147.03</ele>
        <time>2017-06-03T11:43:27Z</time>
      </trkpt>
      <trkpt lat="42.38855" lon="8.5811">
        <ele>146.56</ele>
        <time>2017-06-03T11:43:40Z</time>
      </trkpt>
      <trkpt lat="42.38876" lon="8.5813">
        <ele>146.45</ele>
        <time>2017-06-03T11:43:54Z</time>
      </trkpt>
      <trkpt lat="42.38904" lon="8.58156">
        <ele>145.92</ele>
        <time>2017-06-03T11:44:10Z</time>
      </trkpt>
      <trkpt lat="42.38922" lon="8.58172">
        <ele>145.91</ele>
        <time>2017-06-03T11:44:22Z</time>
      </trkpt>
      <trkpt lat="42.38945" lon="8.58198">
        <ele>145.22</ele>
        <time>2017-06-03T11:44:38Z</time>
      </trkpt>
      <trkpt lat="42.38969" lon="8.58212">
        <ele>144.89</ele>
        <time>2017-06-03T11:44:52Z</time>
      </trkpt>
      <trkpt lat="42.38994" lon="8.58236">
        <ele>143.88</ele>
        <time>2017-06-03T11:45:09Z</time>
      </trkpt>
      <trkpt lat="42.39013" lon="8.58256">
        <ele>143.63</ele>
        <time>2017-06-03T11:45:24Z</time>
      </trkpt>
      <trkpt lat="42.39039" lon="8.58288">
        <ele>143.05</ele>
        <time>2017-06-03T11:45:41Z</time>
      </trkpt>
      <trkpt lat="42.39066" lon="8.58317">
        <ele>142.2</ele>
        <time>2017-06-03T11:45:57Z</time>
      </trkpt>
      <trkpt lat="42.39089" lon="8.58341">
        <ele>141.52</ele>
        <time>2017-06-03T11:46:11Z</time>
      </trkpt>
      <trkpt lat="42.39115" lon="8.58366">
        <ele>140.64</ele>
        <time>2017-06-03T11:46:26Z</time>
      </trkpt>
      <trkpt lat="42.39143" lon="8.58391">
        <ele>139.94</ele>
        <time>2017-06-03T11:46:41Z</time>
      </trkpt>
      <trkpt lat="42.39165" lon="8.58411">
        <ele>139.13</ele>
        <time>2017-06-03T11:46:54Z</time>
      </trkpt>
      <trkpt lat="42.39182" lon="8.58433">
        <ele>139.05</ele>
        <time>2017-06-03T11:47:07Z</time>
      </trkpt>
      <trkpt lat="42.39205" lon="8.58463">
        <ele>138.53</ele>
        <time>2017-06-03T11:47:22Z</time>
      </trkpt>
      <trkpt lat="42.39229" lon="8.58487">
        <ele>137.75</ele>
        <time>2017-06-03T11:47:36Z</time>
      </trkpt>
      <trkpt lat="42.39255" lon="8.5851">
        <ele>136.81</ele>
        <time>2017-06-03T11:47:51Z</time>
      </trkpt>
      <trkpt lat="42.39277" lon="8.58528">
        <ele>136.39</ele>
        <time>2017-06-03T11:48:03Z</time>
      </trkpt>
      <trkpt lat="42.39301" lon="8.58551">
        <ele>135.86</ele>
        <time>2017-06-03T11:48:18Z</time>
      </trkpt>
      <trkpt lat="42.39323" lon="8.58576">
        <ele>135.33</ele>
        <time>2017-06-03T11:48:32Z</time>
      </trkpt>
      <trkpt lat="42.39352" lon="8.58602">
        <ele>134.71</ele>
        <time>2017-06-03T11:48:48Z</time>
      </trkpt>
      <trkpt lat="42.3938" lon="8.58626">
        <ele>134.19</ele>
        <time>2017-06-03T11:49:03Z</time>
      </trkpt>
      <trkpt lat="42.39407" lon="8.58649">
        <ele>133.56</ele>
        <time>2017-06-03T11:49:18Z</time>
      </trkpt>
      <trkpt lat="42.3944" lon="8.58671">
        <ele>132.99</ele>
        <time>2017-06-03T11:49:36Z</time>
      </trkpt>
      <trkpt lat="42.39467" lon="8.58695">
        <ele>132.83</ele>
        <time>2017-06-03T11:49:51Z</time>
      </trkpt>
      <trkpt lat="42.39492" lon="8.58723">
        <ele>131.97</ele>
        <time>2017-06-03T11:50:06Z</time>
      </trkpt>
      <trkpt lat="42.39516" lon="8.58749">
        <ele>131.76</ele>
        <time>2017-06-03T11:50:22Z</time>
      </trkpt>
      <trkpt lat="42.39545" lon="8.58771">
        <ele>131.21</ele>
        <time>2017-06-03T11:50:38Z</time>
      </trkpt>
      <trkpt lat="42.39573" lon="8.58794">
        <ele>130.57</ele>
        <time>2017-06-03T11:50:53Z</time>
      </trkpt>
      <trkpt lat="42.39604" lon="8.58831">
        <ele>129.95</ele>
        <time>2017-06-03T11:51:12Z</time>
      </trkpt>
      <trkpt lat="42.39632" lon="8.58863">
        <ele>129.23</ele>
        <time>2017-06-03T11:51:29Z</time>
      </trkpt>
      <trkpt lat="42.39656" lon="8.58886">
        <ele>128.57</ele>
        <time>2017-06-03T11:51:44Z</time>
      </trkpt>
      <trkpt lat="42.3968" lon="8.58912">
        <ele>128.19</ele>
        <time>2017-06-03T11:51:59Z</time>
      </trkpt>
      <trkpt lat="42.39703" lon="8.58937">
        <ele>127.4</ele>
        <time>2017-06-03T11:52:13Z</time>
      </trkpt>
      <trkpt lat="42.39729" lon="8.58965">
        <ele>126.85</ele>
        <time>2017-06-03T11:52:29Z</time>
      </trkpt>
      <trkpt lat="42.3976" lon="8.58989">
        <ele>125.32</ele>
        <time>2017-06-03T11:52:45Z</time>
      </trkpt>
      <trkpt lat="42.39782" lon="8.5901">
        <ele>125.11</ele>
        <time>2017-06-03T11:53:01Z</time>
      </trkpt>
      <trkpt lat="42.39803" lon="8.59035">
        <ele>124.34</ele>
        <time>2017-06-03T11:53:15Z</time>
      </trkpt>
      <trkpt lat="42.39832" lon="8.59075">
        <ele>123.22</ele>
        <time>2017-06-03T11:53:34Z</time>
      </trkpt>
      <trkpt lat="42.39858" lon="8.59101">
        <ele>122.58</ele>
        <time>2017-06-03T11:53:49Z</time>
      </trkpt>
      <trkpt lat="42.39879" lon="8.5912">
        <ele>122.04</ele>
        <time>2017-06-03T11:54:01Z</time>
      </trkpt>
      <trkpt lat="42.39903" lon="8.59141">
        <ele>121.54</ele>
        <time>2017-06-03T11:54:14Z</time>
      </trkpt>
      <trkpt lat="42.39931" lon="8.59164">
        <ele>120.58</ele>
        <time>2017-06-03T11:54:31Z</time>
      </trkpt>
      <trkpt lat="42.39954" lon="8.59179">
        <ele>120.29</ele>
        <time>2017-06-03T11:54:44Z</time>
      </trkpt>
      <trkpt lat="42.39981" lon="8.59204">
        <ele>120.1</ele>
        <time>2017-06-03T11:55:00Z</time>
      </trkpt>
      <trkpt lat="42.39993" lon="8.59217">
        <ele>119.6</ele>
        <time>2017-06-03T11:55:08Z</time>
      </trkpt>
      <trkpt lat="42.40018" lon="8.59244">
        <ele>118.95</ele>
        <time>2017-06-03T11:55:24Z</time>
      </trkpt>
      <trkpt lat="42.40042" lon="8.59269">
        <ele>118.27</ele>
        <time>2017-06-03T11:55:38Z</time>
      </trkpt>
      <trkpt lat="42.40071" lon="8.59294">
        <ele>117.73</ele>
        <time>2017-06-03T11:55:54Z</time>
      </trkpt>
      <trkpt lat="42.40091" lon="8.59309">
        <ele>116.82</ele>
        <time>2017-06-03T11:56:07Z</time>
      </trkpt>
      <trkpt lat="42.40111" lon="8.59329">
        <ele>116.36</ele>
        <time>2017-06-03T11:56:20Z</time>
      </trkpt>
      <trkpt lat="42.40133" lon="8.59348">
        <ele>116.07</ele>
        <time>2017-06-03T11:56:33Z</time>
      </trkpt>
      <trkpt lat="42.40159" lon="8.59374">
        <ele>114.94</ele>
        <time>2017-06-03T11:56:48Z</time>
      </trkpt>
      <trkpt lat="42.40181" lon="8.59395">
        <ele>114.22</ele>
        <time>2017-06-03T11:57:01Z</time>
      </trkpt>
      <trkpt lat="42.402" lon="8.59416">
        <ele>113.65</ele>
        <time>2017-06-03T11:57:14Z</time>
      </trkpt>
      <trkpt lat="42.40221" lon="8.59442">
        <ele>113.11</ele>
        <time>2017-06-03T11:57:29Z</time>
      </trkpt>
      <trkpt lat="42.40243" lon="8.5946">
        <ele>112.12</ele>
        <time>2017-06-03T11:57:42Z</time>
      </trkpt>
      <trkpt lat="42.40247" lon="8.59463">
        <ele>111.94</ele>
        <time>2017-06-03T11:57:44Z</time>
      </trkpt>
      <trkpt lat="42.40272" lon="8.59485">
        <ele>111.22</ele>
        <time>2017-06-03T11:57:59Z</time>
      </trkpt>
      <trkpt lat="42.40296" lon="8.59512">
        <ele>110.05</ele>
        <time>2017-06-03T11:58:14Z</time>
      </trkpt>
      <trkpt lat="42.40317" lon="8.59534">
        <ele>109.33</ele>
        <time>2017-06-03T11:58:27Z</time>
      </trkpt>
      <trkpt lat="42.40338" lon="8.59555">
        <ele>108.76</ele>
        <time>2017-06-03T11:58:41Z</time>
      </trkpt>
      <trkpt lat="42.40362" lon="8.59582">
        <ele>108.18</ele>
        <time>2017-06-03T11:58:56Z</time>
      </trkpt>
      <trkpt lat="42.40383" lon="8.59605">
        <ele>107.64</ele>
        <time>2017-06-03T11:59:09Z</time>
      </trkpt>
      <trkpt lat="42.40407" lon="8.59633">
        <ele>106.67</ele>
        <time>2017-06-03T11:59:24Z</time>
      </trkpt>
      <trkpt lat="42.40428" lon="8.59654">
        <ele>106.05</ele>
        <time>2017-06-03T11:59:38Z</time>
      </trkpt>
      <trkpt lat="42.40448" lon="8.59674">
        <ele>105.69</ele>
        <time>2017-06-03T11:59:52Z</time>
      </trkpt>
      <trkpt lat="42.40466" lon="8.59693">
        <ele>105.4</ele>
        <time>2017-06-03T12:00:04Z</time>
      </trkpt>
      <trkpt lat="42.40486" lon="8.5971">
        <ele>104.93</ele>
        <time>2017-06-03T12:00:16Z</time>
      </trkpt>
      <trkpt lat="42.40505" lon="8.59732">
        <ele>104.02</ele>
        <time>2017-06-03T12:00:29Z</time>
      </trkpt>
      <trkpt lat="42.40527" lon="8.59751">
        <ele>103.44</ele>
        <time>2017-06-03T12:00:42Z</time>
      </trkpt>
      <trkpt lat="42.40551" lon="8.59772">
        <ele>102.7</ele>
        <time>2017-06-03T12:00:56Z</time>
      </trkpt>
      <trkpt lat="42.40577" lon="8.59793">
        <ele>101.62</ele>
        <time>2017-06-03T12:01:11Z</time>
      </trkpt>
      <trkpt lat="42.4059" lon="8.59807">
        <ele>100.72</ele>
        <time>2017-06-03T12:01:19Z</time>
      </trkpt>
      <trkpt lat="42.40604" lon="8.59819">
        <ele>100.39</ele>
        <time>2017-06-03T12:01:27Z</time>
      </trkpt>
      <trkpt lat="42.4061" lon="8.59825">
        <ele>100.2</ele>
        <time>2017-06-03T12:01:31Z</time>
      </trkpt>
      <trkpt lat="42.40631" lon="8.59846">
        <ele>99.02</ele>
        <time>2017-06-03T12:01:45Z</time>
      </trkpt>
      <trkpt lat="42.40652" lon="8.59866">
        <ele>98.35</ele>
        <time>2017-06-03T12:01:58Z</time>
      </trkpt>
      <trkpt lat="42.40679" lon="8.59883">
        <ele>97.6</ele>
        <time>2017-06-03T12:02:12Z</time>
      </trkpt>
      <trkpt lat="42.40701" lon="8.59905">
        <ele>97.19</ele>
        <time>2017-06-03T12:02:26Z</time>
      </trkpt>
      <trkpt lat="42.40723" lon="8.59928">
        <ele>96.51</ele>
        <time>2017-06-03T12:02:40Z</time>
      </trkpt>
      <trkpt lat="42.40745" lon="8.59952">
        <ele>95.64</ele>
        <time>2017-06-03T12:02:54Z</time>
      </trkpt>
      <trkpt lat="42.40767" lon="8.59973">
        <ele>94.33</ele>
        <time>2017-06-03T12:03:09Z</time>
      </trkpt>
      <trkpt lat="42.40788" lon="8.59994">
        <ele>94.32</ele>
        <time>2017-06-03T12:03:23Z</time>
      </trkpt>
      <trkpt lat="42.40809" lon="8.6002">
        <ele>93.6</ele>
        <time>2017-06-03T12:03:37Z</time>
      </trkpt>
      <trkpt lat="42.40832" lon="8.60042">
        <ele>92.85</ele>
        <time>2017-06-03T12:03:53Z</time>
      </trkpt>
      <trkpt lat="42.40856" lon="8.60058">
        <ele>92.46</ele>
        <time>2017-06-03T12:04:07Z</time>
      </trkpt>
      <trkpt lat="42.40881" lon="8.60072">
        <ele>91.64</ele>
        <time>2017-06-03T12:04:23Z</time>
      </trkpt>
      <trkpt lat="42.40903" lon="8.60086">
        <ele>90.85</ele>
        <time>2017-06-03T12:04:37Z</time>
      </trkpt>
      <trkpt lat="42.40927" lon="8.60108">
        <ele>90.08</ele>
        <time>2017-06-03T12:04:51Z</time>
      </trkpt>
      <trkpt lat="42.40955" lon="8.60136">
        <ele>89.26</ele>
        <time>2017-06-03T12:05:08Z</time>
      </trkpt>
      <trkpt lat="42.40978" lon="8.60155">
        <ele>88.52</ele>
        <time>2017-06-03T12:05:21Z</time>
      </trkpt>
      <trkpt lat="42.41004" lon="8.60176">
        <ele>87.84</ele>
        <time>2017-06-03T12:05:35Z</time>
      </trkpt>
      <trkpt lat="42.41033" lon="8.60197">
        <ele>86.85</ele>
        <time>2017-06-03T12:05:50Z</time>
      </trkpt>
      <trkpt lat="42.41055" lon="8.60215">
        <ele>86.18</ele>
        <time>2017-06-03T12:06:01Z</time>
      </trkpt>
      <trkpt lat="42.41081" lon="8.60233">
        <ele>85.55</ele>
        <time>2017-06-03T12:06:15Z</time>
      </trkpt>
      <trkpt lat="42.41103" lon="8.6025">
        <ele>85</ele>
        <time>2017-06-03T12:06:29Z</time>
      </trkpt>
      <trkpt lat="42.41126" lon="8.60267">
        <ele>84.39</ele>
        <time>2017-06-03T12:06:42Z</time>
      </trkpt>
      <trkpt lat="42.41159" lon="8.60294">
        <ele>83.46</ele>
        <time>2017-06-03T12:07:00Z</time>
      </trkpt>
      <trkpt lat="42.41187" lon="8.60318">
        <ele>82.62</ele>
        <time>2017-06-03T12:07:15Z</time>
      </trkpt>
      <trkpt lat="42.41217" lon="8.60344">
        <ele>82.1</ele>
        <time>2017-06-03T12:07:32Z</time>
      </trkpt>
      <trkpt lat="42.41245" lon="8.60362">
        <ele>81.03</ele>
        <time>2017-06-03T12:07:46Z</time>
      </trkpt>
      <trkpt lat="42.41272" lon="8.60384">
        <ele>80.55</ele>
        <time>2017-06-03T12:08:00Z</time>
      </trkpt>
      <trkpt lat="42.413" lon="8.60401">
        <ele>79.88</ele>
        <time>2017-06-03T12:08:15Z</time>
      </trkpt>
      <trkpt lat="42.41331" lon="8.60416">
        <ele>79.24</ele>
        <time>2017-06-03T12:08:30Z</time>
      </trkpt>
      <trkpt lat="42.41359" lon="8.60427">
        <ele>78.96</ele>
        <time>2017-06-03T12:08:44Z</time>
      </trkpt>
      <trkpt lat="42.41389" lon="8.60439">
        <ele>78.6</ele>
        <time>2017-06-03T12:08:59Z</time>
      </trkpt>
      <trkpt lat="42.41413" lon="8.6045">
        <ele>77.9</ele>
        <time>2017-06-03T12:09:11Z</time>
      </trkpt>
      <trkpt lat="42.41444" lon="8.60464">
        <ele>77.48</ele>
        <time>2017-06-03T12:09:27Z</time>
      </trkpt>
      <trkpt lat="42.41473" lon="8.60475">
        <ele>77.02</ele>
        <time>2017-06-03T12:09:42Z</time>
      </trkpt>
      <trkpt lat="42.41496" lon="8.60485">
        <ele>76.39</ele>
        <time>2017-06-03T12:09:55Z</time>
      </trkpt>
      <trkpt lat="42.4152" lon="8.60496">
        <ele>76.17</ele>
        <time>2017-06-03T12:10:09Z</time>
      </trkpt>
      <trkpt lat="42.4155" lon="8.6051">
        <ele>76.2</ele>
        <time>2017-06-03T12:10:24Z</time>
      </trkpt>
      <trkpt lat="42.41574" lon="8.60525">
        <ele>75.55</ele>
        <time>2017-06-03T12:10:37Z</time>
      </trkpt>
      <trkpt lat="42.41597" lon="8.6054">
        <ele>74.83</ele>
        <time>2017-06-03T12:10:50Z</time>
      </trkpt>
      <trkpt lat="42.41621" lon="8.60554">
        <ele>74.24</ele>
        <time>2017-06-03T12:11:03Z</time>
      </trkpt>
      <trkpt lat="42.41643" lon="8.60564">
        <ele>73.61</ele>
        <time>2017-06-03T12:11:17Z</time>
      </trkpt>
      <trkpt lat="42.41649" lon="8.60569">
        <ele>73.41</ele>
        <time>2017-06-03T12:11:22Z</time>
      </trkpt>
      <trkpt lat="42.41661" lon="8.60595">
        <ele>73.08</ele>
        <time>2017-06-03T12:11:34Z</time>
      </trkpt>
      <trkpt lat="42.41676" lon="8.60635">
        <ele>71.83</ele>
        <time>2017-06-03T12:11:50Z</time>
      </trkpt>
      <trkpt lat="42.41677" lon="8.60638">
        <ele>71.72</ele>
        <time>2017-06-03T12:11:51Z</time>
      </trkpt>
      <trkpt lat="42.41687" lon="8.60665">
        <ele>71.2</ele>
        <time>2017-06-03T12:12:02Z</time>
      </trkpt>
      <trkpt lat="42.41694" lon="8.60677">
        <ele>70.56</ele>
        <time>2017-06-03T12:12:07Z</time>
      </trkpt>
      <trkpt lat="42.41701" lon="8.60695">
        <ele>69.83</ele>
        <time>2017-06-03T12:12:13Z</time>
      </trkpt>
      <trkpt lat="42.41714" lon="8.60727">
        <ele>68.94</ele>
        <time>2017-06-03T12:12:25Z</time>
      </trkpt>
      <trkpt lat="42.41724" lon="8.60758">
        <ele>67.72</ele>
        <time>2017-06-03T12:12:37Z</time>
      </trkpt>
      <trkpt lat="42.41732" lon="8.60787">
        <ele>66.81</ele>
        <time>2017-06-03T12:12:48Z</time>
      </trkpt>
      <trkpt lat="42.41738" lon="8.60809">
        <ele>65.73</ele>
        <time>2017-06-03T12:12:57Z</time>
      </trkpt>
      <trkpt lat="42.41741" lon="8.60823">
        <ele>65.29</ele>
        <time>2017-06-03T12:13:03Z</time>
      </trkpt>
      <trkpt lat="42.41744" lon="8.60833">
        <ele>64.96</ele>
        <time>2017-06-03T12:13:07Z</time>
      </trkpt>
      <trkpt lat="42.41746" lon="8.60842">
        <ele>64.29</ele>
        <time>2017-06-03T12:13:11Z</time>
      </trkpt>
      <trkpt lat="42.41745" lon="8.60859">
        <ele>63.33</ele>
        <time>2017-06-03T12:13:19Z</time>
      </trkpt>
      <trkpt lat="42.41747" lon="8.60868">
        <ele>62.87</ele>
        <time>2017-06-03T12:13:24Z</time>
      </trkpt>
      <trkpt lat="42.41748" lon="8.60878">
        <ele>59.62</ele>
        <time>2017-06-03T12:13:33Z</time>
      </trkpt>
      <trkpt lat="42.41745" lon="8.60885">
        <ele>57.42</ele>
        <time>2017-06-03T12:13:37Z</time>
      </trkpt>
      <trkpt lat="42.4175" lon="8.60885">
        <ele>57.99</ele>
        <time>2017-06-03T12:13:54Z</time>
      </trkpt>
      <trkpt lat="42.41751" lon="8.60883">
        <ele>54.77</ele>
        <time>2017-06-03T12:14:09Z</time>
      </trkpt>
      <trkpt lat="42.41748" lon="8.6089">
        <ele>51.61</ele>
        <time>2017-06-03T12:14:32Z</time>
      </trkpt>
      <trkpt lat="42.41747" lon="8.60891">
        <ele>49.09</ele>
        <time>2017-06-03T12:14:38Z</time>
      </trkpt>
      <trkpt lat="42.41742" lon="8.60895">
        <ele>45.92</ele>
        <time>2017-06-03T12:15:01Z</time>
      </trkpt>
      <trkpt lat="42.41743" lon="8.60896">
        <ele>42.88</ele>
        <time>2017-06-03T12:15:07Z</time>
      </trkpt>
      <trkpt lat="42.41745" lon="8.60895">
        <ele>42.01</ele>
        <time>2017-06-03T12:15:25Z</time>
      </trkpt>
      <trkpt lat="42.41745" lon="8.60897">
        <ele>38.74</ele>
        <time>2017-06-03T12:15:34Z</time>
      </trkpt>
      <trkpt lat="42.41743" lon="8.60901">
        <ele>35.72</ele>
        <time>2017-06-03T12:15:59Z</time>
      </trkpt>
      <trkpt lat="42.41739" lon="8.60904">
        <ele>32.61</ele>
        <time>2017-06-03T12:16:20Z</time>
      </trkpt>
      <trkpt lat="42.4174" lon="8.60904">
        <ele>28.7</ele>
        <time>2017-06-03T12:16:28Z</time>
      </trkpt>
      <trkpt lat="42.41739" lon="8.60904">
        <ele>27.03</ele>
        <time>2017-06-03T12:16:31Z</time>
      </trkpt>
      <trkpt lat="42.41739" lon="8.60906">
        <ele>23.14</ele>
        <time>2017-06-03T12:16:45Z</time>
      </trkpt>
      <trkpt lat="42.41735" lon="8.60912">
        <ele>20.09</ele>
        <time>2017-06-03T12:17:07Z</time>
      </trkpt>
      <trkpt lat="42.41734" lon="8.60912">
        <ele>16.44</ele>
        <time>2017-06-03T12:17:09Z</time>
      </trkpt>
      <trkpt lat="42.41734" lon="8.60912">
        <ele>13.12</ele>
        <time>2017-06-03T12:17:12Z</time>
      </trkpt>
      <trkpt lat="42.41735" lon="8.60914">
        <ele>13.99</ele>
        <time>2017-06-03T12:17:33Z</time>
      </trkpt>
      <trkpt lat="42.4173" lon="8.60918">
        <ele>10.68</ele>
        <time>2017-06-03T12:17:41Z</time>
      </trkpt>
      <trkpt lat="42.4173" lon="8.60919">
        <ele>9.22</ele>
        <time>2017-06-03T12:17:44Z</time>
      </trkpt>
      <trkpt lat="42.41729" lon="8.60923">
        <ele>8.14</ele>
        <time>2017-06-03T12:18:03Z</time>
      </trkpt>
      <trkpt lat="42.41732" lon="8.60927">
        <ele>7.36</ele>
        <time>2017-06-03T12:18:08Z</time>
      </trkpt>
      <trkpt lat="42.41731" lon="8.60939">
        <ele>5.89</ele>
        <time>2017-06-03T12:18:20Z</time>
      </trkpt>
      <trkpt lat="42.41735" lon="8.60947">
        <ele>4.85</ele>
        <time>2017-06-03T12:18:26Z</time>
      </trkpt>
      <trkpt lat="42.41736" lon="8.6095">
        <ele>4.39</ele>
        <time>2017-06-03T12:18:28Z</time>
      </trkpt>
      <trkpt lat="42.41745" lon="8.60961">
        <ele>3.13</ele>
        <time>2017-06-03T12:18:36Z</time>
      </trkpt>
      <trkpt lat="42.4175" lon="8.60971">
        <ele>2.77</ele>
        <time>2017-06-03T12:18:42Z</time>
      </trkpt>
      <trkpt lat="42.41759" lon="8.60983">
        <ele>1.38</ele>
        <time>2017-06-03T12:18:51Z</time>
      </trkpt>
      <trkpt lat="42.41767" lon="8.60995">
        <ele>0.24</ele>
        <time>2017-06-03T12:18:59Z</time>
      </trkpt>
      <trkpt lat="42.41774" lon="8.61009">
        <ele>0.08</ele>
        <time>2017-06-03T12:19:07Z</time>
      </trkpt>
      <trkpt lat="42.41787" lon="8.61036">
        <ele>-0.98</ele>
        <time>2017-06-03T12:19:21Z</time>
      </trkpt>
      <trkpt lat="42.41799" lon="8.61066">
        <ele>-1.73</ele>
        <time>2017-06-03T12:19:34Z</time>
      </trkpt>
      <trkpt lat="42.41809" lon="8.61108">
        <ele>-2.96</ele>
        <time>2017-06-03T12:19:51Z</time>
      </trkpt>
      <trkpt lat="42.41816" lon="8.61127">
        <ele>-3.41</ele>
        <time>2017-06-03T12:20:02Z</time>
      </trkpt>
      <trkpt lat="42.41817" lon="8.61136">
        <ele>-3.77</ele>
        <time>2017-06-03T12:20:08Z</time>
      </trkpt>
      <trkpt lat="42.41819" lon="8.61143">
        <ele>-3.76</ele>
        <time>2017-06-03T12:20:12Z</time>
      </trkpt>
      <trkpt lat="42.41823" lon="8.61156">
        <ele>-4.23</ele>
        <time>2017-06-03T12:20:19Z</time>
      </trkpt>
      <trkpt lat="42.41824" lon="8.61159">
        <ele>-4.38</ele>
        <time>2017-06-03T12:20:21Z</time>
      </trkpt>
      <trkpt lat="42.41828" lon="8.61177">
        <ele>-4.96</ele>
        <time>2017-06-03T12:20:29Z</time>
      </trkpt>
      <trkpt lat="42.41836" lon="8.61194">
        <ele>-5.37</ele>
        <time>2017-06-03T12:20:37Z</time>
      </trkpt>
      <trkpt lat="42.41839" lon="8.61204">
        <ele>-5.43</ele>
        <time>2017-06-03T12:20:42Z</time>
      </trkpt>
      <trkpt lat="42.41843" lon="8.61215">
        <ele>-5.94</ele>
        <time>2017-06-03T12:20:48Z</time>
      </trkpt>
      <trkpt lat="42.41845" lon="8.61224">
        <ele>-6.11</ele>
        <time>2017-06-03T12:20:52Z</time>
      </trkpt>
      <trkpt lat="42.41858" lon="8.61248">
        <ele>-6.8</ele>
        <time>2017-06-03T12:21:06Z</time>
      </trkpt>
      <trkpt lat="42.4186" lon="8.61258">
        <ele>-6.69</ele>
        <time>2017-06-03T12:21:11Z</time>
      </trkpt>
      <trkpt lat="42.41864" lon="8.6127">
        <ele>-7.36</ele>
        <time>2017-06-03T12:21:17Z</time>
      </trkpt>
      <trkpt lat="42.41871" lon="8.61295">
        <ele>-8.22</ele>
        <time>2017-06-03T12:21:30Z</time>
      </trkpt>
      <trkpt lat="42.41874" lon="8.61301">
        <ele>-8.04</ele>
        <time>2017-06-03T12:21:33Z</time>
      </trkpt>
      <trkpt lat="42.41876" lon="8.61307">
        <ele>-7.82</ele>
        <time>2017-06-03T12:21:36Z</time>
      </trkpt>
      <trkpt lat="42.41879" lon="8.61321">
        <ele>-7.85</ele>
        <time>2017-06-03T12:21:42Z</time>
      </trkpt>
      <trkpt lat="42.41888" lon="8.61345">
        <ele>-8.42</ele>
        <time>2017-06-03T12:21:52Z</time>
      </trkpt>
      <trkpt lat="42.41901" lon="8.61383">
        <ele>-8.82</ele>
        <time>2017-06-03T12:22:08Z</time>
      </trkpt>
      <trkpt lat="42.41912" lon="8.61407">
        <ele>-9.35</ele>
        <time>2017-06-03T12:22:18Z</time>
      </trkpt>
      <trkpt lat="42.41921" lon="8.61438">
        <ele>-9.75</ele>
        <time>2017-06-03T12:22:31Z</time>
      </trkpt>
      <trkpt lat="42.41931" lon="8.6147">
        <ele>-9.35</ele>
        <time>2017-06-03T12:22:44Z</time>
      </trkpt>
      <trkpt lat="42.41945" lon="8.61503">
        <ele>-8.99</ele>
        <time>2017-06-03T12:22:57Z</time>
      </trkpt>
      <trkpt lat="42.4195" lon="8.61528">
        <ele>-9.24</ele>
        <time>2017-06-03T12:23:09Z</time>
      </trkpt>
      <trkpt lat="42.41952" lon="8.61539">
        <ele>-8.96</ele>
        <time>2017-06-03T12:23:15Z</time>
      </trkpt>
      <trkpt lat="42.41954" lon="8.61546">
        <ele>-8.91</ele>
        <time>2017-06-03T12:23:18Z</time>
      </trkpt>
      <trkpt lat="42.41958" lon="8.61562">
        <ele>-8.93</ele>
        <time>2017-06-03T12:23:25Z</time>
      </trkpt>
      <trkpt lat="42.41962" lon="8.61574">
        <ele>-8.94</ele>
        <time>2017-06-03T12:23:30Z</time>
      </trkpt>
      <trkpt lat="42.41965" lon="8.61597">
        <ele>-9.46</ele>
        <time>2017-06-03T12:23:38Z</time>
      </trkpt>
      <trkpt lat="42.41976" lon="8.61627">
        <ele>-9.26</ele>
        <time>2017-06-03T12:23:50Z</time>
      </trkpt>
      <trkpt lat="42.41988" lon="8.61654">
        <ele>-8.95</ele>
        <time>2017-06-03T12:24:01Z</time>
      </trkpt>
      <trkpt lat="42.41999" lon="8.61684">
        <ele>-9.16</ele>
        <time>2017-06-03T12:24:13Z</time>
      </trkpt>
      <trkpt lat="42.4201" lon="8.61713">
        <ele>-8.72</ele>
        <time>2017-06-03T12:24:25Z</time>
      </trkpt>
      <trkpt lat="42.42021" lon="8.61746">
        <ele>-8.6</ele>
        <time>2017-06-03T12:24:38Z</time>
      </trkpt>
      <trkpt lat="42.42031" lon="8.61785">
        <ele>-8.51</ele>
        <time>2017-06-03T12:24:53Z</time>
      </trkpt>
      <trkpt lat="42.42032" lon="8.61787">
        <ele>-8.52</ele>
        <time>2017-06-03T12:24:54Z</time>
      </trkpt>
      <trkpt lat="42.42039" lon="8.61799">
        <ele>-8.39</ele>
        <time>2017-06-03T12:24:59Z</time>
      </trkpt>
      <trkpt lat="42.42046" lon="8.61826">
        <ele>-8.42</ele>
        <time>2017-06-03T12:25:10Z</time>
      </trkpt>
      <trkpt lat="42.42048" lon="8.61836">
        <ele>-8.39</ele>
        <time>2017-06-03T12:25:15Z</time>
      </trkpt>
      <trkpt lat="42.42058" lon="8.61876">
        <ele>-8.4</ele>
        <time>2017-06-03T12:25:30Z</time>
      </trkpt>
      <trkpt lat="42.42068" lon="8.61905">
        <ele>-8.27</ele>
        <time>2017-06-03T12:25:41Z</time>
      </trkpt>
      <trkpt lat="42.4207" lon="8.61915">
        <ele>-8.15</ele>
        <time>2017-06-03T12:25:45Z</time>
      </trkpt>
      <trkpt lat="42.42073" lon="8.61924">
        <ele>-8.04</ele>
        <time>2017-06-03T12:25:49Z</time>
      </trkpt>
      <trkpt lat="42.42074" lon="8.61932">
        <ele>-8.02</ele>
        <time>2017-06-03T12:25:52Z</time>
      </trkpt>
      <trkpt lat="42.42083" lon="8.61959">
        <ele>-8.2</ele>
        <time>2017-06-03T12:26:03Z</time>
      </trkpt>
      <trkpt lat="42.42086" lon="8.61974">
        <ele>-8.21</ele>
        <time>2017-06-03T12:26:08Z</time>
      </trkpt>
      <trkpt lat="42.42101" lon="8.62006">
        <ele>-7.88</ele>
        <time>2017-06-03T12:26:23Z</time>
      </trkpt>
      <trkpt lat="42.42102" lon="8.62009">
        <ele>-7.84</ele>
        <time>2017-06-03T12:26:24Z</time>
      </trkpt>
      <trkpt lat="42.42119" lon="8.62041">
        <ele>-7.79</ele>
        <time>2017-06-03T12:26:37Z</time>
      </trkpt>
      <trkpt lat="42.42139" lon="8.62072">
        <ele>-7.38</ele>
        <time>2017-06-03T12:26:49Z</time>
      </trkpt>
      <trkpt lat="42.42154" lon="8.62106">
        <ele>-7.06</ele>
        <time>2017-06-03T12:27:02Z</time>
      </trkpt>
      <trkpt lat="42.42173" lon="8.62139">
        <ele>-6.56</ele>
        <time>2017-06-03T12:27:15Z</time>
      </trkpt>
      <trkpt lat="42.42176" lon="8.6215">
        <ele>-6.47</ele>
        <time>2017-06-03T12:27:19Z</time>
      </trkpt>
      <trkpt lat="42.42179" lon="8.62162">
        <ele>-6.25</ele>
        <time>2017-06-03T12:27:23Z</time>
      </trkpt>
      <trkpt lat="42.42192" lon="8.62196">
        <ele>-5.93</ele>
        <time>2017-06-03T12:27:37Z</time>
      </trkpt>
      <trkpt lat="42.42196" lon="8.62213">
        <ele>-5.93</ele>
        <time>2017-06-03T12:27:44Z</time>
      </trkpt>
      <trkpt lat="42.422" lon="8.62222">
        <ele>-5.86</ele>
        <time>2017-06-03T12:27:49Z</time>
      </trkpt>
      <trkpt lat="42.42213" lon="8.62245">
        <ele>-5.96</ele>
        <time>2017-06-03T12:28:01Z</time>
      </trkpt>
      <trkpt lat="42.42214" lon="8.62246">
        <ele>-5.96</ele>
        <time>2017-06-03T12:28:02Z</time>
      </trkpt>
      <trkpt lat="42.42218" lon="8.62255">
        <ele>-5.98</ele>
        <time>2017-06-03T12:28:07Z</time>
      </trkpt>
      <trkpt lat="42.42223" lon="8.62268">
        <ele>-6.1</ele>
        <time>2017-06-03T12:28:14Z</time>
      </trkpt>
      <trkpt lat="42.42223" lon="8.62286">
        <ele>-5.94</ele>
        <time>2017-06-03T12:28:21Z</time>
      </trkpt>
      <trkpt lat="42.42217" lon="8.6232">
        <ele>-6.61</ele>
        <time>2017-06-03T12:28:34Z</time>
      </trkpt>
      <trkpt lat="42.42212" lon="8.62346">
        <ele>-7.43</ele>
        <time>2017-06-03T12:28:44Z</time>
      </trkpt>
      <trkpt lat="42.42209" lon="8.62362">
        <ele>-7.85</ele>
        <time>2017-06-03T12:28:49Z</time>
      </trkpt>
      <trkpt lat="42.42196" lon="8.62391">
        <ele>-9.75</ele>
        <time>2017-06-03T12:29:04Z</time>
      </trkpt>
      <trkpt lat="42.42184" lon="8.62415">
        <ele>-11.66</ele>
        <time>2017-06-03T12:29:20Z</time>
      </trkpt>
      <trkpt lat="42.42184" lon="8.62418">
        <ele>-12.21</ele>
        <time>2017-06-03T12:29:23Z</time>
      </trkpt>
      <trkpt lat="42.42183" lon="8.62426">
        <ele>-12.75</ele>
        <time>2017-06-03T12:29:28Z</time>
      </trkpt>
      <trkpt lat="42.42186" lon="8.62458">
        <ele>-14.52</ele>
        <time>2017-06-03T12:29:42Z</time>
      </trkpt>
      <trkpt lat="42.42186" lon="8.625">
        <ele>-16.25</ele>
        <time>2017-06-03T12:29:57Z</time>
      </trkpt>
      <trkpt lat="42.4218" lon="8.62539">
        <ele>-17.57</ele>
        <time>2017-06-03T12:30:11Z</time>
      </trkpt>
      <trkpt lat="42.42175" lon="8.62577">
        <ele>-18.79</ele>
        <time>2017-06-03T12:30:24Z</time>
      </trkpt>
      <trkpt lat="42.42166" lon="8.6262">
        <ele>-20.27</ele>
        <time>2017-06-03T12:30:39Z</time>
      </trkpt>
      <trkpt lat="42.42155" lon="8.62663">
        <ele>-21.87</ele>
        <time>2017-06-03T12:30:54Z</time>
      </trkpt>
      <trkpt lat="42.42143" lon="8.62707">
        <ele>-23.54</ele>
        <time>2017-06-03T12:31:10Z</time>
      </trkpt>
      <trkpt lat="42.42134" lon="8.62735">
        <ele>-24.9</ele>
        <time>2017-06-03T12:31:21Z</time>
      </trkpt>
      <trkpt lat="42.42126" lon="8.62769">
        <ele>-26.33</ele>
        <time>2017-06-03T12:31:33Z</time>
      </trkpt>
      <trkpt lat="42.42119" lon="8.62808">
        <ele>-28.36</ele>
        <time>2017-06-03T12:31:49Z</time>
      </trkpt>
      <trkpt lat="42.4211" lon="8.62855">
        <ele>-30.29</ele>
        <time>2017-06-03T12:32:06Z</time>
      </trkpt>
      <trkpt lat="42.42102" lon="8.62893">
        <ele>-31.75</ele>
        <time>2017-06-03T12:32:19Z</time>
      </trkpt>
      <trkpt lat="42.42099" lon="8.62931">
        <ele>-33.12</ele>
        <time>2017-06-03T12:32:32Z</time>
      </trkpt>
      <trkpt lat="42.42093" lon="8.62969">
        <ele>-34.64</ele>
        <time>2017-06-03T12:32:46Z</time>
      </trkpt>
      <trkpt lat="42.4209" lon="8.63006">
        <ele>-35.96</ele>
        <time>2017-06-03T12:32:59Z</time>
      </trkpt>
      <trkpt lat="42.42085" lon="8.63042">
        <ele>-37.4</ele>
        <time>2017-06-03T12:33:12Z</time>
      </trkpt>
      <trkpt lat="42.42075" lon="8.63082">
        <ele>-38.67</ele>
        <time>2017-06-03T12:33:26Z</time>
      </trkpt>
      <trkpt lat="42.42069" lon="8.63122">
        <ele>-39.81</ele>
        <time>2017-06-03T12:33:39Z</time>
      </trkpt>
      <trkpt lat="42.4206" lon="8.63157">
        <ele>-40.98</ele>
        <time>2017-06-03T12:33:51Z</time>
      </trkpt>
      <trkpt lat="42.42046" lon="8.63194">
        <ele>-42.08</ele>
        <time>2017-06-03T12:34:05Z</time>
      </trkpt>
      <trkpt lat="42.42035" lon="8.63226">
        <ele>-43.21</ele>
        <time>2017-06-03T12:34:17Z</time>
      </trkpt>
      <trkpt lat="42.42033" lon="8.63275">
        <ele>-44.58</ele>
        <time>2017-06-03T12:34:31Z</time>
      </trkpt>
      <trkpt lat="42.4202" lon="8.63327">
        <ele>-46.37</ele>
        <time>2017-06-03T12:34:48Z</time>
      </trkpt>
      <trkpt lat="42.4201" lon="8.63377">
        <ele>-47.73</ele>
        <time>2017-06-03T12:35:05Z</time>
      </trkpt>
      <trkpt lat="42.42001" lon="8.63415">
        <ele>-49.1</ele>
        <time>2017-06-03T12:35:19Z</time>
      </trkpt>
      <trkpt lat="42.4199" lon="8.63462">
        <ele>-50.46</ele>
        <time>2017-06-03T12:35:34Z</time>
      </trkpt>
      <trkpt lat="42.41976" lon="8.63499">
        <ele>-51.79</ele>
        <time>2017-06-03T12:35:47Z</time>
      </trkpt>
      <trkpt lat="42.41966" lon="8.63531">
        <ele>-52.39</ele>
        <time>2017-06-03T12:35:59Z</time>
      </trkpt>
      <trkpt lat="42.41957" lon="8.63575">
        <ele>-53.73</ele>
        <time>2017-06-03T12:36:14Z</time>
      </trkpt>
      <trkpt lat="42.41951" lon="8.63622">
        <ele>-54.75</ele>
        <time>2017-06-03T12:36:29Z</time>
      </trkpt>
      <trkpt lat="42.41942" lon="8.63664">
        <ele>-55.65</ele>
        <time>2017-06-03T12:36:43Z</time>
      </trkpt>
      <trkpt lat="42.41937" lon="8.63685">
        <ele>-56.33</ele>
        <time>2017-06-03T12:36:52Z</time>
      </trkpt>
      <trkpt lat="42.41934" lon="8.63723">
        <ele>-56.9</ele>
        <time>2017-06-03T12:37:06Z</time>
      </trkpt>
      <trkpt lat="42.41935" lon="8.63756">
        <ele>-57.74</ele>
        <time>2017-06-03T12:37:18Z</time>
      </trkpt>
      <trkpt lat="42.41937" lon="8.63794">
        <ele>-58.41</ele>
        <time>2017-06-03T12:37:31Z</time>
      </trkpt>
      <trkpt lat="42.41927" lon="8.63836">
        <ele>-58.45</ele>
        <time>2017-06-03T12:37:45Z</time>
      </trkpt>
      <trkpt lat="42.41912" lon="8.63872">
        <ele>-58.87</ele>
        <time>2017-06-03T12:37:58Z</time>
      </trkpt>
      <trkpt lat="42.41898" lon="8.63915">
        <ele>-59.52</ele>
        <time>2017-06-03T12:38:13Z</time>
      </trkpt>
      <trkpt lat="42.41886" lon="8.63959">
        <ele>-60.07</ele>
        <time>2017-06-03T12:38:28Z</time>
      </trkpt>
      <trkpt lat="42.41869" lon="8.64005">
        <ele>-61.35</ele>
        <time>2017-06-03T12:38:43Z</time>
      </trkpt>
      <trkpt lat="42.41852" lon="8.64048">
        <ele>-62.49</ele>
        <time>2017-06-03T12:38:57Z</time>
      </trkpt>
      <trkpt lat="42.41837" lon="8.64083">
        <ele>-63.31</ele>
        <time>2017-06-03T12:39:09Z</time>
      </trkpt>
      <trkpt lat="42.41831" lon="8.64122">
        <ele>-64.59</ele>
        <time>2017-06-03T12:39:24Z</time>
      </trkpt>
      <trkpt lat="42.41812" lon="8.64154">
        <ele>-65.13</ele>
        <time>2017-06-03T12:39:38Z</time>
      </trkpt>
      <trkpt lat="42.41796" lon="8.6418">
        <ele>-65.4</ele>
        <time>2017-06-03T12:39:52Z</time>
      </trkpt>
      <trkpt lat="42.41789" lon="8.64195">
        <ele>-65.83</ele>
        <time>2017-06-03T12:39:59Z</time>
      </trkpt>
      <trkpt lat="42.41781" lon="8.6421">
        <ele>-66.37</ele>
        <time>2017-06-03T12:40:05Z</time>
      </trkpt>
      <trkpt lat="42.41767" lon="8.64245">
        <ele>-67.11</ele>
        <time>2017-06-03T12:40:20Z</time>
      </trkpt>
      <trkpt lat="42.41754" lon="8.64282">
        <ele>-68.1</ele>
        <time>2017-06-03T12:40:35Z</time>
      </trkpt>
      <trkpt lat="42.41736" lon="8.6432">
        <ele>-68.9</ele>
        <time>2017-06-03T12:40:51Z</time>
      </trkpt>
      <trkpt lat="42.41722" lon="8.6435">
        <ele>-69.19</ele>
        <time>2017-06-03T12:41:05Z</time>
      </trkpt>
      <trkpt lat="42.41709" lon="8.64387">
        <ele>-70.48</ele>
        <time>2017-06-03T12:41:20Z</time>
      </trkpt>
      <trkpt lat="42.41694" lon="8.64422">
        <ele>-71.35</ele>
        <time>2017-06-03T12:41:34Z</time>
      </trkpt>
      <trkpt lat="42.41677" lon="8.64457">
        <ele>-72.42</ele>
        <time>2017-06-03T12:41:49Z</time>
      </trkpt>
      <trkpt lat="42.41663" lon="8.64486">
        <ele>-72.98</ele>
        <time>2017-06-03T12:42:02Z</time>
      </trkpt>
      <trkpt lat="42.41646" lon="8.64514">
        <ele>-73.74</ele>
        <time>2017-06-03T12:42:17Z</time>
      </trkpt>
      <trkpt lat="42.41623" lon="8.64544">
        <ele>-74.64</ele>
        <time>2017-06-03T12:42:34Z</time>
      </trkpt>
      <trkpt lat="42.41605" lon="8.64568">
        <ele>-75.05</ele>
        <time>2017-06-03T12:42:47Z</time>
      </trkpt>
      <trkpt lat="42.41584" lon="8.64589">
        <ele>-75.94</ele>
        <time>2017-06-03T12:43:00Z</time>
      </trkpt>
      <trkpt lat="42.41567" lon="8.64588">
        <ele>-76.41</ele>
        <time>2017-06-03T12:43:10Z</time>
      </trkpt>
      <trkpt lat="42.41555" lon="8.64586">
        <ele>-76.8</ele>
        <time>2017-06-03T12:43:16Z</time>
      </trkpt>
      <trkpt lat="42.41521" lon="8.64581">
        <ele>-77.08</ele>
        <time>2017-06-03T12:43:33Z</time>
      </trkpt>
      <trkpt lat="42.415" lon="8.64558">
        <ele>-76.65</ele>
        <time>2017-06-03T12:43:48Z</time>
      </trkpt>
      <trkpt lat="42.41478" lon="8.64523">
        <ele>-75.88</ele>
        <time>2017-06-03T12:44:05Z</time>
      </trkpt>
      <trkpt lat="42.41447" lon="8.64445">
        <ele>-40.45</ele>
        <time>2017-06-03T12:48:22Z</time>
      </trkpt>
      <trkpt lat="42.41448" lon="8.64446">
        <ele>-40.93</ele>
        <time>2017-06-03T12:48:48Z</time>
      </trkpt>
      <trkpt lat="42.41449" lon="8.64447">
        <ele>-37.92</ele>
        <time>2017-06-03T12:49:07Z</time>
      </trkpt>
      <trkpt lat="42.41445" lon="8.64445">
        <ele>-35.18</ele>
        <time>2017-06-03T12:49:26Z</time>
      </trkpt>
      <trkpt lat="42.41447" lon="8.64445">
        <ele>-32.14</ele>
        <time>2017-06-03T12:49:51Z</time>
      </trkpt>
      <trkpt lat="42.41444" lon="8.64447">
        <ele>-30.94</ele>
        <time>2017-06-03T12:50:16Z</time>
      </trkpt>
      <trkpt lat="42.41443" lon="8.6444">
        <ele>-28.17</ele>
        <time>2017-06-03T12:50:34Z</time>
      </trkpt>
      <trkpt lat="42.41446" lon="8.64439">
        <ele>-26.75</ele>
        <time>2017-06-03T12:50:55Z</time>
      </trkpt>
      <trkpt lat="42.41445" lon="8.64437">
        <ele>-27.78</ele>
        <time>2017-06-03T12:51:16Z</time>
      </trkpt>
      <trkpt lat="42.41444" lon="8.64429">
        <ele>-30.88</ele>
        <time>2017-06-03T12:51:27Z</time>
      </trkpt>
      <trkpt lat="42.41432" lon="8.64412">
        <ele>-31.25</ele>
        <time>2017-06-03T12:51:54Z</time>
      </trkpt>
      <trkpt lat="42.41436" lon="8.644">
        <ele>-35.02</ele>
        <time>2017-06-03T12:52:27Z</time>
      </trkpt>
      <trkpt lat="42.4144" lon="8.64399">
        <ele>-31.64</ele>
        <time>2017-06-03T12:52:34Z</time>
      </trkpt>
      <trkpt lat="42.4144" lon="8.64396">
        <ele>-28.58</ele>
        <time>2017-06-03T12:52:37Z</time>
      </trkpt>
      <trkpt lat="42.41436" lon="8.64391">
        <ele>-25.25</ele>
        <time>2017-06-03T12:52:42Z</time>
      </trkpt>
      <trkpt lat="42.41435" lon="8.64376">
        <ele>-22.63</ele>
        <time>2017-06-03T12:53:00Z</time>
      </trkpt>
      <trkpt lat="42.41437" lon="8.64371">
        <ele>-22.84</ele>
        <time>2017-06-03T12:53:15Z</time>
      </trkpt>
      <trkpt lat="42.41442" lon="8.64377">
        <ele>-22.78</ele>
        <time>2017-06-03T12:53:39Z</time>
      </trkpt>
      <trkpt lat="42.41436" lon="8.64371">
        <ele>-25.34</ele>
        <time>2017-06-03T12:53:59Z</time>
      </trkpt>
      <trkpt lat="42.41435" lon="8.64372">
        <ele>-29.06</ele>
        <time>2017-06-03T12:54:07Z</time>
      </trkpt>
      <trkpt lat="42.41434" lon="8.64372">
        <ele>-32.47</ele>
        <time>2017-06-03T12:54:10Z</time>
      </trkpt>
      <trkpt lat="42.41434" lon="8.64372">
        <ele>-32.52</ele>
        <time>2017-06-03T12:54:11Z</time>
      </trkpt>
      <trkpt lat="42.41436" lon="8.64375">
        <ele>-29.27</ele>
        <time>2017-06-03T12:54:19Z</time>
      </trkpt>
      <trkpt lat="42.41434" lon="8.6437">
        <ele>-29.42</ele>
        <time>2017-06-03T12:54:41Z</time>
      </trkpt>
      <trkpt lat="42.41436" lon="8.64367">
        <ele>-29.78</ele>
        <time>2017-06-03T12:54:48Z</time>
      </trkpt>
      <trkpt lat="42.41442" lon="8.64372">
        <ele>-30.25</ele>
        <time>2017-06-03T12:55:05Z</time>
      </trkpt>
      <trkpt lat="42.41436" lon="8.64371">
        <ele>-32.28</ele>
        <time>2017-06-03T12:55:25Z</time>
      </trkpt>
      <trkpt lat="42.41434" lon="8.64379">
        <ele>-33.38</ele>
        <time>2017-06-03T12:55:42Z</time>
      </trkpt>
    </trkseg>
  </trk>
</gpx>